<?xml version="1.0" encoding="UTF-8" standalone="no" ?>
<gpx xmlns="http://www.topografix.com/GPX/1/1" xmlns:xsi="http://www.w3.org/2001/XMLSchema-instance" xsi:schemaLocation="http://www.topografix.com/GPX/1/1 http://www.topografix.com/GPX/1/1/gpx.xsd" version="1.1" creator="VisuGPX - https://www.visugpx.com">
  <metadata>
    <name>Chauray 8,5 km</name>
  </metadata>
  <wpt lat="46.37682" lon="-0.35883">
    <ele>35</ele>
  </wpt>
  <wpt lat="46.37877" lon="-0.34299">
    <ele>43.9</ele>
  </wpt>
  <wpt lat="46.37692" lon="-0.35286">
    <ele>35.9</ele>
  </wpt>
  <wpt lat="46.36609" lon="-0.36744">
    <ele>34.2</ele>
  </wpt>
  <wpt lat="46.36599" lon="-0.36748">
    <ele>35.3</ele>
  </wpt>
  <wpt lat="46.36599" lon="-0.36755">
    <ele>35.2</ele>
  </wpt>
  <wpt lat="46.3664" lon="-0.36898">
    <ele>34</ele>
  </wpt>
  <wpt lat="46.36614" lon="-0.36634">
    <ele>34.9</ele>
  </wpt>
  <trk>
    <name><![CDATA[Chauray 8,5 km_1]]></name>
    <trkseg>
      <trkpt lat="46.36603" lon="-0.36597">
        <ele>84.1</ele>
        <time>2012-03-13T13:55:28Z</time>
      </trkpt>
      <trkpt lat="46.36602" lon="-0.36596">
        <ele>82.3</ele>
        <time>2012-03-13T13:55:33Z</time>
      </trkpt>
      <trkpt lat="46.36602" lon="-0.36596">
        <ele>83</ele>
        <time>2012-03-13T13:55:38Z</time>
      </trkpt>
      <trkpt lat="46.36602" lon="-0.36596">
        <ele>82.9</ele>
        <time>2012-03-13T13:55:43Z</time>
      </trkpt>
      <trkpt lat="46.36602" lon="-0.36596">
        <ele>82.9</ele>
        <time>2012-03-13T13:55:48Z</time>
      </trkpt>
      <trkpt lat="46.36606" lon="-0.36599">
        <ele>83.5</ele>
        <time>2012-03-13T13:55:59Z</time>
      </trkpt>
      <trkpt lat="46.36607" lon="-0.36601">
        <ele>84.2</ele>
        <time>2012-03-13T13:56:05Z</time>
      </trkpt>
      <trkpt lat="46.36607" lon="-0.36602">
        <ele>83.6</ele>
        <time>2012-03-13T13:56:08Z</time>
      </trkpt>
      <trkpt lat="46.36608" lon="-0.36605">
        <ele>82.3</ele>
        <time>2012-03-13T13:56:15Z</time>
      </trkpt>
      <trkpt lat="46.36608" lon="-0.36606">
        <ele>82.7</ele>
        <time>2012-03-13T13:56:18Z</time>
      </trkpt>
      <trkpt lat="46.36609" lon="-0.36605">
        <ele>81</ele>
        <time>2012-03-13T13:56:25Z</time>
      </trkpt>
      <trkpt lat="46.36609" lon="-0.36605">
        <ele>80.6</ele>
        <time>2012-03-13T13:56:30Z</time>
      </trkpt>
      <trkpt lat="46.36608" lon="-0.36606">
        <ele>79.3</ele>
        <time>2012-03-13T13:56:37Z</time>
      </trkpt>
      <trkpt lat="46.36608" lon="-0.36606">
        <ele>79</ele>
        <time>2012-03-13T13:56:39Z</time>
      </trkpt>
      <trkpt lat="46.36607" lon="-0.36606">
        <ele>78.4</ele>
        <time>2012-03-13T13:56:48Z</time>
      </trkpt>
      <trkpt lat="46.36607" lon="-0.36606">
        <ele>78.4</ele>
        <time>2012-03-13T13:56:48Z</time>
      </trkpt>
      <trkpt lat="46.36607" lon="-0.36606">
        <ele>78.4</ele>
        <time>2012-03-13T13:56:58Z</time>
      </trkpt>
      <trkpt lat="46.36607" lon="-0.36606">
        <ele>78.4</ele>
        <time>2012-03-13T13:57:09Z</time>
      </trkpt>
      <trkpt lat="46.36607" lon="-0.36606">
        <ele>78.4</ele>
        <time>2012-03-13T13:57:09Z</time>
      </trkpt>
      <trkpt lat="46.36607" lon="-0.36606">
        <ele>78.4</ele>
        <time>2012-03-13T13:57:18Z</time>
      </trkpt>
      <trkpt lat="46.36607" lon="-0.36606">
        <ele>78.4</ele>
        <time>2012-03-13T13:57:18Z</time>
      </trkpt>
      <trkpt lat="46.36607" lon="-0.36606">
        <ele>78.4</ele>
        <time>2012-03-13T13:57:29Z</time>
      </trkpt>
      <trkpt lat="46.36607" lon="-0.36606">
        <ele>78.4</ele>
        <time>2012-03-13T13:57:29Z</time>
      </trkpt>
      <trkpt lat="46.36607" lon="-0.36606">
        <ele>78.4</ele>
        <time>2012-03-13T13:57:38Z</time>
      </trkpt>
      <trkpt lat="46.36607" lon="-0.36606">
        <ele>78.4</ele>
        <time>2012-03-13T13:57:38Z</time>
      </trkpt>
      <trkpt lat="46.36609" lon="-0.36609">
        <ele>78.7</ele>
        <time>2012-03-13T13:57:48Z</time>
      </trkpt>
      <trkpt lat="46.36608" lon="-0.3661">
        <ele>80.7</ele>
        <time>2012-03-13T13:57:54Z</time>
      </trkpt>
      <trkpt lat="46.36608" lon="-0.3661">
        <ele>80.7</ele>
        <time>2012-03-13T13:58:02Z</time>
      </trkpt>
      <trkpt lat="46.36609" lon="-0.36612">
        <ele>81</ele>
        <time>2012-03-13T13:58:04Z</time>
      </trkpt>
      <trkpt lat="46.36613" lon="-0.36624">
        <ele>81.6</ele>
        <time>2012-03-13T13:58:11Z</time>
      </trkpt>
      <trkpt lat="46.36613" lon="-0.36625">
        <ele>81.1</ele>
        <time>2012-03-13T13:58:13Z</time>
      </trkpt>
      <trkpt lat="46.36614" lon="-0.36633">
        <ele>83.2</ele>
        <time>2012-03-13T13:58:21Z</time>
      </trkpt>
      <trkpt lat="46.36612" lon="-0.36639">
        <ele>82.6</ele>
        <time>2012-03-13T13:58:25Z</time>
      </trkpt>
      <trkpt lat="46.36612" lon="-0.36639">
        <ele>82.8</ele>
        <time>2012-03-13T13:58:29Z</time>
      </trkpt>
      <trkpt lat="46.36617" lon="-0.36633">
        <ele>82.9</ele>
        <time>2012-03-13T13:58:39Z</time>
      </trkpt>
      <trkpt lat="46.36616" lon="-0.36631">
        <ele>85</ele>
        <time>2012-03-13T13:58:49Z</time>
      </trkpt>
      <trkpt lat="46.36616" lon="-0.36631">
        <ele>85.1</ele>
        <time>2012-03-13T13:58:50Z</time>
      </trkpt>
      <trkpt lat="46.36616" lon="-0.36632">
        <ele>85.1</ele>
        <time>2012-03-13T13:58:56Z</time>
      </trkpt>
      <trkpt lat="46.36616" lon="-0.36632">
        <ele>84.9</ele>
        <time>2012-03-13T13:59:00Z</time>
      </trkpt>
      <trkpt lat="46.36622" lon="-0.36631">
        <ele>84.2</ele>
        <time>2012-03-13T13:59:06Z</time>
      </trkpt>
      <trkpt lat="46.36626" lon="-0.36631">
        <ele>84.5</ele>
        <time>2012-03-13T13:59:10Z</time>
      </trkpt>
      <trkpt lat="46.36631" lon="-0.36631">
        <ele>83.4</ele>
        <time>2012-03-13T13:59:17Z</time>
      </trkpt>
      <trkpt lat="46.36632" lon="-0.3663">
        <ele>83.1</ele>
        <time>2012-03-13T13:59:18Z</time>
      </trkpt>
      <trkpt lat="46.36639" lon="-0.36614">
        <ele>82.9</ele>
        <time>2012-03-13T13:59:31Z</time>
      </trkpt>
      <trkpt lat="46.36637" lon="-0.3661">
        <ele>82.7</ele>
        <time>2012-03-13T13:59:32Z</time>
      </trkpt>
      <trkpt lat="46.36637" lon="-0.36603">
        <ele>82.5</ele>
        <time>2012-03-13T13:59:36Z</time>
      </trkpt>
      <trkpt lat="46.36638" lon="-0.36599">
        <ele>82.3</ele>
        <time>2012-03-13T13:59:40Z</time>
      </trkpt>
      <trkpt lat="46.36645" lon="-0.36595">
        <ele>83.1</ele>
        <time>2012-03-13T13:59:47Z</time>
      </trkpt>
      <trkpt lat="46.36645" lon="-0.36592">
        <ele>82.1</ele>
        <time>2012-03-13T13:59:49Z</time>
      </trkpt>
      <trkpt lat="46.36647" lon="-0.36579">
        <ele>82.5</ele>
        <time>2012-03-13T13:59:56Z</time>
      </trkpt>
      <trkpt lat="46.36645" lon="-0.36573">
        <ele>82.8</ele>
        <time>2012-03-13T14:00:01Z</time>
      </trkpt>
      <trkpt lat="46.36643" lon="-0.36553">
        <ele>87.3</ele>
        <time>2012-03-13T14:00:05Z</time>
      </trkpt>
      <trkpt lat="46.36645" lon="-0.36545">
        <ele>86.6</ele>
        <time>2012-03-13T14:00:12Z</time>
      </trkpt>
      <trkpt lat="46.36646" lon="-0.36544">
        <ele>86.5</ele>
        <time>2012-03-13T14:00:14Z</time>
      </trkpt>
      <trkpt lat="46.36648" lon="-0.36538">
        <ele>86.6</ele>
        <time>2012-03-13T14:00:19Z</time>
      </trkpt>
      <trkpt lat="46.36648" lon="-0.36533">
        <ele>87</ele>
        <time>2012-03-13T14:00:24Z</time>
      </trkpt>
      <trkpt lat="46.36648" lon="-0.36524">
        <ele>86.2</ele>
        <time>2012-03-13T14:00:31Z</time>
      </trkpt>
      <trkpt lat="46.36648" lon="-0.36518">
        <ele>86.1</ele>
        <time>2012-03-13T14:00:35Z</time>
      </trkpt>
      <trkpt lat="46.36647" lon="-0.36507">
        <ele>87.4</ele>
        <time>2012-03-13T14:00:43Z</time>
      </trkpt>
      <trkpt lat="46.36646" lon="-0.36505">
        <ele>87.9</ele>
        <time>2012-03-13T14:00:44Z</time>
      </trkpt>
      <trkpt lat="46.36644" lon="-0.36486">
        <ele>87.3</ele>
        <time>2012-03-13T14:00:55Z</time>
      </trkpt>
      <trkpt lat="46.36644" lon="-0.36473">
        <ele>84.8</ele>
        <time>2012-03-13T14:01:03Z</time>
      </trkpt>
      <trkpt lat="46.36645" lon="-0.36471">
        <ele>84.3</ele>
        <time>2012-03-13T14:01:03Z</time>
      </trkpt>
      <trkpt lat="46.36646" lon="-0.36461">
        <ele>84.4</ele>
        <time>2012-03-13T14:01:12Z</time>
      </trkpt>
      <trkpt lat="46.36647" lon="-0.36463">
        <ele>82.8</ele>
        <time>2012-03-13T14:01:14Z</time>
      </trkpt>
      <trkpt lat="46.36658" lon="-0.36459">
        <ele>86</ele>
        <time>2012-03-13T14:01:19Z</time>
      </trkpt>
      <trkpt lat="46.36667" lon="-0.36456">
        <ele>83.7</ele>
        <time>2012-03-13T14:01:27Z</time>
      </trkpt>
      <trkpt lat="46.36668" lon="-0.36456">
        <ele>83.6</ele>
        <time>2012-03-13T14:01:30Z</time>
      </trkpt>
      <trkpt lat="46.3668" lon="-0.36452">
        <ele>83.5</ele>
        <time>2012-03-13T14:01:38Z</time>
      </trkpt>
      <trkpt lat="46.36681" lon="-0.36451">
        <ele>83.6</ele>
        <time>2012-03-13T14:01:38Z</time>
      </trkpt>
      <trkpt lat="46.36694" lon="-0.36451">
        <ele>79.4</ele>
        <time>2012-03-13T14:01:51Z</time>
      </trkpt>
      <trkpt lat="46.36694" lon="-0.3645">
        <ele>79.6</ele>
        <time>2012-03-13T14:01:51Z</time>
      </trkpt>
      <trkpt lat="46.36697" lon="-0.36449">
        <ele>79</ele>
        <time>2012-03-13T14:01:54Z</time>
      </trkpt>
      <trkpt lat="46.36702" lon="-0.36446">
        <ele>80.6</ele>
        <time>2012-03-13T14:02:02Z</time>
      </trkpt>
      <trkpt lat="46.36705" lon="-0.36446">
        <ele>80.9</ele>
        <time>2012-03-13T14:02:04Z</time>
      </trkpt>
      <trkpt lat="46.36711" lon="-0.36444">
        <ele>82.8</ele>
        <time>2012-03-13T14:02:11Z</time>
      </trkpt>
      <trkpt lat="46.36717" lon="-0.36443">
        <ele>84.2</ele>
        <time>2012-03-13T14:02:16Z</time>
      </trkpt>
      <trkpt lat="46.36725" lon="-0.36442">
        <ele>85.7</ele>
        <time>2012-03-13T14:02:20Z</time>
      </trkpt>
      <trkpt lat="46.36729" lon="-0.36441">
        <ele>84.9</ele>
        <time>2012-03-13T14:02:28Z</time>
      </trkpt>
      <trkpt lat="46.3674" lon="-0.36437">
        <ele>81.1</ele>
        <time>2012-03-13T14:02:41Z</time>
      </trkpt>
      <trkpt lat="46.36744" lon="-0.36436">
        <ele>81</ele>
        <time>2012-03-13T14:02:46Z</time>
      </trkpt>
      <trkpt lat="46.36749" lon="-0.36433">
        <ele>83.3</ele>
        <time>2012-03-13T14:02:50Z</time>
      </trkpt>
      <trkpt lat="46.3675" lon="-0.36429">
        <ele>82.2</ele>
        <time>2012-03-13T14:02:55Z</time>
      </trkpt>
      <trkpt lat="46.36756" lon="-0.36429">
        <ele>82</ele>
        <time>2012-03-13T14:03:03Z</time>
      </trkpt>
      <trkpt lat="46.3676" lon="-0.36429">
        <ele>82.4</ele>
        <time>2012-03-13T14:03:03Z</time>
      </trkpt>
      <trkpt lat="46.36773" lon="-0.36425">
        <ele>83.7</ele>
        <time>2012-03-13T14:03:15Z</time>
      </trkpt>
      <trkpt lat="46.36775" lon="-0.36425">
        <ele>84.7</ele>
        <time>2012-03-13T14:03:15Z</time>
      </trkpt>
      <trkpt lat="46.36782" lon="-0.36423">
        <ele>86.3</ele>
        <time>2012-03-13T14:03:23Z</time>
      </trkpt>
      <trkpt lat="46.36794" lon="-0.36421">
        <ele>86.5</ele>
        <time>2012-03-13T14:03:35Z</time>
      </trkpt>
      <trkpt lat="46.36794" lon="-0.36421">
        <ele>85.7</ele>
        <time>2012-03-13T14:03:35Z</time>
      </trkpt>
      <trkpt lat="46.36799" lon="-0.36421">
        <ele>85.3</ele>
        <time>2012-03-13T14:03:42Z</time>
      </trkpt>
      <trkpt lat="46.36801" lon="-0.36423">
        <ele>85.4</ele>
        <time>2012-03-13T14:03:44Z</time>
      </trkpt>
      <trkpt lat="46.3681" lon="-0.3643">
        <ele>89.7</ele>
        <time>2012-03-13T14:03:52Z</time>
      </trkpt>
      <trkpt lat="46.36811" lon="-0.3643">
        <ele>89.6</ele>
        <time>2012-03-13T14:03:53Z</time>
      </trkpt>
      <trkpt lat="46.36815" lon="-0.36421">
        <ele>87.7</ele>
        <time>2012-03-13T14:04:02Z</time>
      </trkpt>
      <trkpt lat="46.36816" lon="-0.36417">
        <ele>88.3</ele>
        <time>2012-03-13T14:04:04Z</time>
      </trkpt>
      <trkpt lat="46.36818" lon="-0.36403">
        <ele>92.5</ele>
        <time>2012-03-13T14:04:12Z</time>
      </trkpt>
      <trkpt lat="46.36819" lon="-0.364">
        <ele>92.7</ele>
        <time>2012-03-13T14:04:14Z</time>
      </trkpt>
      <trkpt lat="46.36821" lon="-0.36385">
        <ele>90.3</ele>
        <time>2012-03-13T14:04:25Z</time>
      </trkpt>
      <trkpt lat="46.36821" lon="-0.36378">
        <ele>92.1</ele>
        <time>2012-03-13T14:04:26Z</time>
      </trkpt>
      <trkpt lat="46.36824" lon="-0.3637">
        <ele>93.3</ele>
        <time>2012-03-13T14:04:30Z</time>
      </trkpt>
      <trkpt lat="46.36828" lon="-0.3637">
        <ele>93.9</ele>
        <time>2012-03-13T14:04:35Z</time>
      </trkpt>
      <trkpt lat="46.36831" lon="-0.36374">
        <ele>89.8</ele>
        <time>2012-03-13T14:04:43Z</time>
      </trkpt>
      <trkpt lat="46.36832" lon="-0.36374">
        <ele>90.6</ele>
        <time>2012-03-13T14:04:43Z</time>
      </trkpt>
      <trkpt lat="46.36846" lon="-0.36386">
        <ele>94.2</ele>
        <time>2012-03-13T14:04:55Z</time>
      </trkpt>
      <trkpt lat="46.3685" lon="-0.36391">
        <ele>93.4</ele>
        <time>2012-03-13T14:05:02Z</time>
      </trkpt>
      <trkpt lat="46.36853" lon="-0.36394">
        <ele>93.4</ele>
        <time>2012-03-13T14:05:04Z</time>
      </trkpt>
      <trkpt lat="46.3686" lon="-0.36399">
        <ele>89.6</ele>
        <time>2012-03-13T14:05:12Z</time>
      </trkpt>
      <trkpt lat="46.36861" lon="-0.36401">
        <ele>89.8</ele>
        <time>2012-03-13T14:05:15Z</time>
      </trkpt>
      <trkpt lat="46.36863" lon="-0.36402">
        <ele>89.7</ele>
        <time>2012-03-13T14:05:18Z</time>
      </trkpt>
      <trkpt lat="46.36869" lon="-0.36405">
        <ele>86.5</ele>
        <time>2012-03-13T14:05:28Z</time>
      </trkpt>
      <trkpt lat="46.36879" lon="-0.36409">
        <ele>87.6</ele>
        <time>2012-03-13T14:05:37Z</time>
      </trkpt>
      <trkpt lat="46.36881" lon="-0.36411">
        <ele>86.9</ele>
        <time>2012-03-13T14:05:40Z</time>
      </trkpt>
      <trkpt lat="46.36891" lon="-0.36417">
        <ele>90</ele>
        <time>2012-03-13T14:05:48Z</time>
      </trkpt>
      <trkpt lat="46.36892" lon="-0.36418">
        <ele>90.3</ele>
        <time>2012-03-13T14:05:48Z</time>
      </trkpt>
      <trkpt lat="46.36902" lon="-0.36426">
        <ele>92.1</ele>
        <time>2012-03-13T14:05:56Z</time>
      </trkpt>
      <trkpt lat="46.36906" lon="-0.3643">
        <ele>91.7</ele>
        <time>2012-03-13T14:06:00Z</time>
      </trkpt>
      <trkpt lat="46.36913" lon="-0.36438">
        <ele>95.2</ele>
        <time>2012-03-13T14:06:08Z</time>
      </trkpt>
      <trkpt lat="46.36914" lon="-0.36439">
        <ele>95.5</ele>
        <time>2012-03-13T14:06:08Z</time>
      </trkpt>
      <trkpt lat="46.36921" lon="-0.36444">
        <ele>95.4</ele>
        <time>2012-03-13T14:06:15Z</time>
      </trkpt>
      <trkpt lat="46.36932" lon="-0.36449">
        <ele>95.4</ele>
        <time>2012-03-13T14:06:24Z</time>
      </trkpt>
      <trkpt lat="46.36932" lon="-0.3645">
        <ele>95.1</ele>
        <time>2012-03-13T14:06:24Z</time>
      </trkpt>
      <trkpt lat="46.3694" lon="-0.36458">
        <ele>92.5</ele>
        <time>2012-03-13T14:06:35Z</time>
      </trkpt>
      <trkpt lat="46.36942" lon="-0.36459">
        <ele>93</ele>
        <time>2012-03-13T14:06:35Z</time>
      </trkpt>
      <trkpt lat="46.36949" lon="-0.36459">
        <ele>85.3</ele>
        <time>2012-03-13T14:06:43Z</time>
      </trkpt>
      <trkpt lat="46.36951" lon="-0.36459">
        <ele>85.1</ele>
        <time>2012-03-13T14:06:43Z</time>
      </trkpt>
      <trkpt lat="46.36959" lon="-0.36476">
        <ele>81.8</ele>
        <time>2012-03-13T14:06:54Z</time>
      </trkpt>
      <trkpt lat="46.36965" lon="-0.3648">
        <ele>78</ele>
        <time>2012-03-13T14:07:03Z</time>
      </trkpt>
      <trkpt lat="46.36967" lon="-0.3648">
        <ele>79</ele>
        <time>2012-03-13T14:07:03Z</time>
      </trkpt>
      <trkpt lat="46.3698" lon="-0.36479">
        <ele>81.7</ele>
        <time>2012-03-13T14:07:17Z</time>
      </trkpt>
      <trkpt lat="46.36982" lon="-0.36476">
        <ele>81.9</ele>
        <time>2012-03-13T14:07:18Z</time>
      </trkpt>
      <trkpt lat="46.36984" lon="-0.36465">
        <ele>88.5</ele>
        <time>2012-03-13T14:07:29Z</time>
      </trkpt>
      <trkpt lat="46.36983" lon="-0.36463">
        <ele>88.3</ele>
        <time>2012-03-13T14:07:30Z</time>
      </trkpt>
      <trkpt lat="46.36977" lon="-0.36445">
        <ele>91.4</ele>
        <time>2012-03-13T14:07:39Z</time>
      </trkpt>
      <trkpt lat="46.36977" lon="-0.36444">
        <ele>91.6</ele>
        <time>2012-03-13T14:07:40Z</time>
      </trkpt>
      <trkpt lat="46.36974" lon="-0.36438">
        <ele>90.9</ele>
        <time>2012-03-13T14:07:48Z</time>
      </trkpt>
      <trkpt lat="46.36974" lon="-0.36435">
        <ele>90.8</ele>
        <time>2012-03-13T14:07:48Z</time>
      </trkpt>
      <trkpt lat="46.36968" lon="-0.36415">
        <ele>89.4</ele>
        <time>2012-03-13T14:07:55Z</time>
      </trkpt>
      <trkpt lat="46.36968" lon="-0.36412">
        <ele>89.2</ele>
        <time>2012-03-13T14:08:03Z</time>
      </trkpt>
      <trkpt lat="46.36967" lon="-0.3641">
        <ele>89.2</ele>
        <time>2012-03-13T14:08:04Z</time>
      </trkpt>
      <trkpt lat="46.36965" lon="-0.36399">
        <ele>86.7</ele>
        <time>2012-03-13T14:08:10Z</time>
      </trkpt>
      <trkpt lat="46.36964" lon="-0.3639">
        <ele>85.6</ele>
        <time>2012-03-13T14:08:14Z</time>
      </trkpt>
      <trkpt lat="46.36962" lon="-0.36376">
        <ele>86.8</ele>
        <time>2012-03-13T14:08:25Z</time>
      </trkpt>
      <trkpt lat="46.36961" lon="-0.36376">
        <ele>86.8</ele>
        <time>2012-03-13T14:08:26Z</time>
      </trkpt>
      <trkpt lat="46.36957" lon="-0.36366">
        <ele>87.9</ele>
        <time>2012-03-13T14:08:32Z</time>
      </trkpt>
      <trkpt lat="46.36957" lon="-0.36364">
        <ele>86.5</ele>
        <time>2012-03-13T14:08:33Z</time>
      </trkpt>
      <trkpt lat="46.3696" lon="-0.36345">
        <ele>84.1</ele>
        <time>2012-03-13T14:08:45Z</time>
      </trkpt>
      <trkpt lat="46.36961" lon="-0.36341">
        <ele>85.2</ele>
        <time>2012-03-13T14:08:45Z</time>
      </trkpt>
      <trkpt lat="46.36961" lon="-0.36332">
        <ele>86.4</ele>
        <time>2012-03-13T14:08:54Z</time>
      </trkpt>
      <trkpt lat="46.36961" lon="-0.36331">
        <ele>85.4</ele>
        <time>2012-03-13T14:08:54Z</time>
      </trkpt>
      <trkpt lat="46.36963" lon="-0.36319">
        <ele>85.5</ele>
        <time>2012-03-13T14:09:02Z</time>
      </trkpt>
      <trkpt lat="46.36963" lon="-0.36317">
        <ele>85.5</ele>
        <time>2012-03-13T14:09:04Z</time>
      </trkpt>
      <trkpt lat="46.36972" lon="-0.36303">
        <ele>89.6</ele>
        <time>2012-03-13T14:09:14Z</time>
      </trkpt>
      <trkpt lat="46.36972" lon="-0.36288">
        <ele>88.6</ele>
        <time>2012-03-13T14:09:24Z</time>
      </trkpt>
      <trkpt lat="46.3697" lon="-0.36286">
        <ele>88.8</ele>
        <time>2012-03-13T14:09:25Z</time>
      </trkpt>
      <trkpt lat="46.36963" lon="-0.36277">
        <ele>89.9</ele>
        <time>2012-03-13T14:09:32Z</time>
      </trkpt>
      <trkpt lat="46.36963" lon="-0.36276">
        <ele>89.6</ele>
        <time>2012-03-13T14:09:33Z</time>
      </trkpt>
      <trkpt lat="46.36951" lon="-0.3627">
        <ele>87.8</ele>
        <time>2012-03-13T14:09:47Z</time>
      </trkpt>
      <trkpt lat="46.3695" lon="-0.36269">
        <ele>87.9</ele>
        <time>2012-03-13T14:09:47Z</time>
      </trkpt>
      <trkpt lat="46.3695" lon="-0.36266">
        <ele>88.3</ele>
        <time>2012-03-13T14:09:49Z</time>
      </trkpt>
      <trkpt lat="46.36956" lon="-0.36257">
        <ele>88.2</ele>
        <time>2012-03-13T14:09:55Z</time>
      </trkpt>
      <trkpt lat="46.36956" lon="-0.36239">
        <ele>88.9</ele>
        <time>2012-03-13T14:10:03Z</time>
      </trkpt>
      <trkpt lat="46.36954" lon="-0.36234">
        <ele>89</ele>
        <time>2012-03-13T14:10:03Z</time>
      </trkpt>
      <trkpt lat="46.36968" lon="-0.36221">
        <ele>87.1</ele>
        <time>2012-03-13T14:10:16Z</time>
      </trkpt>
      <trkpt lat="46.3697" lon="-0.36221">
        <ele>87.7</ele>
        <time>2012-03-13T14:10:16Z</time>
      </trkpt>
      <trkpt lat="46.36971" lon="-0.36215">
        <ele>87.2</ele>
        <time>2012-03-13T14:10:20Z</time>
      </trkpt>
      <trkpt lat="46.36971" lon="-0.3621">
        <ele>85.3</ele>
        <time>2012-03-13T14:10:26Z</time>
      </trkpt>
      <trkpt lat="46.36975" lon="-0.36204">
        <ele>85.7</ele>
        <time>2012-03-13T14:10:30Z</time>
      </trkpt>
      <trkpt lat="46.36979" lon="-0.36195">
        <ele>84.9</ele>
        <time>2012-03-13T14:10:37Z</time>
      </trkpt>
      <trkpt lat="46.36982" lon="-0.36192">
        <ele>85.2</ele>
        <time>2012-03-13T14:10:39Z</time>
      </trkpt>
      <trkpt lat="46.36985" lon="-0.36177">
        <ele>81.7</ele>
        <time>2012-03-13T14:10:49Z</time>
      </trkpt>
      <trkpt lat="46.36984" lon="-0.36174">
        <ele>81.7</ele>
        <time>2012-03-13T14:10:50Z</time>
      </trkpt>
      <trkpt lat="46.36983" lon="-0.36165">
        <ele>82.4</ele>
        <time>2012-03-13T14:10:55Z</time>
      </trkpt>
      <trkpt lat="46.36985" lon="-0.36154">
        <ele>86.6</ele>
        <time>2012-03-13T14:11:02Z</time>
      </trkpt>
      <trkpt lat="46.36985" lon="-0.36152">
        <ele>86.3</ele>
        <time>2012-03-13T14:11:04Z</time>
      </trkpt>
      <trkpt lat="46.36986" lon="-0.36138">
        <ele>87.7</ele>
        <time>2012-03-13T14:11:14Z</time>
      </trkpt>
      <trkpt lat="46.36986" lon="-0.36137">
        <ele>87.5</ele>
        <time>2012-03-13T14:11:14Z</time>
      </trkpt>
      <trkpt lat="46.36985" lon="-0.36123">
        <ele>92.1</ele>
        <time>2012-03-13T14:11:24Z</time>
      </trkpt>
      <trkpt lat="46.36986" lon="-0.36121">
        <ele>92.5</ele>
        <time>2012-03-13T14:11:24Z</time>
      </trkpt>
      <trkpt lat="46.36984" lon="-0.36112">
        <ele>93.2</ele>
        <time>2012-03-13T14:11:34Z</time>
      </trkpt>
      <trkpt lat="46.36984" lon="-0.36111">
        <ele>93.2</ele>
        <time>2012-03-13T14:11:34Z</time>
      </trkpt>
      <trkpt lat="46.36984" lon="-0.36104">
        <ele>92.1</ele>
        <time>2012-03-13T14:11:43Z</time>
      </trkpt>
      <trkpt lat="46.36984" lon="-0.36103">
        <ele>92.3</ele>
        <time>2012-03-13T14:11:44Z</time>
      </trkpt>
      <trkpt lat="46.36983" lon="-0.36085">
        <ele>92.6</ele>
        <time>2012-03-13T14:11:54Z</time>
      </trkpt>
      <trkpt lat="46.36983" lon="-0.36072">
        <ele>94</ele>
        <time>2012-03-13T14:12:03Z</time>
      </trkpt>
      <trkpt lat="46.36983" lon="-0.36069">
        <ele>95.8</ele>
        <time>2012-03-13T14:12:03Z</time>
      </trkpt>
      <trkpt lat="46.36982" lon="-0.3605">
        <ele>94.8</ele>
        <time>2012-03-13T14:12:16Z</time>
      </trkpt>
      <trkpt lat="46.36981" lon="-0.36048">
        <ele>95.1</ele>
        <time>2012-03-13T14:12:16Z</time>
      </trkpt>
      <trkpt lat="46.36981" lon="-0.36041">
        <ele>92.7</ele>
        <time>2012-03-13T14:12:20Z</time>
      </trkpt>
      <trkpt lat="46.36981" lon="-0.36035">
        <ele>93.4</ele>
        <time>2012-03-13T14:12:24Z</time>
      </trkpt>
      <trkpt lat="46.3698" lon="-0.3602">
        <ele>92.8</ele>
        <time>2012-03-13T14:12:34Z</time>
      </trkpt>
      <trkpt lat="46.3698" lon="-0.36019">
        <ele>92.6</ele>
        <time>2012-03-13T14:12:34Z</time>
      </trkpt>
      <trkpt lat="46.36979" lon="-0.36011">
        <ele>90.8</ele>
        <time>2012-03-13T14:12:42Z</time>
      </trkpt>
      <trkpt lat="46.36979" lon="-0.36008">
        <ele>90.1</ele>
        <time>2012-03-13T14:12:43Z</time>
      </trkpt>
      <trkpt lat="46.36984" lon="-0.35999">
        <ele>88.5</ele>
        <time>2012-03-13T14:12:54Z</time>
      </trkpt>
      <trkpt lat="46.36985" lon="-0.35999">
        <ele>89.3</ele>
        <time>2012-03-13T14:12:55Z</time>
      </trkpt>
      <trkpt lat="46.36989" lon="-0.36">
        <ele>90.3</ele>
        <time>2012-03-13T14:13:01Z</time>
      </trkpt>
      <trkpt lat="46.36989" lon="-0.36">
        <ele>89.8</ele>
        <time>2012-03-13T14:13:03Z</time>
      </trkpt>
      <trkpt lat="46.36988" lon="-0.36">
        <ele>89.3</ele>
        <time>2012-03-13T14:13:10Z</time>
      </trkpt>
      <trkpt lat="46.36988" lon="-0.36">
        <ele>89.3</ele>
        <time>2012-03-13T14:13:17Z</time>
      </trkpt>
      <trkpt lat="46.36988" lon="-0.36">
        <ele>89.3</ele>
        <time>2012-03-13T14:13:18Z</time>
      </trkpt>
      <trkpt lat="46.36988" lon="-0.36">
        <ele>89.3</ele>
        <time>2012-03-13T14:13:29Z</time>
      </trkpt>
      <trkpt lat="46.36988" lon="-0.36">
        <ele>89.3</ele>
        <time>2012-03-13T14:13:30Z</time>
      </trkpt>
      <trkpt lat="46.3699" lon="-0.36003">
        <ele>90.1</ele>
        <time>2012-03-13T14:13:36Z</time>
      </trkpt>
      <trkpt lat="46.3699" lon="-0.36005">
        <ele>89.8</ele>
        <time>2012-03-13T14:13:40Z</time>
      </trkpt>
      <trkpt lat="46.36994" lon="-0.36012">
        <ele>88.7</ele>
        <time>2012-03-13T14:13:47Z</time>
      </trkpt>
      <trkpt lat="46.36995" lon="-0.36014">
        <ele>88.9</ele>
        <time>2012-03-13T14:13:48Z</time>
      </trkpt>
      <trkpt lat="46.37004" lon="-0.36028">
        <ele>90</ele>
        <time>2012-03-13T14:13:58Z</time>
      </trkpt>
      <trkpt lat="46.37006" lon="-0.36029">
        <ele>89.8</ele>
        <time>2012-03-13T14:13:59Z</time>
      </trkpt>
      <trkpt lat="46.37017" lon="-0.36036">
        <ele>88.5</ele>
        <time>2012-03-13T14:14:10Z</time>
      </trkpt>
      <trkpt lat="46.37019" lon="-0.36036">
        <ele>87.7</ele>
        <time>2012-03-13T14:14:13Z</time>
      </trkpt>
      <trkpt lat="46.37029" lon="-0.3604">
        <ele>89.7</ele>
        <time>2012-03-13T14:14:23Z</time>
      </trkpt>
      <trkpt lat="46.37029" lon="-0.3604">
        <ele>90.5</ele>
        <time>2012-03-13T14:14:23Z</time>
      </trkpt>
      <trkpt lat="46.3704" lon="-0.36048">
        <ele>91.9</ele>
        <time>2012-03-13T14:14:37Z</time>
      </trkpt>
      <trkpt lat="46.37042" lon="-0.36049">
        <ele>92.2</ele>
        <time>2012-03-13T14:14:37Z</time>
      </trkpt>
      <trkpt lat="46.37043" lon="-0.36051">
        <ele>93.3</ele>
        <time>2012-03-13T14:14:39Z</time>
      </trkpt>
      <trkpt lat="46.37051" lon="-0.36061">
        <ele>92.5</ele>
        <time>2012-03-13T14:14:49Z</time>
      </trkpt>
      <trkpt lat="46.37059" lon="-0.3607">
        <ele>91.2</ele>
        <time>2012-03-13T14:14:57Z</time>
      </trkpt>
      <trkpt lat="46.3706" lon="-0.36075">
        <ele>90.8</ele>
        <time>2012-03-13T14:14:59Z</time>
      </trkpt>
      <trkpt lat="46.37063" lon="-0.3608">
        <ele>91.4</ele>
        <time>2012-03-13T14:15:04Z</time>
      </trkpt>
      <trkpt lat="46.37069" lon="-0.36091">
        <ele>93</ele>
        <time>2012-03-13T14:15:11Z</time>
      </trkpt>
      <trkpt lat="46.37072" lon="-0.36096">
        <ele>91.7</ele>
        <time>2012-03-13T14:15:16Z</time>
      </trkpt>
      <trkpt lat="46.37075" lon="-0.36097">
        <ele>90.6</ele>
        <time>2012-03-13T14:15:22Z</time>
      </trkpt>
      <trkpt lat="46.37075" lon="-0.361">
        <ele>89.3</ele>
        <time>2012-03-13T14:15:23Z</time>
      </trkpt>
      <trkpt lat="46.37083" lon="-0.36114">
        <ele>85.2</ele>
        <time>2012-03-13T14:15:34Z</time>
      </trkpt>
      <trkpt lat="46.37091" lon="-0.36122">
        <ele>87.6</ele>
        <time>2012-03-13T14:15:45Z</time>
      </trkpt>
      <trkpt lat="46.37092" lon="-0.36121">
        <ele>88.5</ele>
        <time>2012-03-13T14:15:45Z</time>
      </trkpt>
      <trkpt lat="46.37096" lon="-0.36124">
        <ele>87.4</ele>
        <time>2012-03-13T14:15:53Z</time>
      </trkpt>
      <trkpt lat="46.37108" lon="-0.3613">
        <ele>91</ele>
        <time>2012-03-13T14:16:03Z</time>
      </trkpt>
      <trkpt lat="46.37108" lon="-0.3613">
        <ele>91.1</ele>
        <time>2012-03-13T14:16:03Z</time>
      </trkpt>
      <trkpt lat="46.37121" lon="-0.36133">
        <ele>88</ele>
        <time>2012-03-13T14:16:15Z</time>
      </trkpt>
      <trkpt lat="46.37124" lon="-0.36134">
        <ele>87</ele>
        <time>2012-03-13T14:16:20Z</time>
      </trkpt>
      <trkpt lat="46.37133" lon="-0.36136">
        <ele>88.1</ele>
        <time>2012-03-13T14:16:28Z</time>
      </trkpt>
      <trkpt lat="46.37146" lon="-0.36139">
        <ele>88.1</ele>
        <time>2012-03-13T14:16:40Z</time>
      </trkpt>
      <trkpt lat="46.37153" lon="-0.36139">
        <ele>88</ele>
        <time>2012-03-13T14:16:47Z</time>
      </trkpt>
      <trkpt lat="46.37155" lon="-0.36139">
        <ele>88.7</ele>
        <time>2012-03-13T14:16:50Z</time>
      </trkpt>
      <trkpt lat="46.37161" lon="-0.3614">
        <ele>88.8</ele>
        <time>2012-03-13T14:16:55Z</time>
      </trkpt>
      <trkpt lat="46.3717" lon="-0.36143">
        <ele>86</ele>
        <time>2012-03-13T14:17:00Z</time>
      </trkpt>
      <trkpt lat="46.37178" lon="-0.36143">
        <ele>86.4</ele>
        <time>2012-03-13T14:17:07Z</time>
      </trkpt>
      <trkpt lat="46.37179" lon="-0.36143">
        <ele>85.6</ele>
        <time>2012-03-13T14:17:09Z</time>
      </trkpt>
      <trkpt lat="46.37185" lon="-0.36133">
        <ele>87.2</ele>
        <time>2012-03-13T14:17:19Z</time>
      </trkpt>
      <trkpt lat="46.37186" lon="-0.36132">
        <ele>87.1</ele>
        <time>2012-03-13T14:17:19Z</time>
      </trkpt>
      <trkpt lat="46.3719" lon="-0.36133">
        <ele>87.5</ele>
        <time>2012-03-13T14:17:29Z</time>
      </trkpt>
      <trkpt lat="46.37191" lon="-0.36135">
        <ele>87.7</ele>
        <time>2012-03-13T14:17:29Z</time>
      </trkpt>
      <trkpt lat="46.37201" lon="-0.36143">
        <ele>85.7</ele>
        <time>2012-03-13T14:17:39Z</time>
      </trkpt>
      <trkpt lat="46.37205" lon="-0.36155">
        <ele>87.1</ele>
        <time>2012-03-13T14:17:49Z</time>
      </trkpt>
      <trkpt lat="46.37206" lon="-0.36155">
        <ele>87</ele>
        <time>2012-03-13T14:17:49Z</time>
      </trkpt>
      <trkpt lat="46.37209" lon="-0.36158">
        <ele>85.2</ele>
        <time>2012-03-13T14:17:56Z</time>
      </trkpt>
      <trkpt lat="46.37214" lon="-0.36161">
        <ele>84.6</ele>
        <time>2012-03-13T14:18:00Z</time>
      </trkpt>
      <trkpt lat="46.3722" lon="-0.36163">
        <ele>84.3</ele>
        <time>2012-03-13T14:18:07Z</time>
      </trkpt>
      <trkpt lat="46.37223" lon="-0.36165">
        <ele>83.7</ele>
        <time>2012-03-13T14:18:09Z</time>
      </trkpt>
      <trkpt lat="46.3723" lon="-0.36167">
        <ele>82.3</ele>
        <time>2012-03-13T14:18:16Z</time>
      </trkpt>
      <trkpt lat="46.37235" lon="-0.36169">
        <ele>83.1</ele>
        <time>2012-03-13T14:18:20Z</time>
      </trkpt>
      <trkpt lat="46.37242" lon="-0.36171">
        <ele>84.7</ele>
        <time>2012-03-13T14:18:26Z</time>
      </trkpt>
      <trkpt lat="46.37247" lon="-0.36173">
        <ele>83.9</ele>
        <time>2012-03-13T14:18:31Z</time>
      </trkpt>
      <trkpt lat="46.37252" lon="-0.36172">
        <ele>84.5</ele>
        <time>2012-03-13T14:18:35Z</time>
      </trkpt>
      <trkpt lat="46.37258" lon="-0.36174">
        <ele>82.9</ele>
        <time>2012-03-13T14:18:42Z</time>
      </trkpt>
      <trkpt lat="46.37259" lon="-0.36175">
        <ele>82.9</ele>
        <time>2012-03-13T14:18:44Z</time>
      </trkpt>
      <trkpt lat="46.3727" lon="-0.3618">
        <ele>84.3</ele>
        <time>2012-03-13T14:18:54Z</time>
      </trkpt>
      <trkpt lat="46.3728" lon="-0.36182">
        <ele>84.3</ele>
        <time>2012-03-13T14:19:03Z</time>
      </trkpt>
      <trkpt lat="46.37282" lon="-0.36182">
        <ele>84.7</ele>
        <time>2012-03-13T14:19:04Z</time>
      </trkpt>
      <trkpt lat="46.37294" lon="-0.36184">
        <ele>85.2</ele>
        <time>2012-03-13T14:19:15Z</time>
      </trkpt>
      <trkpt lat="46.37302" lon="-0.36185">
        <ele>85</ele>
        <time>2012-03-13T14:19:22Z</time>
      </trkpt>
      <trkpt lat="46.37303" lon="-0.36186">
        <ele>84.7</ele>
        <time>2012-03-13T14:19:23Z</time>
      </trkpt>
      <trkpt lat="46.3732" lon="-0.36191">
        <ele>87</ele>
        <time>2012-03-13T14:19:36Z</time>
      </trkpt>
      <trkpt lat="46.37323" lon="-0.36191">
        <ele>86.4</ele>
        <time>2012-03-13T14:19:39Z</time>
      </trkpt>
      <trkpt lat="46.37331" lon="-0.36193">
        <ele>83.2</ele>
        <time>2012-03-13T14:19:49Z</time>
      </trkpt>
      <trkpt lat="46.37333" lon="-0.36193">
        <ele>83.1</ele>
        <time>2012-03-13T14:19:49Z</time>
      </trkpt>
      <trkpt lat="46.37342" lon="-0.36196">
        <ele>84</ele>
        <time>2012-03-13T14:19:55Z</time>
      </trkpt>
      <trkpt lat="46.37348" lon="-0.36198">
        <ele>84.3</ele>
        <time>2012-03-13T14:20:01Z</time>
      </trkpt>
      <trkpt lat="46.37352" lon="-0.36198">
        <ele>82.9</ele>
        <time>2012-03-13T14:20:05Z</time>
      </trkpt>
      <trkpt lat="46.37362" lon="-0.36199">
        <ele>86.7</ele>
        <time>2012-03-13T14:20:12Z</time>
      </trkpt>
      <trkpt lat="46.37365" lon="-0.36199">
        <ele>86.7</ele>
        <time>2012-03-13T14:20:14Z</time>
      </trkpt>
      <trkpt lat="46.37376" lon="-0.36199">
        <ele>88.2</ele>
        <time>2012-03-13T14:20:24Z</time>
      </trkpt>
      <trkpt lat="46.37377" lon="-0.36198">
        <ele>88.6</ele>
        <time>2012-03-13T14:20:25Z</time>
      </trkpt>
      <trkpt lat="46.37387" lon="-0.36199">
        <ele>88.7</ele>
        <time>2012-03-13T14:20:34Z</time>
      </trkpt>
      <trkpt lat="46.3739" lon="-0.36199">
        <ele>88.6</ele>
        <time>2012-03-13T14:20:34Z</time>
      </trkpt>
      <trkpt lat="46.37399" lon="-0.36199">
        <ele>87.1</ele>
        <time>2012-03-13T14:20:44Z</time>
      </trkpt>
      <trkpt lat="46.37401" lon="-0.36198">
        <ele>86.8</ele>
        <time>2012-03-13T14:20:44Z</time>
      </trkpt>
      <trkpt lat="46.37411" lon="-0.36198">
        <ele>87.5</ele>
        <time>2012-03-13T14:20:55Z</time>
      </trkpt>
      <trkpt lat="46.37412" lon="-0.36198">
        <ele>88.1</ele>
        <time>2012-03-13T14:20:55Z</time>
      </trkpt>
      <trkpt lat="46.37418" lon="-0.36199">
        <ele>89.1</ele>
        <time>2012-03-13T14:21:01Z</time>
      </trkpt>
      <trkpt lat="46.37422" lon="-0.36199">
        <ele>88</ele>
        <time>2012-03-13T14:21:04Z</time>
      </trkpt>
      <trkpt lat="46.37431" lon="-0.36201">
        <ele>86.6</ele>
        <time>2012-03-13T14:21:13Z</time>
      </trkpt>
      <trkpt lat="46.37432" lon="-0.36201">
        <ele>86.5</ele>
        <time>2012-03-13T14:21:14Z</time>
      </trkpt>
      <trkpt lat="46.37446" lon="-0.36202">
        <ele>83.1</ele>
        <time>2012-03-13T14:21:25Z</time>
      </trkpt>
      <trkpt lat="46.37452" lon="-0.362">
        <ele>83.8</ele>
        <time>2012-03-13T14:21:31Z</time>
      </trkpt>
      <trkpt lat="46.37456" lon="-0.36199">
        <ele>84.5</ele>
        <time>2012-03-13T14:21:34Z</time>
      </trkpt>
      <trkpt lat="46.37466" lon="-0.36195">
        <ele>86</ele>
        <time>2012-03-13T14:21:43Z</time>
      </trkpt>
      <trkpt lat="46.37468" lon="-0.36194">
        <ele>86.1</ele>
        <time>2012-03-13T14:21:44Z</time>
      </trkpt>
      <trkpt lat="46.37477" lon="-0.36186">
        <ele>88.1</ele>
        <time>2012-03-13T14:21:53Z</time>
      </trkpt>
      <trkpt lat="46.37477" lon="-0.36186">
        <ele>88.3</ele>
        <time>2012-03-13T14:21:54Z</time>
      </trkpt>
      <trkpt lat="46.3748" lon="-0.36184">
        <ele>87.3</ele>
        <time>2012-03-13T14:21:58Z</time>
      </trkpt>
      <trkpt lat="46.37495" lon="-0.36171">
        <ele>88.3</ele>
        <time>2012-03-13T14:22:10Z</time>
      </trkpt>
      <trkpt lat="46.37496" lon="-0.36171">
        <ele>88.4</ele>
        <time>2012-03-13T14:22:10Z</time>
      </trkpt>
      <trkpt lat="46.37501" lon="-0.36164">
        <ele>87.2</ele>
        <time>2012-03-13T14:22:17Z</time>
      </trkpt>
      <trkpt lat="46.37502" lon="-0.36164">
        <ele>87.2</ele>
        <time>2012-03-13T14:22:19Z</time>
      </trkpt>
      <trkpt lat="46.37515" lon="-0.36158">
        <ele>86.5</ele>
        <time>2012-03-13T14:22:29Z</time>
      </trkpt>
      <trkpt lat="46.37516" lon="-0.36157">
        <ele>86.8</ele>
        <time>2012-03-13T14:22:30Z</time>
      </trkpt>
      <trkpt lat="46.37525" lon="-0.36152">
        <ele>88.1</ele>
        <time>2012-03-13T14:22:38Z</time>
      </trkpt>
      <trkpt lat="46.37526" lon="-0.36151">
        <ele>88.4</ele>
        <time>2012-03-13T14:22:39Z</time>
      </trkpt>
      <trkpt lat="46.37534" lon="-0.36143">
        <ele>90</ele>
        <time>2012-03-13T14:22:49Z</time>
      </trkpt>
      <trkpt lat="46.37535" lon="-0.3614">
        <ele>90.5</ele>
        <time>2012-03-13T14:22:49Z</time>
      </trkpt>
      <trkpt lat="46.37543" lon="-0.36137">
        <ele>89.8</ele>
        <time>2012-03-13T14:22:56Z</time>
      </trkpt>
      <trkpt lat="46.37547" lon="-0.36133">
        <ele>90.7</ele>
        <time>2012-03-13T14:23:01Z</time>
      </trkpt>
      <trkpt lat="46.37551" lon="-0.36126">
        <ele>89.5</ele>
        <time>2012-03-13T14:23:06Z</time>
      </trkpt>
      <trkpt lat="46.37558" lon="-0.36126">
        <ele>88.3</ele>
        <time>2012-03-13T14:23:10Z</time>
      </trkpt>
      <trkpt lat="46.37566" lon="-0.36116">
        <ele>89.3</ele>
        <time>2012-03-13T14:23:17Z</time>
      </trkpt>
      <trkpt lat="46.37571" lon="-0.36114">
        <ele>88.8</ele>
        <time>2012-03-13T14:23:19Z</time>
      </trkpt>
      <trkpt lat="46.37572" lon="-0.36108">
        <ele>86.8</ele>
        <time>2012-03-13T14:23:28Z</time>
      </trkpt>
      <trkpt lat="46.37573" lon="-0.36107">
        <ele>86.7</ele>
        <time>2012-03-13T14:23:29Z</time>
      </trkpt>
      <trkpt lat="46.37584" lon="-0.36096">
        <ele>87.4</ele>
        <time>2012-03-13T14:23:40Z</time>
      </trkpt>
      <trkpt lat="46.37583" lon="-0.36094">
        <ele>88.3</ele>
        <time>2012-03-13T14:23:41Z</time>
      </trkpt>
      <trkpt lat="46.37589" lon="-0.36088">
        <ele>90.9</ele>
        <time>2012-03-13T14:23:45Z</time>
      </trkpt>
      <trkpt lat="46.37592" lon="-0.36087">
        <ele>91.3</ele>
        <time>2012-03-13T14:23:48Z</time>
      </trkpt>
      <trkpt lat="46.37596" lon="-0.3608">
        <ele>91.4</ele>
        <time>2012-03-13T14:23:53Z</time>
      </trkpt>
      <trkpt lat="46.376" lon="-0.36077">
        <ele>90.5</ele>
        <time>2012-03-13T14:23:58Z</time>
      </trkpt>
      <trkpt lat="46.37604" lon="-0.36074">
        <ele>90.9</ele>
        <time>2012-03-13T14:24:03Z</time>
      </trkpt>
      <trkpt lat="46.37612" lon="-0.36068">
        <ele>90.7</ele>
        <time>2012-03-13T14:24:11Z</time>
      </trkpt>
      <trkpt lat="46.37616" lon="-0.36066">
        <ele>90.8</ele>
        <time>2012-03-13T14:24:15Z</time>
      </trkpt>
      <trkpt lat="46.37624" lon="-0.36065">
        <ele>90.6</ele>
        <time>2012-03-13T14:24:22Z</time>
      </trkpt>
      <trkpt lat="46.37625" lon="-0.36063">
        <ele>89.8</ele>
        <time>2012-03-13T14:24:24Z</time>
      </trkpt>
      <trkpt lat="46.37636" lon="-0.36056">
        <ele>92.8</ele>
        <time>2012-03-13T14:24:32Z</time>
      </trkpt>
      <trkpt lat="46.37637" lon="-0.36055">
        <ele>92.2</ele>
        <time>2012-03-13T14:24:33Z</time>
      </trkpt>
      <trkpt lat="46.37644" lon="-0.36033">
        <ele>89.4</ele>
        <time>2012-03-13T14:24:45Z</time>
      </trkpt>
      <trkpt lat="46.37648" lon="-0.36021">
        <ele>87.1</ele>
        <time>2012-03-13T14:24:53Z</time>
      </trkpt>
      <trkpt lat="46.37649" lon="-0.36019">
        <ele>86.9</ele>
        <time>2012-03-13T14:24:54Z</time>
      </trkpt>
      <trkpt lat="46.37652" lon="-0.36008">
        <ele>84.8</ele>
        <time>2012-03-13T14:25:01Z</time>
      </trkpt>
      <trkpt lat="46.37654" lon="-0.36003">
        <ele>85.5</ele>
        <time>2012-03-13T14:25:05Z</time>
      </trkpt>
      <trkpt lat="46.37653" lon="-0.35996">
        <ele>86.6</ele>
        <time>2012-03-13T14:25:12Z</time>
      </trkpt>
      <trkpt lat="46.37656" lon="-0.35994">
        <ele>87.9</ele>
        <time>2012-03-13T14:25:13Z</time>
      </trkpt>
      <trkpt lat="46.37658" lon="-0.35979">
        <ele>88.1</ele>
        <time>2012-03-13T14:25:23Z</time>
      </trkpt>
      <trkpt lat="46.37659" lon="-0.35978">
        <ele>88.2</ele>
        <time>2012-03-13T14:25:23Z</time>
      </trkpt>
      <trkpt lat="46.37665" lon="-0.35964">
        <ele>90.3</ele>
        <time>2012-03-13T14:25:36Z</time>
      </trkpt>
      <trkpt lat="46.37666" lon="-0.35958">
        <ele>91.2</ele>
        <time>2012-03-13T14:25:36Z</time>
      </trkpt>
      <trkpt lat="46.37667" lon="-0.35953">
        <ele>90.7</ele>
        <time>2012-03-13T14:25:40Z</time>
      </trkpt>
      <trkpt lat="46.37669" lon="-0.35941">
        <ele>90.2</ele>
        <time>2012-03-13T14:25:46Z</time>
      </trkpt>
      <trkpt lat="46.3767" lon="-0.35937">
        <ele>88.3</ele>
        <time>2012-03-13T14:25:50Z</time>
      </trkpt>
      <trkpt lat="46.3767" lon="-0.35928">
        <ele>87.9</ele>
        <time>2012-03-13T14:25:55Z</time>
      </trkpt>
      <trkpt lat="46.37669" lon="-0.35916">
        <ele>87.3</ele>
        <time>2012-03-13T14:26:01Z</time>
      </trkpt>
      <trkpt lat="46.3767" lon="-0.35908">
        <ele>88.4</ele>
        <time>2012-03-13T14:26:05Z</time>
      </trkpt>
      <trkpt lat="46.37676" lon="-0.35899">
        <ele>88.5</ele>
        <time>2012-03-13T14:26:11Z</time>
      </trkpt>
      <trkpt lat="46.37679" lon="-0.35893">
        <ele>89.3</ele>
        <time>2012-03-13T14:26:15Z</time>
      </trkpt>
      <trkpt lat="46.37681" lon="-0.35885">
        <ele>89.3</ele>
        <time>2012-03-13T14:26:20Z</time>
      </trkpt>
      <trkpt lat="46.37682" lon="-0.35884">
        <ele>88.8</ele>
        <time>2012-03-13T14:26:23Z</time>
      </trkpt>
      <trkpt lat="46.37683" lon="-0.3588">
        <ele>88.6</ele>
        <time>2012-03-13T14:26:28Z</time>
      </trkpt>
      <trkpt lat="46.37685" lon="-0.35873">
        <ele>87.5</ele>
        <time>2012-03-13T14:26:33Z</time>
      </trkpt>
      <trkpt lat="46.37685" lon="-0.35867">
        <ele>87.7</ele>
        <time>2012-03-13T14:26:38Z</time>
      </trkpt>
      <trkpt lat="46.37685" lon="-0.35863">
        <ele>87.7</ele>
        <time>2012-03-13T14:26:43Z</time>
      </trkpt>
      <trkpt lat="46.37682" lon="-0.35863">
        <ele>87.7</ele>
        <time>2012-03-13T14:26:48Z</time>
      </trkpt>
      <trkpt lat="46.37677" lon="-0.35863">
        <ele>91.2</ele>
        <time>2012-03-13T14:26:53Z</time>
      </trkpt>
      <trkpt lat="46.37671" lon="-0.35862">
        <ele>89.1</ele>
        <time>2012-03-13T14:26:58Z</time>
      </trkpt>
      <trkpt lat="46.3766" lon="-0.35858">
        <ele>89.2</ele>
        <time>2012-03-13T14:27:08Z</time>
      </trkpt>
      <trkpt lat="46.37658" lon="-0.35856">
        <ele>89.5</ele>
        <time>2012-03-13T14:27:09Z</time>
      </trkpt>
      <trkpt lat="46.37657" lon="-0.35841">
        <ele>91</ele>
        <time>2012-03-13T14:27:19Z</time>
      </trkpt>
      <trkpt lat="46.37656" lon="-0.35839">
        <ele>91.5</ele>
        <time>2012-03-13T14:27:20Z</time>
      </trkpt>
      <trkpt lat="46.37652" lon="-0.35826">
        <ele>93.4</ele>
        <time>2012-03-13T14:27:27Z</time>
      </trkpt>
      <trkpt lat="46.37652" lon="-0.35824">
        <ele>93.8</ele>
        <time>2012-03-13T14:27:29Z</time>
      </trkpt>
      <trkpt lat="46.37648" lon="-0.35814">
        <ele>95.2</ele>
        <time>2012-03-13T14:27:37Z</time>
      </trkpt>
      <trkpt lat="46.37649" lon="-0.35813">
        <ele>94.7</ele>
        <time>2012-03-13T14:27:39Z</time>
      </trkpt>
      <trkpt lat="46.37649" lon="-0.35811">
        <ele>94.4</ele>
        <time>2012-03-13T14:27:46Z</time>
      </trkpt>
      <trkpt lat="46.37649" lon="-0.35811">
        <ele>94.8</ele>
        <time>2012-03-13T14:27:49Z</time>
      </trkpt>
      <trkpt lat="46.37649" lon="-0.3581">
        <ele>95</ele>
        <time>2012-03-13T14:27:56Z</time>
      </trkpt>
      <trkpt lat="46.37649" lon="-0.35808">
        <ele>95</ele>
        <time>2012-03-13T14:27:58Z</time>
      </trkpt>
      <trkpt lat="46.37648" lon="-0.35801">
        <ele>94.4</ele>
        <time>2012-03-13T14:28:06Z</time>
      </trkpt>
      <trkpt lat="46.37648" lon="-0.35801">
        <ele>94.1</ele>
        <time>2012-03-13T14:28:08Z</time>
      </trkpt>
      <trkpt lat="46.37648" lon="-0.358">
        <ele>93</ele>
        <time>2012-03-13T14:28:18Z</time>
      </trkpt>
      <trkpt lat="46.37648" lon="-0.358">
        <ele>93.1</ele>
        <time>2012-03-13T14:28:18Z</time>
      </trkpt>
      <trkpt lat="46.37648" lon="-0.35799">
        <ele>93.1</ele>
        <time>2012-03-13T14:28:27Z</time>
      </trkpt>
      <trkpt lat="46.37648" lon="-0.35799">
        <ele>93.1</ele>
        <time>2012-03-13T14:28:29Z</time>
      </trkpt>
      <trkpt lat="46.37648" lon="-0.35799">
        <ele>93.1</ele>
        <time>2012-03-13T14:28:37Z</time>
      </trkpt>
      <trkpt lat="46.37648" lon="-0.35799">
        <ele>93.1</ele>
        <time>2012-03-13T14:28:38Z</time>
      </trkpt>
      <trkpt lat="46.37648" lon="-0.35799">
        <ele>93.1</ele>
        <time>2012-03-13T14:28:46Z</time>
      </trkpt>
      <trkpt lat="46.37648" lon="-0.35799">
        <ele>93.1</ele>
        <time>2012-03-13T14:28:48Z</time>
      </trkpt>
      <trkpt lat="46.37649" lon="-0.35792">
        <ele>92.2</ele>
        <time>2012-03-13T14:28:56Z</time>
      </trkpt>
      <trkpt lat="46.37651" lon="-0.35789">
        <ele>91.8</ele>
        <time>2012-03-13T14:29:01Z</time>
      </trkpt>
      <trkpt lat="46.37655" lon="-0.35783">
        <ele>92.3</ele>
        <time>2012-03-13T14:29:06Z</time>
      </trkpt>
      <trkpt lat="46.37659" lon="-0.35783">
        <ele>92.4</ele>
        <time>2012-03-13T14:29:08Z</time>
      </trkpt>
      <trkpt lat="46.37667" lon="-0.35781">
        <ele>90.1</ele>
        <time>2012-03-13T14:29:18Z</time>
      </trkpt>
      <trkpt lat="46.37668" lon="-0.3578">
        <ele>89.9</ele>
        <time>2012-03-13T14:29:19Z</time>
      </trkpt>
      <trkpt lat="46.37674" lon="-0.35773">
        <ele>89.2</ele>
        <time>2012-03-13T14:29:28Z</time>
      </trkpt>
      <trkpt lat="46.37675" lon="-0.35773">
        <ele>89.6</ele>
        <time>2012-03-13T14:29:28Z</time>
      </trkpt>
      <trkpt lat="46.37686" lon="-0.35763">
        <ele>90.1</ele>
        <time>2012-03-13T14:29:41Z</time>
      </trkpt>
      <trkpt lat="46.37687" lon="-0.35763">
        <ele>90.2</ele>
        <time>2012-03-13T14:29:41Z</time>
      </trkpt>
      <trkpt lat="46.37689" lon="-0.35762">
        <ele>89.7</ele>
        <time>2012-03-13T14:29:44Z</time>
      </trkpt>
      <trkpt lat="46.37696" lon="-0.35756">
        <ele>87.7</ele>
        <time>2012-03-13T14:29:52Z</time>
      </trkpt>
      <trkpt lat="46.37697" lon="-0.35754">
        <ele>86.8</ele>
        <time>2012-03-13T14:29:55Z</time>
      </trkpt>
      <trkpt lat="46.37697" lon="-0.35744">
        <ele>87.8</ele>
        <time>2012-03-13T14:30:00Z</time>
      </trkpt>
      <trkpt lat="46.37696" lon="-0.35738">
        <ele>87.7</ele>
        <time>2012-03-13T14:30:05Z</time>
      </trkpt>
      <trkpt lat="46.37695" lon="-0.35725">
        <ele>89.2</ele>
        <time>2012-03-13T14:30:11Z</time>
      </trkpt>
      <trkpt lat="46.37692" lon="-0.35717">
        <ele>89.4</ele>
        <time>2012-03-13T14:30:15Z</time>
      </trkpt>
      <trkpt lat="46.37689" lon="-0.3571">
        <ele>89.7</ele>
        <time>2012-03-13T14:30:21Z</time>
      </trkpt>
      <trkpt lat="46.37687" lon="-0.35704">
        <ele>88.7</ele>
        <time>2012-03-13T14:30:25Z</time>
      </trkpt>
      <trkpt lat="46.37686" lon="-0.35695">
        <ele>88</ele>
        <time>2012-03-13T14:30:30Z</time>
      </trkpt>
      <trkpt lat="46.37684" lon="-0.35691">
        <ele>87</ele>
        <time>2012-03-13T14:30:37Z</time>
      </trkpt>
      <trkpt lat="46.37684" lon="-0.35686">
        <ele>86.1</ele>
        <time>2012-03-13T14:30:39Z</time>
      </trkpt>
      <trkpt lat="46.37682" lon="-0.35664">
        <ele>84</ele>
        <time>2012-03-13T14:30:48Z</time>
      </trkpt>
      <trkpt lat="46.37682" lon="-0.35662">
        <ele>84.2</ele>
        <time>2012-03-13T14:30:48Z</time>
      </trkpt>
      <trkpt lat="46.37688" lon="-0.3565">
        <ele>87.1</ele>
        <time>2012-03-13T14:30:57Z</time>
      </trkpt>
      <trkpt lat="46.37688" lon="-0.35648">
        <ele>87.3</ele>
        <time>2012-03-13T14:30:58Z</time>
      </trkpt>
      <trkpt lat="46.37688" lon="-0.35629">
        <ele>81.5</ele>
        <time>2012-03-13T14:31:10Z</time>
      </trkpt>
      <trkpt lat="46.37689" lon="-0.35626">
        <ele>81.7</ele>
        <time>2012-03-13T14:31:10Z</time>
      </trkpt>
      <trkpt lat="46.37691" lon="-0.35619">
        <ele>80.7</ele>
        <time>2012-03-13T14:31:16Z</time>
      </trkpt>
      <trkpt lat="46.37691" lon="-0.35618">
        <ele>79.7</ele>
        <time>2012-03-13T14:31:18Z</time>
      </trkpt>
      <trkpt lat="46.3769" lon="-0.35603">
        <ele>78.1</ele>
        <time>2012-03-13T14:31:26Z</time>
      </trkpt>
      <trkpt lat="46.37693" lon="-0.35595">
        <ele>79.2</ele>
        <time>2012-03-13T14:31:30Z</time>
      </trkpt>
      <trkpt lat="46.37697" lon="-0.35586">
        <ele>80.2</ele>
        <time>2012-03-13T14:31:38Z</time>
      </trkpt>
      <trkpt lat="46.37697" lon="-0.35585">
        <ele>80.4</ele>
        <time>2012-03-13T14:31:38Z</time>
      </trkpt>
      <trkpt lat="46.37717" lon="-0.35572">
        <ele>82.2</ele>
        <time>2012-03-13T14:31:51Z</time>
      </trkpt>
      <trkpt lat="46.37719" lon="-0.35572">
        <ele>82.8</ele>
        <time>2012-03-13T14:31:51Z</time>
      </trkpt>
      <trkpt lat="46.37721" lon="-0.35572">
        <ele>83.3</ele>
        <time>2012-03-13T14:31:55Z</time>
      </trkpt>
      <trkpt lat="46.37726" lon="-0.35569">
        <ele>84</ele>
        <time>2012-03-13T14:32:00Z</time>
      </trkpt>
      <trkpt lat="46.37734" lon="-0.35567">
        <ele>85.7</ele>
        <time>2012-03-13T14:32:07Z</time>
      </trkpt>
      <trkpt lat="46.37739" lon="-0.35567">
        <ele>85.8</ele>
        <time>2012-03-13T14:32:09Z</time>
      </trkpt>
      <trkpt lat="46.37752" lon="-0.35562">
        <ele>82.3</ele>
        <time>2012-03-13T14:32:20Z</time>
      </trkpt>
      <trkpt lat="46.37753" lon="-0.35561">
        <ele>82.3</ele>
        <time>2012-03-13T14:32:20Z</time>
      </trkpt>
      <trkpt lat="46.37761" lon="-0.35559">
        <ele>84.5</ele>
        <time>2012-03-13T14:32:28Z</time>
      </trkpt>
      <trkpt lat="46.37763" lon="-0.35558">
        <ele>85.3</ele>
        <time>2012-03-13T14:32:29Z</time>
      </trkpt>
      <trkpt lat="46.37775" lon="-0.35552">
        <ele>87.5</ele>
        <time>2012-03-13T14:32:39Z</time>
      </trkpt>
      <trkpt lat="46.37776" lon="-0.3555">
        <ele>87.8</ele>
        <time>2012-03-13T14:32:39Z</time>
      </trkpt>
      <trkpt lat="46.37784" lon="-0.35544">
        <ele>90.9</ele>
        <time>2012-03-13T14:32:49Z</time>
      </trkpt>
      <trkpt lat="46.37786" lon="-0.35544">
        <ele>91.3</ele>
        <time>2012-03-13T14:32:49Z</time>
      </trkpt>
      <trkpt lat="46.37791" lon="-0.35536">
        <ele>90.4</ele>
        <time>2012-03-13T14:32:55Z</time>
      </trkpt>
      <trkpt lat="46.37792" lon="-0.3553">
        <ele>90.9</ele>
        <time>2012-03-13T14:33:01Z</time>
      </trkpt>
      <trkpt lat="46.37788" lon="-0.35523">
        <ele>91.5</ele>
        <time>2012-03-13T14:33:05Z</time>
      </trkpt>
      <trkpt lat="46.37786" lon="-0.35519">
        <ele>91.3</ele>
        <time>2012-03-13T14:33:12Z</time>
      </trkpt>
      <trkpt lat="46.37784" lon="-0.35515">
        <ele>91</ele>
        <time>2012-03-13T14:33:13Z</time>
      </trkpt>
      <trkpt lat="46.37783" lon="-0.35512">
        <ele>89.7</ele>
        <time>2012-03-13T14:33:24Z</time>
      </trkpt>
      <trkpt lat="46.37783" lon="-0.35512">
        <ele>89.6</ele>
        <time>2012-03-13T14:33:25Z</time>
      </trkpt>
      <trkpt lat="46.37778" lon="-0.35506">
        <ele>89.2</ele>
        <time>2012-03-13T14:33:33Z</time>
      </trkpt>
      <trkpt lat="46.37762" lon="-0.35486">
        <ele>94.4</ele>
        <time>2012-03-13T14:33:46Z</time>
      </trkpt>
      <trkpt lat="46.37762" lon="-0.35486">
        <ele>94.5</ele>
        <time>2012-03-13T14:33:46Z</time>
      </trkpt>
      <trkpt lat="46.37762" lon="-0.35486">
        <ele>94.8</ele>
        <time>2012-03-13T14:33:50Z</time>
      </trkpt>
      <trkpt lat="46.37762" lon="-0.35484">
        <ele>95.4</ele>
        <time>2012-03-13T14:33:55Z</time>
      </trkpt>
      <trkpt lat="46.3776" lon="-0.3548">
        <ele>96.3</ele>
        <time>2012-03-13T14:34:01Z</time>
      </trkpt>
      <trkpt lat="46.37752" lon="-0.35467">
        <ele>96.2</ele>
        <time>2012-03-13T14:34:06Z</time>
      </trkpt>
      <trkpt lat="46.37749" lon="-0.3546">
        <ele>96.6</ele>
        <time>2012-03-13T14:34:10Z</time>
      </trkpt>
      <trkpt lat="46.37748" lon="-0.35445">
        <ele>97.9</ele>
        <time>2012-03-13T14:34:17Z</time>
      </trkpt>
      <trkpt lat="46.37748" lon="-0.35441">
        <ele>97.7</ele>
        <time>2012-03-13T14:34:19Z</time>
      </trkpt>
      <trkpt lat="46.3774" lon="-0.35415">
        <ele>93.5</ele>
        <time>2012-03-13T14:34:29Z</time>
      </trkpt>
      <trkpt lat="46.37739" lon="-0.35413">
        <ele>93.6</ele>
        <time>2012-03-13T14:34:30Z</time>
      </trkpt>
      <trkpt lat="46.37737" lon="-0.35401">
        <ele>91.9</ele>
        <time>2012-03-13T14:34:38Z</time>
      </trkpt>
      <trkpt lat="46.37736" lon="-0.35399">
        <ele>92.3</ele>
        <time>2012-03-13T14:34:39Z</time>
      </trkpt>
      <trkpt lat="46.37731" lon="-0.35384">
        <ele>92.9</ele>
        <time>2012-03-13T14:34:49Z</time>
      </trkpt>
      <trkpt lat="46.37731" lon="-0.35383">
        <ele>92.7</ele>
        <time>2012-03-13T14:34:49Z</time>
      </trkpt>
      <trkpt lat="46.37728" lon="-0.35371">
        <ele>91.6</ele>
        <time>2012-03-13T14:34:57Z</time>
      </trkpt>
      <trkpt lat="46.37728" lon="-0.35366">
        <ele>91.2</ele>
        <time>2012-03-13T14:34:59Z</time>
      </trkpt>
      <trkpt lat="46.37726" lon="-0.35351">
        <ele>90.1</ele>
        <time>2012-03-13T14:35:09Z</time>
      </trkpt>
      <trkpt lat="46.37726" lon="-0.35349">
        <ele>89.6</ele>
        <time>2012-03-13T14:35:10Z</time>
      </trkpt>
      <trkpt lat="46.37725" lon="-0.35338">
        <ele>87.7</ele>
        <time>2012-03-13T14:35:18Z</time>
      </trkpt>
      <trkpt lat="46.37724" lon="-0.35324">
        <ele>88.1</ele>
        <time>2012-03-13T14:35:27Z</time>
      </trkpt>
      <trkpt lat="46.37724" lon="-0.35322">
        <ele>88.3</ele>
        <time>2012-03-13T14:35:30Z</time>
      </trkpt>
      <trkpt lat="46.37723" lon="-0.35311">
        <ele>88.2</ele>
        <time>2012-03-13T14:35:35Z</time>
      </trkpt>
      <trkpt lat="46.37724" lon="-0.35305">
        <ele>88.7</ele>
        <time>2012-03-13T14:35:38Z</time>
      </trkpt>
      <trkpt lat="46.37724" lon="-0.35297">
        <ele>87.3</ele>
        <time>2012-03-13T14:35:46Z</time>
      </trkpt>
      <trkpt lat="46.37722" lon="-0.35291">
        <ele>88.2</ele>
        <time>2012-03-13T14:35:49Z</time>
      </trkpt>
      <trkpt lat="46.37721" lon="-0.35283">
        <ele>88.3</ele>
        <time>2012-03-13T14:35:55Z</time>
      </trkpt>
      <trkpt lat="46.37724" lon="-0.35277">
        <ele>88.2</ele>
        <time>2012-03-13T14:36:01Z</time>
      </trkpt>
      <trkpt lat="46.37728" lon="-0.35274">
        <ele>90.3</ele>
        <time>2012-03-13T14:36:06Z</time>
      </trkpt>
      <trkpt lat="46.37733" lon="-0.35271">
        <ele>91.9</ele>
        <time>2012-03-13T14:36:11Z</time>
      </trkpt>
      <trkpt lat="46.37737" lon="-0.35269">
        <ele>92.2</ele>
        <time>2012-03-13T14:36:16Z</time>
      </trkpt>
      <trkpt lat="46.37737" lon="-0.35267">
        <ele>92.3</ele>
        <time>2012-03-13T14:36:20Z</time>
      </trkpt>
      <trkpt lat="46.37737" lon="-0.35267">
        <ele>92.5</ele>
        <time>2012-03-13T14:36:26Z</time>
      </trkpt>
      <trkpt lat="46.37737" lon="-0.35267">
        <ele>92.4</ele>
        <time>2012-03-13T14:36:29Z</time>
      </trkpt>
      <trkpt lat="46.37739" lon="-0.35267">
        <ele>92.1</ele>
        <time>2012-03-13T14:36:39Z</time>
      </trkpt>
      <trkpt lat="46.37739" lon="-0.35266">
        <ele>92.1</ele>
        <time>2012-03-13T14:36:39Z</time>
      </trkpt>
      <trkpt lat="46.37749" lon="-0.35265">
        <ele>91.3</ele>
        <time>2012-03-13T14:36:50Z</time>
      </trkpt>
      <trkpt lat="46.3775" lon="-0.35265">
        <ele>91.2</ele>
        <time>2012-03-13T14:36:50Z</time>
      </trkpt>
      <trkpt lat="46.37754" lon="-0.35264">
        <ele>88.3</ele>
        <time>2012-03-13T14:36:55Z</time>
      </trkpt>
      <trkpt lat="46.37756" lon="-0.35263">
        <ele>87.7</ele>
        <time>2012-03-13T14:36:59Z</time>
      </trkpt>
      <trkpt lat="46.37756" lon="-0.35262">
        <ele>87.2</ele>
        <time>2012-03-13T14:37:03Z</time>
      </trkpt>
      <trkpt lat="46.37759" lon="-0.35262">
        <ele>86.9</ele>
        <time>2012-03-13T14:37:08Z</time>
      </trkpt>
      <trkpt lat="46.37763" lon="-0.3526">
        <ele>87.6</ele>
        <time>2012-03-13T14:37:13Z</time>
      </trkpt>
      <trkpt lat="46.37768" lon="-0.35258">
        <ele>86.9</ele>
        <time>2012-03-13T14:37:18Z</time>
      </trkpt>
      <trkpt lat="46.37774" lon="-0.35257">
        <ele>87.7</ele>
        <time>2012-03-13T14:37:24Z</time>
      </trkpt>
      <trkpt lat="46.37783" lon="-0.35253">
        <ele>86.9</ele>
        <time>2012-03-13T14:37:33Z</time>
      </trkpt>
      <trkpt lat="46.37784" lon="-0.35253">
        <ele>86.8</ele>
        <time>2012-03-13T14:37:33Z</time>
      </trkpt>
      <trkpt lat="46.37785" lon="-0.35252">
        <ele>86.5</ele>
        <time>2012-03-13T14:37:38Z</time>
      </trkpt>
      <trkpt lat="46.37939" lon="-0.35181">
        <ele>77.3</ele>
        <time>2012-03-13T14:40:01Z</time>
      </trkpt>
      <trkpt lat="46.37974" lon="-0.35175">
        <ele>79.6</ele>
        <time>2012-03-13T14:40:31Z</time>
      </trkpt>
      <trkpt lat="46.37977" lon="-0.35172">
        <ele>80.9</ele>
        <time>2012-03-13T14:40:36Z</time>
      </trkpt>
      <trkpt lat="46.37986" lon="-0.35169">
        <ele>84.4</ele>
        <time>2012-03-13T14:40:46Z</time>
      </trkpt>
      <trkpt lat="46.37988" lon="-0.35169">
        <ele>85.4</ele>
        <time>2012-03-13T14:40:47Z</time>
      </trkpt>
      <trkpt lat="46.37999" lon="-0.35164">
        <ele>82.3</ele>
        <time>2012-03-13T14:40:57Z</time>
      </trkpt>
      <trkpt lat="46.38007" lon="-0.35163">
        <ele>85</ele>
        <time>2012-03-13T14:41:06Z</time>
      </trkpt>
      <trkpt lat="46.38015" lon="-0.35158">
        <ele>84.3</ele>
        <time>2012-03-13T14:41:14Z</time>
      </trkpt>
      <trkpt lat="46.38017" lon="-0.35158">
        <ele>84.8</ele>
        <time>2012-03-13T14:41:16Z</time>
      </trkpt>
      <trkpt lat="46.3802" lon="-0.35157">
        <ele>86.5</ele>
        <time>2012-03-13T14:41:21Z</time>
      </trkpt>
      <trkpt lat="46.38025" lon="-0.35156">
        <ele>88.1</ele>
        <time>2012-03-13T14:41:26Z</time>
      </trkpt>
      <trkpt lat="46.38032" lon="-0.35156">
        <ele>93.4</ele>
        <time>2012-03-13T14:41:35Z</time>
      </trkpt>
      <trkpt lat="46.38034" lon="-0.35157">
        <ele>93.7</ele>
        <time>2012-03-13T14:41:37Z</time>
      </trkpt>
      <trkpt lat="46.38041" lon="-0.35154">
        <ele>95.8</ele>
        <time>2012-03-13T14:41:44Z</time>
      </trkpt>
      <trkpt lat="46.38042" lon="-0.35154">
        <ele>95.8</ele>
        <time>2012-03-13T14:41:48Z</time>
      </trkpt>
      <trkpt lat="46.38051" lon="-0.35154">
        <ele>98.2</ele>
        <time>2012-03-13T14:41:55Z</time>
      </trkpt>
      <trkpt lat="46.38052" lon="-0.35153">
        <ele>98.7</ele>
        <time>2012-03-13T14:41:56Z</time>
      </trkpt>
      <trkpt lat="46.38063" lon="-0.3515">
        <ele>100.5</ele>
        <time>2012-03-13T14:42:08Z</time>
      </trkpt>
      <trkpt lat="46.38068" lon="-0.35148">
        <ele>101.4</ele>
        <time>2012-03-13T14:42:14Z</time>
      </trkpt>
      <trkpt lat="46.38071" lon="-0.35146">
        <ele>101.4</ele>
        <time>2012-03-13T14:42:18Z</time>
      </trkpt>
      <trkpt lat="46.38075" lon="-0.35145">
        <ele>104.8</ele>
        <time>2012-03-13T14:42:25Z</time>
      </trkpt>
      <trkpt lat="46.38077" lon="-0.35144">
        <ele>103.7</ele>
        <time>2012-03-13T14:42:26Z</time>
      </trkpt>
      <trkpt lat="46.38086" lon="-0.35147">
        <ele>103.2</ele>
        <time>2012-03-13T14:42:36Z</time>
      </trkpt>
      <trkpt lat="46.38087" lon="-0.35147">
        <ele>103.5</ele>
        <time>2012-03-13T14:42:36Z</time>
      </trkpt>
      <trkpt lat="46.38095" lon="-0.35141">
        <ele>101.9</ele>
        <time>2012-03-13T14:42:47Z</time>
      </trkpt>
      <trkpt lat="46.38097" lon="-0.3514">
        <ele>101.6</ele>
        <time>2012-03-13T14:42:48Z</time>
      </trkpt>
      <trkpt lat="46.38104" lon="-0.35136">
        <ele>101.8</ele>
        <time>2012-03-13T14:42:56Z</time>
      </trkpt>
      <trkpt lat="46.38112" lon="-0.35135">
        <ele>102.6</ele>
        <time>2012-03-13T14:43:03Z</time>
      </trkpt>
      <trkpt lat="46.38113" lon="-0.35136">
        <ele>102.9</ele>
        <time>2012-03-13T14:43:06Z</time>
      </trkpt>
      <trkpt lat="46.38118" lon="-0.35133">
        <ele>103.8</ele>
        <time>2012-03-13T14:43:14Z</time>
      </trkpt>
      <trkpt lat="46.3812" lon="-0.3513">
        <ele>103.7</ele>
        <time>2012-03-13T14:43:18Z</time>
      </trkpt>
      <trkpt lat="46.38124" lon="-0.35126">
        <ele>106.3</ele>
        <time>2012-03-13T14:43:24Z</time>
      </trkpt>
      <trkpt lat="46.38128" lon="-0.35128">
        <ele>111.1</ele>
        <time>2012-03-13T14:43:28Z</time>
      </trkpt>
      <trkpt lat="46.38133" lon="-0.35127">
        <ele>110.6</ele>
        <time>2012-03-13T14:43:32Z</time>
      </trkpt>
      <trkpt lat="46.38143" lon="-0.35126">
        <ele>109.6</ele>
        <time>2012-03-13T14:43:39Z</time>
      </trkpt>
      <trkpt lat="46.38146" lon="-0.35125">
        <ele>109.5</ele>
        <time>2012-03-13T14:43:42Z</time>
      </trkpt>
      <trkpt lat="46.38154" lon="-0.35123">
        <ele>116.4</ele>
        <time>2012-03-13T14:43:50Z</time>
      </trkpt>
      <trkpt lat="46.38155" lon="-0.35122">
        <ele>116.6</ele>
        <time>2012-03-13T14:43:52Z</time>
      </trkpt>
      <trkpt lat="46.38159" lon="-0.35117">
        <ele>113.3</ele>
        <time>2012-03-13T14:43:58Z</time>
      </trkpt>
      <trkpt lat="46.38166" lon="-0.35114">
        <ele>115.4</ele>
        <time>2012-03-13T14:44:05Z</time>
      </trkpt>
      <trkpt lat="46.3817" lon="-0.35113">
        <ele>116</ele>
        <time>2012-03-13T14:44:07Z</time>
      </trkpt>
      <trkpt lat="46.38179" lon="-0.35109">
        <ele>115.8</ele>
        <time>2012-03-13T14:44:16Z</time>
      </trkpt>
      <trkpt lat="46.3818" lon="-0.35109">
        <ele>115.2</ele>
        <time>2012-03-13T14:44:16Z</time>
      </trkpt>
      <trkpt lat="46.3819" lon="-0.35101">
        <ele>110.6</ele>
        <time>2012-03-13T14:44:29Z</time>
      </trkpt>
      <trkpt lat="46.38191" lon="-0.351">
        <ele>110.4</ele>
        <time>2012-03-13T14:44:30Z</time>
      </trkpt>
      <trkpt lat="46.38191" lon="-0.35099">
        <ele>109.5</ele>
        <time>2012-03-13T14:44:34Z</time>
      </trkpt>
      <trkpt lat="46.38191" lon="-0.35099">
        <ele>108.8</ele>
        <time>2012-03-13T14:44:39Z</time>
      </trkpt>
      <trkpt lat="46.38189" lon="-0.35096">
        <ele>109</ele>
        <time>2012-03-13T14:44:44Z</time>
      </trkpt>
      <trkpt lat="46.38188" lon="-0.35088">
        <ele>109.1</ele>
        <time>2012-03-13T14:44:49Z</time>
      </trkpt>
      <trkpt lat="46.38187" lon="-0.35082">
        <ele>108.5</ele>
        <time>2012-03-13T14:44:54Z</time>
      </trkpt>
      <trkpt lat="46.38186" lon="-0.35079">
        <ele>108.1</ele>
        <time>2012-03-13T14:44:56Z</time>
      </trkpt>
      <trkpt lat="46.38182" lon="-0.35065">
        <ele>107</ele>
        <time>2012-03-13T14:45:06Z</time>
      </trkpt>
      <trkpt lat="46.38183" lon="-0.35065">
        <ele>106.9</ele>
        <time>2012-03-13T14:45:06Z</time>
      </trkpt>
      <trkpt lat="46.38181" lon="-0.35044">
        <ele>108.4</ele>
        <time>2012-03-13T14:45:20Z</time>
      </trkpt>
      <trkpt lat="46.38181" lon="-0.35041">
        <ele>108.8</ele>
        <time>2012-03-13T14:45:24Z</time>
      </trkpt>
      <trkpt lat="46.38178" lon="-0.35033">
        <ele>108.2</ele>
        <time>2012-03-13T14:45:29Z</time>
      </trkpt>
      <trkpt lat="46.38172" lon="-0.35015">
        <ele>108.1</ele>
        <time>2012-03-13T14:45:36Z</time>
      </trkpt>
      <trkpt lat="46.38175" lon="-0.34998">
        <ele>106.2</ele>
        <time>2012-03-13T14:45:49Z</time>
      </trkpt>
      <trkpt lat="46.38174" lon="-0.34997">
        <ele>106.4</ele>
        <time>2012-03-13T14:45:50Z</time>
      </trkpt>
      <trkpt lat="46.38173" lon="-0.34993">
        <ele>106.6</ele>
        <time>2012-03-13T14:45:54Z</time>
      </trkpt>
      <trkpt lat="46.38172" lon="-0.34981">
        <ele>108.2</ele>
        <time>2012-03-13T14:45:57Z</time>
      </trkpt>
      <trkpt lat="46.38173" lon="-0.34971">
        <ele>108.5</ele>
        <time>2012-03-13T14:46:07Z</time>
      </trkpt>
      <trkpt lat="46.38175" lon="-0.34971">
        <ele>108.9</ele>
        <time>2012-03-13T14:46:07Z</time>
      </trkpt>
      <trkpt lat="46.38173" lon="-0.34953">
        <ele>109.4</ele>
        <time>2012-03-13T14:46:17Z</time>
      </trkpt>
      <trkpt lat="46.38172" lon="-0.3495">
        <ele>109.2</ele>
        <time>2012-03-13T14:46:17Z</time>
      </trkpt>
      <trkpt lat="46.38172" lon="-0.34934">
        <ele>110.9</ele>
        <time>2012-03-13T14:46:27Z</time>
      </trkpt>
      <trkpt lat="46.38172" lon="-0.34932">
        <ele>111.2</ele>
        <time>2012-03-13T14:46:28Z</time>
      </trkpt>
      <trkpt lat="46.38168" lon="-0.34917">
        <ele>112</ele>
        <time>2012-03-13T14:46:33Z</time>
      </trkpt>
      <trkpt lat="46.3817" lon="-0.34909">
        <ele>112.5</ele>
        <time>2012-03-13T14:46:37Z</time>
      </trkpt>
      <trkpt lat="46.38178" lon="-0.34914">
        <ele>106.7</ele>
        <time>2012-03-13T14:46:45Z</time>
      </trkpt>
      <trkpt lat="46.38177" lon="-0.34909">
        <ele>107.9</ele>
        <time>2012-03-13T14:46:47Z</time>
      </trkpt>
      <trkpt lat="46.38175" lon="-0.34893">
        <ele>111.6</ele>
        <time>2012-03-13T14:46:54Z</time>
      </trkpt>
      <trkpt lat="46.38175" lon="-0.34888">
        <ele>111.4</ele>
        <time>2012-03-13T14:46:57Z</time>
      </trkpt>
      <trkpt lat="46.3817" lon="-0.34869">
        <ele>111.8</ele>
        <time>2012-03-13T14:47:06Z</time>
      </trkpt>
      <trkpt lat="46.3817" lon="-0.34867">
        <ele>111.5</ele>
        <time>2012-03-13T14:47:07Z</time>
      </trkpt>
      <trkpt lat="46.38172" lon="-0.34856">
        <ele>111.5</ele>
        <time>2012-03-13T14:47:17Z</time>
      </trkpt>
      <trkpt lat="46.38172" lon="-0.34854">
        <ele>111.6</ele>
        <time>2012-03-13T14:47:18Z</time>
      </trkpt>
      <trkpt lat="46.3817" lon="-0.34838">
        <ele>111.8</ele>
        <time>2012-03-13T14:47:27Z</time>
      </trkpt>
      <trkpt lat="46.38171" lon="-0.34837">
        <ele>112</ele>
        <time>2012-03-13T14:47:28Z</time>
      </trkpt>
      <trkpt lat="46.38169" lon="-0.34822">
        <ele>111.9</ele>
        <time>2012-03-13T14:47:37Z</time>
      </trkpt>
      <trkpt lat="46.38168" lon="-0.3482">
        <ele>111.8</ele>
        <time>2012-03-13T14:47:37Z</time>
      </trkpt>
      <trkpt lat="46.38167" lon="-0.34805">
        <ele>109.4</ele>
        <time>2012-03-13T14:47:47Z</time>
      </trkpt>
      <trkpt lat="46.38167" lon="-0.34804">
        <ele>109.5</ele>
        <time>2012-03-13T14:47:48Z</time>
      </trkpt>
      <trkpt lat="46.38165" lon="-0.34795">
        <ele>108.4</ele>
        <time>2012-03-13T14:47:56Z</time>
      </trkpt>
      <trkpt lat="46.38167" lon="-0.34784">
        <ele>109.2</ele>
        <time>2012-03-13T14:48:04Z</time>
      </trkpt>
      <trkpt lat="46.38165" lon="-0.34777">
        <ele>108.5</ele>
        <time>2012-03-13T14:48:08Z</time>
      </trkpt>
      <trkpt lat="46.38163" lon="-0.34765">
        <ele>110</ele>
        <time>2012-03-13T14:48:15Z</time>
      </trkpt>
      <trkpt lat="46.38162" lon="-0.34762">
        <ele>110.2</ele>
        <time>2012-03-13T14:48:17Z</time>
      </trkpt>
      <trkpt lat="46.3816" lon="-0.34747">
        <ele>110.8</ele>
        <time>2012-03-13T14:48:27Z</time>
      </trkpt>
      <trkpt lat="46.3816" lon="-0.34747">
        <ele>110.7</ele>
        <time>2012-03-13T14:48:28Z</time>
      </trkpt>
      <trkpt lat="46.38154" lon="-0.34725">
        <ele>111.6</ele>
        <time>2012-03-13T14:48:37Z</time>
      </trkpt>
      <trkpt lat="46.38154" lon="-0.34723">
        <ele>111.9</ele>
        <time>2012-03-13T14:48:37Z</time>
      </trkpt>
      <trkpt lat="46.38158" lon="-0.3472">
        <ele>111.2</ele>
        <time>2012-03-13T14:48:47Z</time>
      </trkpt>
      <trkpt lat="46.38158" lon="-0.34718">
        <ele>110.6</ele>
        <time>2012-03-13T14:48:48Z</time>
      </trkpt>
      <trkpt lat="46.38154" lon="-0.34699">
        <ele>109.4</ele>
        <time>2012-03-13T14:48:56Z</time>
      </trkpt>
      <trkpt lat="46.38151" lon="-0.34692">
        <ele>107.7</ele>
        <time>2012-03-13T14:49:03Z</time>
      </trkpt>
      <trkpt lat="46.38148" lon="-0.3468">
        <ele>107.3</ele>
        <time>2012-03-13T14:49:10Z</time>
      </trkpt>
      <trkpt lat="46.3815" lon="-0.34678">
        <ele>107</ele>
        <time>2012-03-13T14:49:12Z</time>
      </trkpt>
      <trkpt lat="46.38152" lon="-0.34668">
        <ele>107.7</ele>
        <time>2012-03-13T14:49:23Z</time>
      </trkpt>
      <trkpt lat="46.38151" lon="-0.34667">
        <ele>107.5</ele>
        <time>2012-03-13T14:49:23Z</time>
      </trkpt>
      <trkpt lat="46.38149" lon="-0.34651">
        <ele>107.4</ele>
        <time>2012-03-13T14:49:31Z</time>
      </trkpt>
      <trkpt lat="46.38144" lon="-0.34625">
        <ele>111.6</ele>
        <time>2012-03-13T14:49:45Z</time>
      </trkpt>
      <trkpt lat="46.38144" lon="-0.34624">
        <ele>112.1</ele>
        <time>2012-03-13T14:49:45Z</time>
      </trkpt>
      <trkpt lat="46.38142" lon="-0.34619">
        <ele>111.7</ele>
        <time>2012-03-13T14:49:47Z</time>
      </trkpt>
      <trkpt lat="46.38141" lon="-0.34603">
        <ele>112.4</ele>
        <time>2012-03-13T14:49:57Z</time>
      </trkpt>
      <trkpt lat="46.38136" lon="-0.34581">
        <ele>114</ele>
        <time>2012-03-13T14:50:06Z</time>
      </trkpt>
      <trkpt lat="46.38136" lon="-0.34579">
        <ele>113.5</ele>
        <time>2012-03-13T14:50:07Z</time>
      </trkpt>
      <trkpt lat="46.38139" lon="-0.34563">
        <ele>114.6</ele>
        <time>2012-03-13T14:50:19Z</time>
      </trkpt>
      <trkpt lat="46.38138" lon="-0.34561">
        <ele>114.6</ele>
        <time>2012-03-13T14:50:19Z</time>
      </trkpt>
      <trkpt lat="46.38135" lon="-0.34549">
        <ele>114.9</ele>
        <time>2012-03-13T14:50:24Z</time>
      </trkpt>
      <trkpt lat="46.38134" lon="-0.34537">
        <ele>115.6</ele>
        <time>2012-03-13T14:50:29Z</time>
      </trkpt>
      <trkpt lat="46.38137" lon="-0.3454">
        <ele>114.9</ele>
        <time>2012-03-13T14:50:32Z</time>
      </trkpt>
      <trkpt lat="46.38133" lon="-0.34523">
        <ele>114.3</ele>
        <time>2012-03-13T14:50:43Z</time>
      </trkpt>
      <trkpt lat="46.38132" lon="-0.3452">
        <ele>113.7</ele>
        <time>2012-03-13T14:50:43Z</time>
      </trkpt>
      <trkpt lat="46.38135" lon="-0.34514">
        <ele>110.7</ele>
        <time>2012-03-13T14:50:51Z</time>
      </trkpt>
      <trkpt lat="46.38136" lon="-0.34512">
        <ele>110.7</ele>
        <time>2012-03-13T14:50:51Z</time>
      </trkpt>
      <trkpt lat="46.3814" lon="-0.34501">
        <ele>110.3</ele>
        <time>2012-03-13T14:51:01Z</time>
      </trkpt>
      <trkpt lat="46.38141" lon="-0.34498">
        <ele>109.7</ele>
        <time>2012-03-13T14:51:02Z</time>
      </trkpt>
      <trkpt lat="46.38143" lon="-0.34479">
        <ele>110.3</ele>
        <time>2012-03-13T14:51:14Z</time>
      </trkpt>
      <trkpt lat="46.38143" lon="-0.34475">
        <ele>110.5</ele>
        <time>2012-03-13T14:51:15Z</time>
      </trkpt>
      <trkpt lat="46.38144" lon="-0.3447">
        <ele>109.9</ele>
        <time>2012-03-13T14:51:19Z</time>
      </trkpt>
      <trkpt lat="46.38145" lon="-0.34463">
        <ele>109.6</ele>
        <time>2012-03-13T14:51:24Z</time>
      </trkpt>
      <trkpt lat="46.38146" lon="-0.34453">
        <ele>110.7</ele>
        <time>2012-03-13T14:51:29Z</time>
      </trkpt>
      <trkpt lat="46.38147" lon="-0.34445">
        <ele>110</ele>
        <time>2012-03-13T14:51:34Z</time>
      </trkpt>
      <trkpt lat="46.38148" lon="-0.34437">
        <ele>109.6</ele>
        <time>2012-03-13T14:51:38Z</time>
      </trkpt>
      <trkpt lat="46.38152" lon="-0.34426">
        <ele>111.5</ele>
        <time>2012-03-13T14:51:45Z</time>
      </trkpt>
      <trkpt lat="46.38153" lon="-0.34423">
        <ele>110.7</ele>
        <time>2012-03-13T14:51:47Z</time>
      </trkpt>
      <trkpt lat="46.3815" lon="-0.34407">
        <ele>109.6</ele>
        <time>2012-03-13T14:51:57Z</time>
      </trkpt>
      <trkpt lat="46.38153" lon="-0.34393">
        <ele>109.1</ele>
        <time>2012-03-13T14:52:06Z</time>
      </trkpt>
      <trkpt lat="46.38153" lon="-0.34391">
        <ele>109.2</ele>
        <time>2012-03-13T14:52:07Z</time>
      </trkpt>
      <trkpt lat="46.38156" lon="-0.34373">
        <ele>109.5</ele>
        <time>2012-03-13T14:52:19Z</time>
      </trkpt>
      <trkpt lat="46.38156" lon="-0.34372">
        <ele>109.2</ele>
        <time>2012-03-13T14:52:19Z</time>
      </trkpt>
      <trkpt lat="46.38164" lon="-0.34363">
        <ele>109.9</ele>
        <time>2012-03-13T14:52:24Z</time>
      </trkpt>
      <trkpt lat="46.38166" lon="-0.34355">
        <ele>108.8</ele>
        <time>2012-03-13T14:52:29Z</time>
      </trkpt>
      <trkpt lat="46.38167" lon="-0.34349">
        <ele>110</ele>
        <time>2012-03-13T14:52:32Z</time>
      </trkpt>
      <trkpt lat="46.38172" lon="-0.34331">
        <ele>111.1</ele>
        <time>2012-03-13T14:52:44Z</time>
      </trkpt>
      <trkpt lat="46.38173" lon="-0.3433">
        <ele>110.7</ele>
        <time>2012-03-13T14:52:44Z</time>
      </trkpt>
      <trkpt lat="46.3817" lon="-0.34323">
        <ele>109.7</ele>
        <time>2012-03-13T14:52:48Z</time>
      </trkpt>
      <trkpt lat="46.3817" lon="-0.34311">
        <ele>109.3</ele>
        <time>2012-03-13T14:52:56Z</time>
      </trkpt>
      <trkpt lat="46.3817" lon="-0.34309">
        <ele>109.3</ele>
        <time>2012-03-13T14:52:56Z</time>
      </trkpt>
      <trkpt lat="46.3817" lon="-0.34291">
        <ele>106.8</ele>
        <time>2012-03-13T14:53:08Z</time>
      </trkpt>
      <trkpt lat="46.38169" lon="-0.34287">
        <ele>107.3</ele>
        <time>2012-03-13T14:53:08Z</time>
      </trkpt>
      <trkpt lat="46.38167" lon="-0.34277">
        <ele>106.9</ele>
        <time>2012-03-13T14:53:16Z</time>
      </trkpt>
      <trkpt lat="46.38168" lon="-0.34275">
        <ele>106.7</ele>
        <time>2012-03-13T14:53:16Z</time>
      </trkpt>
      <trkpt lat="46.3817" lon="-0.34252">
        <ele>105.8</ele>
        <time>2012-03-13T14:53:31Z</time>
      </trkpt>
      <trkpt lat="46.3817" lon="-0.34249">
        <ele>105.8</ele>
        <time>2012-03-13T14:53:31Z</time>
      </trkpt>
      <trkpt lat="46.38171" lon="-0.3424">
        <ele>104.1</ele>
        <time>2012-03-13T14:53:38Z</time>
      </trkpt>
      <trkpt lat="46.38171" lon="-0.3423">
        <ele>102.8</ele>
        <time>2012-03-13T14:53:46Z</time>
      </trkpt>
      <trkpt lat="46.38172" lon="-0.34228">
        <ele>102.7</ele>
        <time>2012-03-13T14:53:47Z</time>
      </trkpt>
      <trkpt lat="46.38171" lon="-0.3421">
        <ele>102.5</ele>
        <time>2012-03-13T14:53:59Z</time>
      </trkpt>
      <trkpt lat="46.38171" lon="-0.34209">
        <ele>102.3</ele>
        <time>2012-03-13T14:53:59Z</time>
      </trkpt>
      <trkpt lat="46.38167" lon="-0.34203">
        <ele>102</ele>
        <time>2012-03-13T14:54:05Z</time>
      </trkpt>
      <trkpt lat="46.38163" lon="-0.34194">
        <ele>98.4</ele>
        <time>2012-03-13T14:54:19Z</time>
      </trkpt>
      <trkpt lat="46.38163" lon="-0.34194">
        <ele>98.4</ele>
        <time>2012-03-13T14:54:20Z</time>
      </trkpt>
      <trkpt lat="46.38163" lon="-0.34192">
        <ele>99.7</ele>
        <time>2012-03-13T14:54:23Z</time>
      </trkpt>
      <trkpt lat="46.38163" lon="-0.34192">
        <ele>99.9</ele>
        <time>2012-03-13T14:54:30Z</time>
      </trkpt>
      <trkpt lat="46.38163" lon="-0.34192">
        <ele>99.9</ele>
        <time>2012-03-13T14:54:32Z</time>
      </trkpt>
      <trkpt lat="46.38163" lon="-0.34192">
        <ele>99.9</ele>
        <time>2012-03-13T14:54:43Z</time>
      </trkpt>
      <trkpt lat="46.38163" lon="-0.34192">
        <ele>99.9</ele>
        <time>2012-03-13T14:54:43Z</time>
      </trkpt>
      <trkpt lat="46.38163" lon="-0.34192">
        <ele>99.9</ele>
        <time>2012-03-13T14:54:50Z</time>
      </trkpt>
      <trkpt lat="46.38163" lon="-0.34192">
        <ele>99.9</ele>
        <time>2012-03-13T14:54:51Z</time>
      </trkpt>
      <trkpt lat="46.38163" lon="-0.34192">
        <ele>99.9</ele>
        <time>2012-03-13T14:55:01Z</time>
      </trkpt>
      <trkpt lat="46.38163" lon="-0.34192">
        <ele>99.9</ele>
        <time>2012-03-13T14:55:02Z</time>
      </trkpt>
      <trkpt lat="46.38163" lon="-0.34192">
        <ele>100</ele>
        <time>2012-03-13T14:55:13Z</time>
      </trkpt>
      <trkpt lat="46.38163" lon="-0.34192">
        <ele>100</ele>
        <time>2012-03-13T14:55:14Z</time>
      </trkpt>
      <trkpt lat="46.38163" lon="-0.34192">
        <ele>100</ele>
        <time>2012-03-13T14:55:18Z</time>
      </trkpt>
      <trkpt lat="46.38163" lon="-0.34192">
        <ele>100</ele>
        <time>2012-03-13T14:55:25Z</time>
      </trkpt>
      <trkpt lat="46.38163" lon="-0.34192">
        <ele>100</ele>
        <time>2012-03-13T14:55:27Z</time>
      </trkpt>
      <trkpt lat="46.38163" lon="-0.34192">
        <ele>100</ele>
        <time>2012-03-13T14:55:37Z</time>
      </trkpt>
      <trkpt lat="46.38163" lon="-0.34192">
        <ele>100</ele>
        <time>2012-03-13T14:55:37Z</time>
      </trkpt>
      <trkpt lat="46.38163" lon="-0.34192">
        <ele>100</ele>
        <time>2012-03-13T14:55:47Z</time>
      </trkpt>
      <trkpt lat="46.38163" lon="-0.34192">
        <ele>100</ele>
        <time>2012-03-13T14:55:47Z</time>
      </trkpt>
      <trkpt lat="46.3816" lon="-0.3419">
        <ele>100.1</ele>
        <time>2012-03-13T14:55:56Z</time>
      </trkpt>
      <trkpt lat="46.3816" lon="-0.34189">
        <ele>100.6</ele>
        <time>2012-03-13T14:55:56Z</time>
      </trkpt>
      <trkpt lat="46.38151" lon="-0.34183">
        <ele>103.9</ele>
        <time>2012-03-13T14:56:06Z</time>
      </trkpt>
      <trkpt lat="46.3815" lon="-0.34183">
        <ele>104.1</ele>
        <time>2012-03-13T14:56:07Z</time>
      </trkpt>
      <trkpt lat="46.38137" lon="-0.34186">
        <ele>104.8</ele>
        <time>2012-03-13T14:56:19Z</time>
      </trkpt>
      <trkpt lat="46.38135" lon="-0.34185">
        <ele>104.5</ele>
        <time>2012-03-13T14:56:19Z</time>
      </trkpt>
      <trkpt lat="46.38128" lon="-0.34184">
        <ele>104.2</ele>
        <time>2012-03-13T14:56:23Z</time>
      </trkpt>
      <trkpt lat="46.38119" lon="-0.34182">
        <ele>105.2</ele>
        <time>2012-03-13T14:56:30Z</time>
      </trkpt>
      <trkpt lat="46.38119" lon="-0.34183">
        <ele>105.9</ele>
        <time>2012-03-13T14:56:32Z</time>
      </trkpt>
      <trkpt lat="46.38109" lon="-0.34192">
        <ele>103.2</ele>
        <time>2012-03-13T14:56:43Z</time>
      </trkpt>
      <trkpt lat="46.38108" lon="-0.34192">
        <ele>103.1</ele>
        <time>2012-03-13T14:56:44Z</time>
      </trkpt>
      <trkpt lat="46.381" lon="-0.34191">
        <ele>103</ele>
        <time>2012-03-13T14:56:50Z</time>
      </trkpt>
      <trkpt lat="46.38099" lon="-0.34191">
        <ele>103.2</ele>
        <time>2012-03-13T14:56:51Z</time>
      </trkpt>
      <trkpt lat="46.38089" lon="-0.34196">
        <ele>100.1</ele>
        <time>2012-03-13T14:57:02Z</time>
      </trkpt>
      <trkpt lat="46.38089" lon="-0.34197">
        <ele>99.7</ele>
        <time>2012-03-13T14:57:02Z</time>
      </trkpt>
      <trkpt lat="46.38082" lon="-0.34198">
        <ele>99.9</ele>
        <time>2012-03-13T14:57:13Z</time>
      </trkpt>
      <trkpt lat="46.38081" lon="-0.34199">
        <ele>100.5</ele>
        <time>2012-03-13T14:57:13Z</time>
      </trkpt>
      <trkpt lat="46.38074" lon="-0.34202">
        <ele>101.8</ele>
        <time>2012-03-13T14:57:20Z</time>
      </trkpt>
      <trkpt lat="46.38072" lon="-0.34203">
        <ele>102.6</ele>
        <time>2012-03-13T14:57:21Z</time>
      </trkpt>
      <trkpt lat="46.38059" lon="-0.34208">
        <ele>103.1</ele>
        <time>2012-03-13T14:57:33Z</time>
      </trkpt>
      <trkpt lat="46.38058" lon="-0.34207">
        <ele>103.1</ele>
        <time>2012-03-13T14:57:34Z</time>
      </trkpt>
      <trkpt lat="46.3805" lon="-0.34211">
        <ele>101.8</ele>
        <time>2012-03-13T14:57:41Z</time>
      </trkpt>
      <trkpt lat="46.38049" lon="-0.34212">
        <ele>101.7</ele>
        <time>2012-03-13T14:57:41Z</time>
      </trkpt>
      <trkpt lat="46.38035" lon="-0.34214">
        <ele>102.7</ele>
        <time>2012-03-13T14:57:55Z</time>
      </trkpt>
      <trkpt lat="46.38034" lon="-0.34216">
        <ele>101.9</ele>
        <time>2012-03-13T14:57:55Z</time>
      </trkpt>
      <trkpt lat="46.38034" lon="-0.34216">
        <ele>101.9</ele>
        <time>2012-03-13T14:57:56Z</time>
      </trkpt>
      <trkpt lat="46.38022" lon="-0.34222">
        <ele>102.8</ele>
        <time>2012-03-13T14:58:06Z</time>
      </trkpt>
      <trkpt lat="46.38022" lon="-0.34223">
        <ele>102.8</ele>
        <time>2012-03-13T14:58:07Z</time>
      </trkpt>
      <trkpt lat="46.38006" lon="-0.34221">
        <ele>102.4</ele>
        <time>2012-03-13T14:58:20Z</time>
      </trkpt>
      <trkpt lat="46.38005" lon="-0.34222">
        <ele>102.2</ele>
        <time>2012-03-13T14:58:20Z</time>
      </trkpt>
      <trkpt lat="46.38005" lon="-0.34222">
        <ele>102.1</ele>
        <time>2012-03-13T14:58:21Z</time>
      </trkpt>
      <trkpt lat="46.37995" lon="-0.34235">
        <ele>99.1</ele>
        <time>2012-03-13T14:58:35Z</time>
      </trkpt>
      <trkpt lat="46.37993" lon="-0.34235">
        <ele>99.4</ele>
        <time>2012-03-13T14:58:35Z</time>
      </trkpt>
      <trkpt lat="46.3799" lon="-0.34236">
        <ele>98.7</ele>
        <time>2012-03-13T14:58:37Z</time>
      </trkpt>
      <trkpt lat="46.37981" lon="-0.34248">
        <ele>98.3</ele>
        <time>2012-03-13T14:58:49Z</time>
      </trkpt>
      <trkpt lat="46.3798" lon="-0.34248">
        <ele>97.6</ele>
        <time>2012-03-13T14:58:49Z</time>
      </trkpt>
      <trkpt lat="46.37978" lon="-0.34249">
        <ele>95.7</ele>
        <time>2012-03-13T14:58:52Z</time>
      </trkpt>
      <trkpt lat="46.37972" lon="-0.34251">
        <ele>96.5</ele>
        <time>2012-03-13T14:58:58Z</time>
      </trkpt>
      <trkpt lat="46.37961" lon="-0.34251">
        <ele>97.8</ele>
        <time>2012-03-13T14:59:06Z</time>
      </trkpt>
      <trkpt lat="46.37944" lon="-0.34264">
        <ele>96.3</ele>
        <time>2012-03-13T14:59:20Z</time>
      </trkpt>
      <trkpt lat="46.37943" lon="-0.34265">
        <ele>95.8</ele>
        <time>2012-03-13T14:59:21Z</time>
      </trkpt>
      <trkpt lat="46.3793" lon="-0.34272">
        <ele>92.7</ele>
        <time>2012-03-13T14:59:36Z</time>
      </trkpt>
      <trkpt lat="46.3793" lon="-0.34273">
        <ele>92.1</ele>
        <time>2012-03-13T14:59:36Z</time>
      </trkpt>
      <trkpt lat="46.37919" lon="-0.34279">
        <ele>93.4</ele>
        <time>2012-03-13T14:59:44Z</time>
      </trkpt>
      <trkpt lat="46.37915" lon="-0.34281">
        <ele>93.2</ele>
        <time>2012-03-13T14:59:48Z</time>
      </trkpt>
      <trkpt lat="46.37905" lon="-0.34287">
        <ele>94</ele>
        <time>2012-03-13T14:59:55Z</time>
      </trkpt>
      <trkpt lat="46.37904" lon="-0.34287">
        <ele>93.9</ele>
        <time>2012-03-13T14:59:56Z</time>
      </trkpt>
      <trkpt lat="46.37894" lon="-0.34293">
        <ele>93.1</ele>
        <time>2012-03-13T15:00:06Z</time>
      </trkpt>
      <trkpt lat="46.37891" lon="-0.34294">
        <ele>91.4</ele>
        <time>2012-03-13T15:00:06Z</time>
      </trkpt>
      <trkpt lat="46.37878" lon="-0.34297">
        <ele>91</ele>
        <time>2012-03-13T15:00:17Z</time>
      </trkpt>
      <trkpt lat="46.37878" lon="-0.34298">
        <ele>91</ele>
        <time>2012-03-13T15:00:17Z</time>
      </trkpt>
      <trkpt lat="46.37877" lon="-0.34299">
        <ele>91.1</ele>
        <time>2012-03-13T15:00:25Z</time>
      </trkpt>
      <trkpt lat="46.37877" lon="-0.34299">
        <ele>91</ele>
        <time>2012-03-13T15:00:26Z</time>
      </trkpt>
      <trkpt lat="46.37877" lon="-0.34299">
        <ele>91</ele>
        <time>2012-03-13T15:00:31Z</time>
      </trkpt>
      <trkpt lat="46.37878" lon="-0.34304">
        <ele>90.5</ele>
        <time>2012-03-13T15:00:36Z</time>
      </trkpt>
      <trkpt lat="46.37879" lon="-0.34304">
        <ele>90.5</ele>
        <time>2012-03-13T15:00:41Z</time>
      </trkpt>
      <trkpt lat="46.37878" lon="-0.34303">
        <ele>89.1</ele>
        <time>2012-03-13T15:00:46Z</time>
      </trkpt>
      <trkpt lat="46.37876" lon="-0.34301">
        <ele>88.6</ele>
        <time>2012-03-13T15:00:51Z</time>
      </trkpt>
      <trkpt lat="46.37869" lon="-0.34302">
        <ele>88.8</ele>
        <time>2012-03-13T15:00:57Z</time>
      </trkpt>
      <trkpt lat="46.3786" lon="-0.34299">
        <ele>90.2</ele>
        <time>2012-03-13T15:01:05Z</time>
      </trkpt>
      <trkpt lat="46.37858" lon="-0.34297">
        <ele>89.3</ele>
        <time>2012-03-13T15:01:06Z</time>
      </trkpt>
      <trkpt lat="46.3784" lon="-0.34292">
        <ele>88.3</ele>
        <time>2012-03-13T15:01:19Z</time>
      </trkpt>
      <trkpt lat="46.37838" lon="-0.34295">
        <ele>87.4</ele>
        <time>2012-03-13T15:01:23Z</time>
      </trkpt>
      <trkpt lat="46.37828" lon="-0.34293">
        <ele>85.2</ele>
        <time>2012-03-13T15:01:28Z</time>
      </trkpt>
      <trkpt lat="46.37821" lon="-0.34292">
        <ele>82.7</ele>
        <time>2012-03-13T15:01:35Z</time>
      </trkpt>
      <trkpt lat="46.37819" lon="-0.34291">
        <ele>83.6</ele>
        <time>2012-03-13T15:01:37Z</time>
      </trkpt>
      <trkpt lat="46.37812" lon="-0.3429">
        <ele>85.7</ele>
        <time>2012-03-13T15:01:45Z</time>
      </trkpt>
      <trkpt lat="46.37807" lon="-0.34289">
        <ele>84</ele>
        <time>2012-03-13T15:01:49Z</time>
      </trkpt>
      <trkpt lat="46.37801" lon="-0.34287">
        <ele>82.2</ele>
        <time>2012-03-13T15:01:52Z</time>
      </trkpt>
      <trkpt lat="46.37796" lon="-0.34286">
        <ele>81.2</ele>
        <time>2012-03-13T15:01:57Z</time>
      </trkpt>
      <trkpt lat="46.37786" lon="-0.34283">
        <ele>81.1</ele>
        <time>2012-03-13T15:02:07Z</time>
      </trkpt>
      <trkpt lat="46.37779" lon="-0.34283">
        <ele>81.5</ele>
        <time>2012-03-13T15:02:15Z</time>
      </trkpt>
      <trkpt lat="46.37778" lon="-0.34283">
        <ele>81.4</ele>
        <time>2012-03-13T15:02:17Z</time>
      </trkpt>
      <trkpt lat="46.37769" lon="-0.34281">
        <ele>81.7</ele>
        <time>2012-03-13T15:02:26Z</time>
      </trkpt>
      <trkpt lat="46.37756" lon="-0.34279">
        <ele>80.8</ele>
        <time>2012-03-13T15:02:39Z</time>
      </trkpt>
      <trkpt lat="46.37755" lon="-0.34278">
        <ele>80.5</ele>
        <time>2012-03-13T15:02:39Z</time>
      </trkpt>
      <trkpt lat="46.37751" lon="-0.34277">
        <ele>79.9</ele>
        <time>2012-03-13T15:02:44Z</time>
      </trkpt>
      <trkpt lat="46.37744" lon="-0.34275">
        <ele>80.2</ele>
        <time>2012-03-13T15:02:50Z</time>
      </trkpt>
      <trkpt lat="46.37743" lon="-0.34275">
        <ele>80.4</ele>
        <time>2012-03-13T15:02:52Z</time>
      </trkpt>
      <trkpt lat="46.37736" lon="-0.34274">
        <ele>81</ele>
        <time>2012-03-13T15:02:58Z</time>
      </trkpt>
      <trkpt lat="46.37728" lon="-0.3427">
        <ele>81</ele>
        <time>2012-03-13T15:03:05Z</time>
      </trkpt>
      <trkpt lat="46.37725" lon="-0.3427">
        <ele>80.9</ele>
        <time>2012-03-13T15:03:09Z</time>
      </trkpt>
      <trkpt lat="46.37719" lon="-0.34267">
        <ele>80.8</ele>
        <time>2012-03-13T15:03:13Z</time>
      </trkpt>
      <trkpt lat="46.37711" lon="-0.34265">
        <ele>80.5</ele>
        <time>2012-03-13T15:03:21Z</time>
      </trkpt>
      <trkpt lat="46.37709" lon="-0.34264">
        <ele>80.2</ele>
        <time>2012-03-13T15:03:21Z</time>
      </trkpt>
      <trkpt lat="46.37697" lon="-0.34259">
        <ele>81.1</ele>
        <time>2012-03-13T15:03:34Z</time>
      </trkpt>
      <trkpt lat="46.37696" lon="-0.3426">
        <ele>81.2</ele>
        <time>2012-03-13T15:03:35Z</time>
      </trkpt>
      <trkpt lat="46.37692" lon="-0.34257">
        <ele>81.9</ele>
        <time>2012-03-13T15:03:38Z</time>
      </trkpt>
      <trkpt lat="46.37684" lon="-0.34257">
        <ele>79.9</ele>
        <time>2012-03-13T15:03:44Z</time>
      </trkpt>
      <trkpt lat="46.37678" lon="-0.34255">
        <ele>79.1</ele>
        <time>2012-03-13T15:03:48Z</time>
      </trkpt>
      <trkpt lat="46.37673" lon="-0.34254">
        <ele>78.9</ele>
        <time>2012-03-13T15:03:56Z</time>
      </trkpt>
      <trkpt lat="46.37672" lon="-0.34253">
        <ele>78.9</ele>
        <time>2012-03-13T15:03:56Z</time>
      </trkpt>
      <trkpt lat="46.37662" lon="-0.34247">
        <ele>78.4</ele>
        <time>2012-03-13T15:04:05Z</time>
      </trkpt>
      <trkpt lat="46.37661" lon="-0.34247">
        <ele>78.7</ele>
        <time>2012-03-13T15:04:06Z</time>
      </trkpt>
      <trkpt lat="46.37645" lon="-0.34242">
        <ele>77.8</ele>
        <time>2012-03-13T15:04:18Z</time>
      </trkpt>
      <trkpt lat="46.37644" lon="-0.34242">
        <ele>78.4</ele>
        <time>2012-03-13T15:04:19Z</time>
      </trkpt>
      <trkpt lat="46.37638" lon="-0.34239">
        <ele>78.5</ele>
        <time>2012-03-13T15:04:25Z</time>
      </trkpt>
      <trkpt lat="46.37636" lon="-0.34238">
        <ele>78.8</ele>
        <time>2012-03-13T15:04:27Z</time>
      </trkpt>
      <trkpt lat="46.37623" lon="-0.34235">
        <ele>79.7</ele>
        <time>2012-03-13T15:04:37Z</time>
      </trkpt>
      <trkpt lat="46.37622" lon="-0.34235">
        <ele>79.6</ele>
        <time>2012-03-13T15:04:38Z</time>
      </trkpt>
      <trkpt lat="46.37611" lon="-0.34233">
        <ele>77.5</ele>
        <time>2012-03-13T15:04:47Z</time>
      </trkpt>
      <trkpt lat="46.376" lon="-0.34228">
        <ele>78.7</ele>
        <time>2012-03-13T15:04:56Z</time>
      </trkpt>
      <trkpt lat="46.37592" lon="-0.34225">
        <ele>78.9</ele>
        <time>2012-03-13T15:05:05Z</time>
      </trkpt>
      <trkpt lat="46.37591" lon="-0.34225">
        <ele>78.7</ele>
        <time>2012-03-13T15:05:06Z</time>
      </trkpt>
      <trkpt lat="46.37577" lon="-0.34222">
        <ele>79.2</ele>
        <time>2012-03-13T15:05:18Z</time>
      </trkpt>
      <trkpt lat="46.37575" lon="-0.34222">
        <ele>79.3</ele>
        <time>2012-03-13T15:05:19Z</time>
      </trkpt>
      <trkpt lat="46.37569" lon="-0.3422">
        <ele>79.3</ele>
        <time>2012-03-13T15:05:25Z</time>
      </trkpt>
      <trkpt lat="46.37566" lon="-0.3422">
        <ele>79.4</ele>
        <time>2012-03-13T15:05:27Z</time>
      </trkpt>
      <trkpt lat="46.37554" lon="-0.34216">
        <ele>79.9</ele>
        <time>2012-03-13T15:05:37Z</time>
      </trkpt>
      <trkpt lat="46.37553" lon="-0.34216">
        <ele>80</ele>
        <time>2012-03-13T15:05:38Z</time>
      </trkpt>
      <trkpt lat="46.37544" lon="-0.34214">
        <ele>80.6</ele>
        <time>2012-03-13T15:05:46Z</time>
      </trkpt>
      <trkpt lat="46.37543" lon="-0.34214">
        <ele>80.8</ele>
        <time>2012-03-13T15:05:46Z</time>
      </trkpt>
      <trkpt lat="46.3753" lon="-0.34214">
        <ele>81.5</ele>
        <time>2012-03-13T15:05:57Z</time>
      </trkpt>
      <trkpt lat="46.37529" lon="-0.34214">
        <ele>81.3</ele>
        <time>2012-03-13T15:05:58Z</time>
      </trkpt>
      <trkpt lat="46.37521" lon="-0.34217">
        <ele>81.3</ele>
        <time>2012-03-13T15:06:06Z</time>
      </trkpt>
      <trkpt lat="46.37521" lon="-0.34218">
        <ele>81.6</ele>
        <time>2012-03-13T15:06:06Z</time>
      </trkpt>
      <trkpt lat="46.37523" lon="-0.34218">
        <ele>82.4</ele>
        <time>2012-03-13T15:06:19Z</time>
      </trkpt>
      <trkpt lat="46.37523" lon="-0.34218">
        <ele>82.5</ele>
        <time>2012-03-13T15:06:19Z</time>
      </trkpt>
      <trkpt lat="46.37523" lon="-0.34218">
        <ele>82.4</ele>
        <time>2012-03-13T15:06:24Z</time>
      </trkpt>
      <trkpt lat="46.37523" lon="-0.34218">
        <ele>82.4</ele>
        <time>2012-03-13T15:06:28Z</time>
      </trkpt>
      <trkpt lat="46.37522" lon="-0.34223">
        <ele>84.3</ele>
        <time>2012-03-13T15:06:35Z</time>
      </trkpt>
      <trkpt lat="46.37523" lon="-0.34227">
        <ele>85.4</ele>
        <time>2012-03-13T15:06:37Z</time>
      </trkpt>
      <trkpt lat="46.37524" lon="-0.34231">
        <ele>83.5</ele>
        <time>2012-03-13T15:06:47Z</time>
      </trkpt>
      <trkpt lat="46.37524" lon="-0.34231">
        <ele>83.5</ele>
        <time>2012-03-13T15:06:48Z</time>
      </trkpt>
      <trkpt lat="46.37524" lon="-0.3423">
        <ele>83.9</ele>
        <time>2012-03-13T15:06:56Z</time>
      </trkpt>
      <trkpt lat="46.37525" lon="-0.34235">
        <ele>84.6</ele>
        <time>2012-03-13T15:07:05Z</time>
      </trkpt>
      <trkpt lat="46.37525" lon="-0.34237">
        <ele>84.8</ele>
        <time>2012-03-13T15:07:07Z</time>
      </trkpt>
      <trkpt lat="46.3753" lon="-0.34249">
        <ele>85.9</ele>
        <time>2012-03-13T15:07:18Z</time>
      </trkpt>
      <trkpt lat="46.37531" lon="-0.34252">
        <ele>86.2</ele>
        <time>2012-03-13T15:07:18Z</time>
      </trkpt>
      <trkpt lat="46.37536" lon="-0.34261">
        <ele>83.4</ele>
        <time>2012-03-13T15:07:25Z</time>
      </trkpt>
      <trkpt lat="46.37536" lon="-0.34262">
        <ele>83.3</ele>
        <time>2012-03-13T15:07:26Z</time>
      </trkpt>
      <trkpt lat="46.3754" lon="-0.34273">
        <ele>81.4</ele>
        <time>2012-03-13T15:07:35Z</time>
      </trkpt>
      <trkpt lat="46.37541" lon="-0.34275">
        <ele>81.5</ele>
        <time>2012-03-13T15:07:38Z</time>
      </trkpt>
      <trkpt lat="46.37546" lon="-0.34285">
        <ele>80.2</ele>
        <time>2012-03-13T15:07:45Z</time>
      </trkpt>
      <trkpt lat="46.37546" lon="-0.34286">
        <ele>79.9</ele>
        <time>2012-03-13T15:07:47Z</time>
      </trkpt>
      <trkpt lat="46.37552" lon="-0.34302">
        <ele>79.1</ele>
        <time>2012-03-13T15:07:57Z</time>
      </trkpt>
      <trkpt lat="46.37553" lon="-0.34321">
        <ele>82.1</ele>
        <time>2012-03-13T15:08:06Z</time>
      </trkpt>
      <trkpt lat="46.37553" lon="-0.34323">
        <ele>82.6</ele>
        <time>2012-03-13T15:08:07Z</time>
      </trkpt>
      <trkpt lat="46.37558" lon="-0.34342">
        <ele>85.9</ele>
        <time>2012-03-13T15:08:19Z</time>
      </trkpt>
      <trkpt lat="46.37556" lon="-0.34349">
        <ele>86.7</ele>
        <time>2012-03-13T15:08:23Z</time>
      </trkpt>
      <trkpt lat="46.3756" lon="-0.34351">
        <ele>84</ele>
        <time>2012-03-13T15:08:26Z</time>
      </trkpt>
      <trkpt lat="46.37561" lon="-0.34359">
        <ele>82.8</ele>
        <time>2012-03-13T15:08:31Z</time>
      </trkpt>
      <trkpt lat="46.37563" lon="-0.34367">
        <ele>80.5</ele>
        <time>2012-03-13T15:08:36Z</time>
      </trkpt>
      <trkpt lat="46.37565" lon="-0.34374">
        <ele>79.9</ele>
        <time>2012-03-13T15:08:41Z</time>
      </trkpt>
      <trkpt lat="46.37566" lon="-0.34385">
        <ele>80.1</ele>
        <time>2012-03-13T15:08:47Z</time>
      </trkpt>
      <trkpt lat="46.37569" lon="-0.34398">
        <ele>79.7</ele>
        <time>2012-03-13T15:08:55Z</time>
      </trkpt>
      <trkpt lat="46.3757" lon="-0.34401">
        <ele>78.1</ele>
        <time>2012-03-13T15:08:56Z</time>
      </trkpt>
      <trkpt lat="46.37573" lon="-0.34413">
        <ele>79</ele>
        <time>2012-03-13T15:09:05Z</time>
      </trkpt>
      <trkpt lat="46.37573" lon="-0.34415">
        <ele>79.4</ele>
        <time>2012-03-13T15:09:07Z</time>
      </trkpt>
      <trkpt lat="46.37578" lon="-0.34425">
        <ele>79.2</ele>
        <time>2012-03-13T15:09:15Z</time>
      </trkpt>
      <trkpt lat="46.37578" lon="-0.34433">
        <ele>78.7</ele>
        <time>2012-03-13T15:09:18Z</time>
      </trkpt>
      <trkpt lat="46.3758" lon="-0.34444">
        <ele>79</ele>
        <time>2012-03-13T15:09:24Z</time>
      </trkpt>
      <trkpt lat="46.37582" lon="-0.34447">
        <ele>77.9</ele>
        <time>2012-03-13T15:09:29Z</time>
      </trkpt>
      <trkpt lat="46.37582" lon="-0.34453">
        <ele>77.5</ele>
        <time>2012-03-13T15:09:31Z</time>
      </trkpt>
      <trkpt lat="46.37582" lon="-0.34464">
        <ele>79.5</ele>
        <time>2012-03-13T15:09:38Z</time>
      </trkpt>
      <trkpt lat="46.37583" lon="-0.34469">
        <ele>77.9</ele>
        <time>2012-03-13T15:09:42Z</time>
      </trkpt>
      <trkpt lat="46.3759" lon="-0.34478">
        <ele>79.5</ele>
        <time>2012-03-13T15:09:52Z</time>
      </trkpt>
      <trkpt lat="46.37589" lon="-0.34481">
        <ele>79.4</ele>
        <time>2012-03-13T15:09:53Z</time>
      </trkpt>
      <trkpt lat="46.3759" lon="-0.34491">
        <ele>80.4</ele>
        <time>2012-03-13T15:09:58Z</time>
      </trkpt>
      <trkpt lat="46.37591" lon="-0.34504">
        <ele>81.9</ele>
        <time>2012-03-13T15:10:05Z</time>
      </trkpt>
      <trkpt lat="46.37592" lon="-0.34509">
        <ele>81.8</ele>
        <time>2012-03-13T15:10:07Z</time>
      </trkpt>
      <trkpt lat="46.37594" lon="-0.34521">
        <ele>81</ele>
        <time>2012-03-13T15:10:16Z</time>
      </trkpt>
      <trkpt lat="46.37594" lon="-0.34524">
        <ele>80.7</ele>
        <time>2012-03-13T15:10:16Z</time>
      </trkpt>
      <trkpt lat="46.37597" lon="-0.34538">
        <ele>79.7</ele>
        <time>2012-03-13T15:10:27Z</time>
      </trkpt>
      <trkpt lat="46.37598" lon="-0.34539">
        <ele>79.5</ele>
        <time>2012-03-13T15:10:27Z</time>
      </trkpt>
      <trkpt lat="46.37602" lon="-0.34549">
        <ele>76.2</ele>
        <time>2012-03-13T15:10:36Z</time>
      </trkpt>
      <trkpt lat="46.37603" lon="-0.3455">
        <ele>76.2</ele>
        <time>2012-03-13T15:10:37Z</time>
      </trkpt>
      <trkpt lat="46.37604" lon="-0.34573">
        <ele>77.5</ele>
        <time>2012-03-13T15:10:48Z</time>
      </trkpt>
      <trkpt lat="46.37605" lon="-0.34574">
        <ele>77.3</ele>
        <time>2012-03-13T15:10:49Z</time>
      </trkpt>
      <trkpt lat="46.37609" lon="-0.34582">
        <ele>77</ele>
        <time>2012-03-13T15:10:55Z</time>
      </trkpt>
      <trkpt lat="46.3761" lon="-0.34583">
        <ele>74.4</ele>
        <time>2012-03-13T15:10:56Z</time>
      </trkpt>
      <trkpt lat="46.37611" lon="-0.34595">
        <ele>75.7</ele>
        <time>2012-03-13T15:11:06Z</time>
      </trkpt>
      <trkpt lat="46.37611" lon="-0.34597">
        <ele>76.5</ele>
        <time>2012-03-13T15:11:07Z</time>
      </trkpt>
      <trkpt lat="46.37614" lon="-0.34614">
        <ele>77.4</ele>
        <time>2012-03-13T15:11:18Z</time>
      </trkpt>
      <trkpt lat="46.37615" lon="-0.34616">
        <ele>77.5</ele>
        <time>2012-03-13T15:11:19Z</time>
      </trkpt>
      <trkpt lat="46.37616" lon="-0.34621">
        <ele>77.7</ele>
        <time>2012-03-13T15:11:25Z</time>
      </trkpt>
      <trkpt lat="46.37615" lon="-0.34627">
        <ele>77.9</ele>
        <time>2012-03-13T15:11:27Z</time>
      </trkpt>
      <trkpt lat="46.37617" lon="-0.34644">
        <ele>78.1</ele>
        <time>2012-03-13T15:11:37Z</time>
      </trkpt>
      <trkpt lat="46.37624" lon="-0.34661">
        <ele>77.7</ele>
        <time>2012-03-13T15:11:49Z</time>
      </trkpt>
      <trkpt lat="46.37625" lon="-0.34664">
        <ele>78.3</ele>
        <time>2012-03-13T15:11:52Z</time>
      </trkpt>
      <trkpt lat="46.37625" lon="-0.34679">
        <ele>79.1</ele>
        <time>2012-03-13T15:11:59Z</time>
      </trkpt>
      <trkpt lat="46.37626" lon="-0.34685">
        <ele>79.4</ele>
        <time>2012-03-13T15:12:03Z</time>
      </trkpt>
      <trkpt lat="46.37627" lon="-0.34695">
        <ele>79.8</ele>
        <time>2012-03-13T15:12:10Z</time>
      </trkpt>
      <trkpt lat="46.37629" lon="-0.34698">
        <ele>79.8</ele>
        <time>2012-03-13T15:12:12Z</time>
      </trkpt>
      <trkpt lat="46.37632" lon="-0.34715">
        <ele>79.3</ele>
        <time>2012-03-13T15:12:23Z</time>
      </trkpt>
      <trkpt lat="46.37632" lon="-0.34716">
        <ele>78.6</ele>
        <time>2012-03-13T15:12:23Z</time>
      </trkpt>
      <trkpt lat="46.37634" lon="-0.34726">
        <ele>80.9</ele>
        <time>2012-03-13T15:12:30Z</time>
      </trkpt>
      <trkpt lat="46.37635" lon="-0.34729">
        <ele>81</ele>
        <time>2012-03-13T15:12:32Z</time>
      </trkpt>
      <trkpt lat="46.37639" lon="-0.34741">
        <ele>76.7</ele>
        <time>2012-03-13T15:12:42Z</time>
      </trkpt>
      <trkpt lat="46.37639" lon="-0.34743">
        <ele>76.6</ele>
        <time>2012-03-13T15:12:42Z</time>
      </trkpt>
      <trkpt lat="46.37642" lon="-0.34756">
        <ele>77.8</ele>
        <time>2012-03-13T15:12:52Z</time>
      </trkpt>
      <trkpt lat="46.37642" lon="-0.34758">
        <ele>77.8</ele>
        <time>2012-03-13T15:12:52Z</time>
      </trkpt>
      <trkpt lat="46.37645" lon="-0.34768">
        <ele>77.1</ele>
        <time>2012-03-13T15:12:59Z</time>
      </trkpt>
      <trkpt lat="46.37646" lon="-0.34773">
        <ele>79.1</ele>
        <time>2012-03-13T15:13:04Z</time>
      </trkpt>
      <trkpt lat="46.37648" lon="-0.34782">
        <ele>78.7</ele>
        <time>2012-03-13T15:13:09Z</time>
      </trkpt>
      <trkpt lat="46.37649" lon="-0.34787">
        <ele>77.6</ele>
        <time>2012-03-13T15:13:13Z</time>
      </trkpt>
      <trkpt lat="46.37651" lon="-0.34799">
        <ele>79.1</ele>
        <time>2012-03-13T15:13:20Z</time>
      </trkpt>
      <trkpt lat="46.37652" lon="-0.34801">
        <ele>77.7</ele>
        <time>2012-03-13T15:13:22Z</time>
      </trkpt>
      <trkpt lat="46.37656" lon="-0.34816">
        <ele>75.7</ele>
        <time>2012-03-13T15:13:32Z</time>
      </trkpt>
      <trkpt lat="46.37656" lon="-0.34819">
        <ele>75.6</ele>
        <time>2012-03-13T15:13:32Z</time>
      </trkpt>
      <trkpt lat="46.37657" lon="-0.3483">
        <ele>78.4</ele>
        <time>2012-03-13T15:13:41Z</time>
      </trkpt>
      <trkpt lat="46.37661" lon="-0.34849">
        <ele>79.1</ele>
        <time>2012-03-13T15:13:53Z</time>
      </trkpt>
      <trkpt lat="46.3766" lon="-0.34851">
        <ele>79.1</ele>
        <time>2012-03-13T15:13:54Z</time>
      </trkpt>
      <trkpt lat="46.3766" lon="-0.34857">
        <ele>79</ele>
        <time>2012-03-13T15:13:58Z</time>
      </trkpt>
      <trkpt lat="46.37661" lon="-0.34869">
        <ele>78.6</ele>
        <time>2012-03-13T15:14:05Z</time>
      </trkpt>
      <trkpt lat="46.37662" lon="-0.34871">
        <ele>79.6</ele>
        <time>2012-03-13T15:14:07Z</time>
      </trkpt>
      <trkpt lat="46.37664" lon="-0.34889">
        <ele>79.5</ele>
        <time>2012-03-13T15:14:17Z</time>
      </trkpt>
      <trkpt lat="46.37664" lon="-0.34892">
        <ele>79.4</ele>
        <time>2012-03-13T15:14:17Z</time>
      </trkpt>
      <trkpt lat="46.37667" lon="-0.34905">
        <ele>81.5</ele>
        <time>2012-03-13T15:14:24Z</time>
      </trkpt>
      <trkpt lat="46.37669" lon="-0.34905">
        <ele>81.7</ele>
        <time>2012-03-13T15:14:27Z</time>
      </trkpt>
      <trkpt lat="46.37673" lon="-0.34918">
        <ele>83</ele>
        <time>2012-03-13T15:14:36Z</time>
      </trkpt>
      <trkpt lat="46.37673" lon="-0.3492">
        <ele>82.5</ele>
        <time>2012-03-13T15:14:37Z</time>
      </trkpt>
      <trkpt lat="46.37672" lon="-0.34944">
        <ele>85.2</ele>
        <time>2012-03-13T15:14:50Z</time>
      </trkpt>
      <trkpt lat="46.37673" lon="-0.34943">
        <ele>85.5</ele>
        <time>2012-03-13T15:14:51Z</time>
      </trkpt>
      <trkpt lat="46.37674" lon="-0.34946">
        <ele>85.5</ele>
        <time>2012-03-13T15:14:51Z</time>
      </trkpt>
      <trkpt lat="46.37675" lon="-0.34972">
        <ele>91.4</ele>
        <time>2012-03-13T15:15:05Z</time>
      </trkpt>
      <trkpt lat="46.37675" lon="-0.34974">
        <ele>90.7</ele>
        <time>2012-03-13T15:15:05Z</time>
      </trkpt>
      <trkpt lat="46.37676" lon="-0.34978">
        <ele>90.7</ele>
        <time>2012-03-13T15:15:09Z</time>
      </trkpt>
      <trkpt lat="46.37678" lon="-0.34984">
        <ele>89.7</ele>
        <time>2012-03-13T15:15:14Z</time>
      </trkpt>
      <trkpt lat="46.3768" lon="-0.34989">
        <ele>90</ele>
        <time>2012-03-13T15:15:19Z</time>
      </trkpt>
      <trkpt lat="46.37683" lon="-0.34994">
        <ele>90.9</ele>
        <time>2012-03-13T15:15:25Z</time>
      </trkpt>
      <trkpt lat="46.37682" lon="-0.35">
        <ele>91.4</ele>
        <time>2012-03-13T15:15:27Z</time>
      </trkpt>
      <trkpt lat="46.37685" lon="-0.35017">
        <ele>88.3</ele>
        <time>2012-03-13T15:15:37Z</time>
      </trkpt>
      <trkpt lat="46.37686" lon="-0.35019">
        <ele>88.2</ele>
        <time>2012-03-13T15:15:37Z</time>
      </trkpt>
      <trkpt lat="46.37692" lon="-0.3503">
        <ele>82.8</ele>
        <time>2012-03-13T15:15:49Z</time>
      </trkpt>
      <trkpt lat="46.37693" lon="-0.35036">
        <ele>82.9</ele>
        <time>2012-03-13T15:15:55Z</time>
      </trkpt>
      <trkpt lat="46.37694" lon="-0.3504">
        <ele>81.6</ele>
        <time>2012-03-13T15:15:57Z</time>
      </trkpt>
      <trkpt lat="46.37695" lon="-0.35053">
        <ele>82.8</ele>
        <time>2012-03-13T15:16:05Z</time>
      </trkpt>
      <trkpt lat="46.37698" lon="-0.35056">
        <ele>82.4</ele>
        <time>2012-03-13T15:16:08Z</time>
      </trkpt>
      <trkpt lat="46.37701" lon="-0.35069">
        <ele>82.7</ele>
        <time>2012-03-13T15:16:15Z</time>
      </trkpt>
      <trkpt lat="46.37702" lon="-0.3507">
        <ele>82.1</ele>
        <time>2012-03-13T15:16:17Z</time>
      </trkpt>
      <trkpt lat="46.37704" lon="-0.35085">
        <ele>78.6</ele>
        <time>2012-03-13T15:16:27Z</time>
      </trkpt>
      <trkpt lat="46.37705" lon="-0.35086">
        <ele>78.4</ele>
        <time>2012-03-13T15:16:27Z</time>
      </trkpt>
      <trkpt lat="46.37709" lon="-0.35099">
        <ele>78.1</ele>
        <time>2012-03-13T15:16:38Z</time>
      </trkpt>
      <trkpt lat="46.37709" lon="-0.35101">
        <ele>77</ele>
        <time>2012-03-13T15:16:39Z</time>
      </trkpt>
      <trkpt lat="46.37708" lon="-0.35107">
        <ele>76.6</ele>
        <time>2012-03-13T15:16:41Z</time>
      </trkpt>
      <trkpt lat="46.37713" lon="-0.35117">
        <ele>75.6</ele>
        <time>2012-03-13T15:16:51Z</time>
      </trkpt>
      <trkpt lat="46.37714" lon="-0.35117">
        <ele>74.8</ele>
        <time>2012-03-13T15:16:52Z</time>
      </trkpt>
      <trkpt lat="46.37717" lon="-0.35131">
        <ele>76.3</ele>
        <time>2012-03-13T15:17:00Z</time>
      </trkpt>
      <trkpt lat="46.37717" lon="-0.35135">
        <ele>77.5</ele>
        <time>2012-03-13T15:17:02Z</time>
      </trkpt>
      <trkpt lat="46.37718" lon="-0.35151">
        <ele>77.1</ele>
        <time>2012-03-13T15:17:12Z</time>
      </trkpt>
      <trkpt lat="46.3772" lon="-0.35152">
        <ele>76.8</ele>
        <time>2012-03-13T15:17:13Z</time>
      </trkpt>
      <trkpt lat="46.3772" lon="-0.35167">
        <ele>80.4</ele>
        <time>2012-03-13T15:17:23Z</time>
      </trkpt>
      <trkpt lat="46.3772" lon="-0.35169">
        <ele>80.7</ele>
        <time>2012-03-13T15:17:23Z</time>
      </trkpt>
      <trkpt lat="46.37722" lon="-0.35177">
        <ele>82.6</ele>
        <time>2012-03-13T15:17:29Z</time>
      </trkpt>
      <trkpt lat="46.37723" lon="-0.35185">
        <ele>81.7</ele>
        <time>2012-03-13T15:17:33Z</time>
      </trkpt>
      <trkpt lat="46.37725" lon="-0.35195">
        <ele>84.4</ele>
        <time>2012-03-13T15:17:40Z</time>
      </trkpt>
      <trkpt lat="46.37726" lon="-0.35201">
        <ele>83.4</ele>
        <time>2012-03-13T15:17:42Z</time>
      </trkpt>
      <trkpt lat="46.37728" lon="-0.35213">
        <ele>84.2</ele>
        <time>2012-03-13T15:17:51Z</time>
      </trkpt>
      <trkpt lat="46.37728" lon="-0.35215">
        <ele>85.2</ele>
        <time>2012-03-13T15:17:51Z</time>
      </trkpt>
      <trkpt lat="46.37728" lon="-0.35238">
        <ele>88.7</ele>
        <time>2012-03-13T15:18:02Z</time>
      </trkpt>
      <trkpt lat="46.37732" lon="-0.3525">
        <ele>87.7</ele>
        <time>2012-03-13T15:18:13Z</time>
      </trkpt>
      <trkpt lat="46.37732" lon="-0.35251">
        <ele>87.3</ele>
        <time>2012-03-13T15:18:13Z</time>
      </trkpt>
      <trkpt lat="46.37733" lon="-0.35261">
        <ele>90.6</ele>
        <time>2012-03-13T15:18:21Z</time>
      </trkpt>
      <trkpt lat="46.37734" lon="-0.35262">
        <ele>89.9</ele>
        <time>2012-03-13T15:18:21Z</time>
      </trkpt>
      <trkpt lat="46.37731" lon="-0.35265">
        <ele>80.1</ele>
        <time>2012-03-13T15:18:34Z</time>
      </trkpt>
      <trkpt lat="46.3773" lon="-0.35266">
        <ele>80.2</ele>
        <time>2012-03-13T15:18:34Z</time>
      </trkpt>
      <trkpt lat="46.37725" lon="-0.35268">
        <ele>79.7</ele>
        <time>2012-03-13T15:18:39Z</time>
      </trkpt>
      <trkpt lat="46.37721" lon="-0.35271">
        <ele>79.3</ele>
        <time>2012-03-13T15:18:43Z</time>
      </trkpt>
      <trkpt lat="46.37712" lon="-0.35272">
        <ele>80.6</ele>
        <time>2012-03-13T15:18:50Z</time>
      </trkpt>
      <trkpt lat="46.3771" lon="-0.35272">
        <ele>80.6</ele>
        <time>2012-03-13T15:18:51Z</time>
      </trkpt>
      <trkpt lat="46.37704" lon="-0.35278">
        <ele>80.7</ele>
        <time>2012-03-13T15:19:00Z</time>
      </trkpt>
      <trkpt lat="46.37702" lon="-0.35279">
        <ele>81.1</ele>
        <time>2012-03-13T15:19:02Z</time>
      </trkpt>
      <trkpt lat="46.37696" lon="-0.35283">
        <ele>80.1</ele>
        <time>2012-03-13T15:19:09Z</time>
      </trkpt>
      <trkpt lat="46.37696" lon="-0.35284">
        <ele>80.1</ele>
        <time>2012-03-13T15:19:11Z</time>
      </trkpt>
      <trkpt lat="46.37692" lon="-0.35286">
        <ele>81.7</ele>
        <time>2012-03-13T15:19:16Z</time>
      </trkpt>
      <trkpt lat="46.37688" lon="-0.35287">
        <ele>82.1</ele>
        <time>2012-03-13T15:19:21Z</time>
      </trkpt>
      <trkpt lat="46.37685" lon="-0.35284">
        <ele>82.1</ele>
        <time>2012-03-13T15:19:26Z</time>
      </trkpt>
      <trkpt lat="46.37685" lon="-0.35283">
        <ele>82.3</ele>
        <time>2012-03-13T15:19:31Z</time>
      </trkpt>
      <trkpt lat="46.37685" lon="-0.35283">
        <ele>82.3</ele>
        <time>2012-03-13T15:19:36Z</time>
      </trkpt>
      <trkpt lat="46.37686" lon="-0.35284">
        <ele>82.6</ele>
        <time>2012-03-13T15:19:41Z</time>
      </trkpt>
      <trkpt lat="46.37686" lon="-0.35286">
        <ele>84</ele>
        <time>2012-03-13T15:19:46Z</time>
      </trkpt>
      <trkpt lat="46.3769" lon="-0.3529">
        <ele>84.1</ele>
        <time>2012-03-13T15:19:51Z</time>
      </trkpt>
      <trkpt lat="46.37693" lon="-0.35288">
        <ele>83.3</ele>
        <time>2012-03-13T15:19:56Z</time>
      </trkpt>
      <trkpt lat="46.37697" lon="-0.35286">
        <ele>81.9</ele>
        <time>2012-03-13T15:20:01Z</time>
      </trkpt>
      <trkpt lat="46.37707" lon="-0.35283">
        <ele>81</ele>
        <time>2012-03-13T15:20:10Z</time>
      </trkpt>
      <trkpt lat="46.37708" lon="-0.35282">
        <ele>81.4</ele>
        <time>2012-03-13T15:20:11Z</time>
      </trkpt>
      <trkpt lat="46.37719" lon="-0.35291">
        <ele>81.4</ele>
        <time>2012-03-13T15:20:23Z</time>
      </trkpt>
      <trkpt lat="46.3772" lon="-0.35292">
        <ele>81.7</ele>
        <time>2012-03-13T15:20:24Z</time>
      </trkpt>
      <trkpt lat="46.37721" lon="-0.35302">
        <ele>81.1</ele>
        <time>2012-03-13T15:20:29Z</time>
      </trkpt>
      <trkpt lat="46.37721" lon="-0.35308">
        <ele>82.2</ele>
        <time>2012-03-13T15:20:32Z</time>
      </trkpt>
      <trkpt lat="46.37723" lon="-0.35321">
        <ele>81.7</ele>
        <time>2012-03-13T15:20:40Z</time>
      </trkpt>
      <trkpt lat="46.37723" lon="-0.35325">
        <ele>81.7</ele>
        <time>2012-03-13T15:20:42Z</time>
      </trkpt>
      <trkpt lat="46.37722" lon="-0.35341">
        <ele>83.1</ele>
        <time>2012-03-13T15:20:50Z</time>
      </trkpt>
      <trkpt lat="46.37723" lon="-0.35345">
        <ele>84.6</ele>
        <time>2012-03-13T15:20:52Z</time>
      </trkpt>
      <trkpt lat="46.37725" lon="-0.35356">
        <ele>84.1</ele>
        <time>2012-03-13T15:21:00Z</time>
      </trkpt>
      <trkpt lat="46.37726" lon="-0.35359">
        <ele>84</ele>
        <time>2012-03-13T15:21:01Z</time>
      </trkpt>
      <trkpt lat="46.37727" lon="-0.35367">
        <ele>82.2</ele>
        <time>2012-03-13T15:21:06Z</time>
      </trkpt>
      <trkpt lat="46.37731" lon="-0.35387">
        <ele>81.1</ele>
        <time>2012-03-13T15:21:18Z</time>
      </trkpt>
      <trkpt lat="46.3773" lon="-0.35389">
        <ele>82.3</ele>
        <time>2012-03-13T15:21:19Z</time>
      </trkpt>
      <trkpt lat="46.37733" lon="-0.3539">
        <ele>81.5</ele>
        <time>2012-03-13T15:21:22Z</time>
      </trkpt>
      <trkpt lat="46.37734" lon="-0.35408">
        <ele>83.8</ele>
        <time>2012-03-13T15:21:31Z</time>
      </trkpt>
      <trkpt lat="46.37735" lon="-0.35409">
        <ele>83.7</ele>
        <time>2012-03-13T15:21:31Z</time>
      </trkpt>
      <trkpt lat="46.37734" lon="-0.35434">
        <ele>88.8</ele>
        <time>2012-03-13T15:21:42Z</time>
      </trkpt>
      <trkpt lat="46.37734" lon="-0.35436">
        <ele>89.7</ele>
        <time>2012-03-13T15:21:43Z</time>
      </trkpt>
      <trkpt lat="46.37734" lon="-0.35447">
        <ele>89.6</ele>
        <time>2012-03-13T15:21:50Z</time>
      </trkpt>
      <trkpt lat="46.37735" lon="-0.35449">
        <ele>89.4</ele>
        <time>2012-03-13T15:21:51Z</time>
      </trkpt>
      <trkpt lat="46.37738" lon="-0.35467">
        <ele>91.4</ele>
        <time>2012-03-13T15:22:04Z</time>
      </trkpt>
      <trkpt lat="46.37738" lon="-0.35469">
        <ele>91.3</ele>
        <time>2012-03-13T15:22:05Z</time>
      </trkpt>
      <trkpt lat="46.37741" lon="-0.35472">
        <ele>90.5</ele>
        <time>2012-03-13T15:22:09Z</time>
      </trkpt>
      <trkpt lat="46.37746" lon="-0.35478">
        <ele>86.5</ele>
        <time>2012-03-13T15:22:13Z</time>
      </trkpt>
      <trkpt lat="46.3775" lon="-0.35486">
        <ele>83.9</ele>
        <time>2012-03-13T15:22:20Z</time>
      </trkpt>
      <trkpt lat="46.37754" lon="-0.35489">
        <ele>85.8</ele>
        <time>2012-03-13T15:22:22Z</time>
      </trkpt>
      <trkpt lat="46.37766" lon="-0.35499">
        <ele>83.1</ele>
        <time>2012-03-13T15:22:31Z</time>
      </trkpt>
      <trkpt lat="46.37778" lon="-0.35508">
        <ele>81.8</ele>
        <time>2012-03-13T15:22:42Z</time>
      </trkpt>
      <trkpt lat="46.37779" lon="-0.35509">
        <ele>81.6</ele>
        <time>2012-03-13T15:22:42Z</time>
      </trkpt>
      <trkpt lat="46.37783" lon="-0.35518">
        <ele>81.1</ele>
        <time>2012-03-13T15:22:51Z</time>
      </trkpt>
      <trkpt lat="46.37783" lon="-0.35519">
        <ele>80.9</ele>
        <time>2012-03-13T15:22:52Z</time>
      </trkpt>
      <trkpt lat="46.37788" lon="-0.3553">
        <ele>83.8</ele>
        <time>2012-03-13T15:23:02Z</time>
      </trkpt>
      <trkpt lat="46.37788" lon="-0.35531">
        <ele>83</ele>
        <time>2012-03-13T15:23:02Z</time>
      </trkpt>
      <trkpt lat="46.37782" lon="-0.35543">
        <ele>83.5</ele>
        <time>2012-03-13T15:23:13Z</time>
      </trkpt>
      <trkpt lat="46.37781" lon="-0.35541">
        <ele>82.4</ele>
        <time>2012-03-13T15:23:13Z</time>
      </trkpt>
      <trkpt lat="46.37774" lon="-0.35548">
        <ele>84.9</ele>
        <time>2012-03-13T15:23:21Z</time>
      </trkpt>
      <trkpt lat="46.37773" lon="-0.35548">
        <ele>84.8</ele>
        <time>2012-03-13T15:23:21Z</time>
      </trkpt>
      <trkpt lat="46.37762" lon="-0.35553">
        <ele>81.2</ele>
        <time>2012-03-13T15:23:32Z</time>
      </trkpt>
      <trkpt lat="46.37755" lon="-0.35557">
        <ele>82.1</ele>
        <time>2012-03-13T15:23:42Z</time>
      </trkpt>
      <trkpt lat="46.37753" lon="-0.35557">
        <ele>81</ele>
        <time>2012-03-13T15:23:43Z</time>
      </trkpt>
      <trkpt lat="46.37741" lon="-0.35562">
        <ele>81</ele>
        <time>2012-03-13T15:23:53Z</time>
      </trkpt>
      <trkpt lat="46.3774" lon="-0.35562">
        <ele>81.2</ele>
        <time>2012-03-13T15:23:53Z</time>
      </trkpt>
      <trkpt lat="46.37732" lon="-0.35563">
        <ele>79.2</ele>
        <time>2012-03-13T15:24:00Z</time>
      </trkpt>
      <trkpt lat="46.37729" lon="-0.35563">
        <ele>80.1</ele>
        <time>2012-03-13T15:24:02Z</time>
      </trkpt>
      <trkpt lat="46.37721" lon="-0.35569">
        <ele>83.5</ele>
        <time>2012-03-13T15:24:11Z</time>
      </trkpt>
      <trkpt lat="46.37719" lon="-0.35569">
        <ele>83.4</ele>
        <time>2012-03-13T15:24:12Z</time>
      </trkpt>
      <trkpt lat="46.37708" lon="-0.35576">
        <ele>84.4</ele>
        <time>2012-03-13T15:24:24Z</time>
      </trkpt>
      <trkpt lat="46.37707" lon="-0.35578">
        <ele>84.2</ele>
        <time>2012-03-13T15:24:24Z</time>
      </trkpt>
      <trkpt lat="46.37704" lon="-0.35583">
        <ele>83.7</ele>
        <time>2012-03-13T15:24:29Z</time>
      </trkpt>
      <trkpt lat="46.37703" lon="-0.35586">
        <ele>84.1</ele>
        <time>2012-03-13T15:24:32Z</time>
      </trkpt>
      <trkpt lat="46.37698" lon="-0.35601">
        <ele>86.8</ele>
        <time>2012-03-13T15:24:41Z</time>
      </trkpt>
      <trkpt lat="46.37698" lon="-0.35603">
        <ele>87.2</ele>
        <time>2012-03-13T15:24:42Z</time>
      </trkpt>
      <trkpt lat="46.37695" lon="-0.35618">
        <ele>84.1</ele>
        <time>2012-03-13T15:24:53Z</time>
      </trkpt>
      <trkpt lat="46.37694" lon="-0.35619">
        <ele>83.3</ele>
        <time>2012-03-13T15:24:54Z</time>
      </trkpt>
      <trkpt lat="46.3769" lon="-0.35628">
        <ele>84</ele>
        <time>2012-03-13T15:25:00Z</time>
      </trkpt>
      <trkpt lat="46.37689" lon="-0.35631">
        <ele>83.5</ele>
        <time>2012-03-13T15:25:02Z</time>
      </trkpt>
      <trkpt lat="46.37685" lon="-0.35641">
        <ele>84.3</ele>
        <time>2012-03-13T15:25:10Z</time>
      </trkpt>
      <trkpt lat="46.37686" lon="-0.35647">
        <ele>85.3</ele>
        <time>2012-03-13T15:25:12Z</time>
      </trkpt>
      <trkpt lat="46.37681" lon="-0.35658">
        <ele>86.4</ele>
        <time>2012-03-13T15:25:19Z</time>
      </trkpt>
      <trkpt lat="46.37679" lon="-0.35664">
        <ele>85.9</ele>
        <time>2012-03-13T15:25:24Z</time>
      </trkpt>
      <trkpt lat="46.3768" lon="-0.35673">
        <ele>85.3</ele>
        <time>2012-03-13T15:25:28Z</time>
      </trkpt>
      <trkpt lat="46.37681" lon="-0.35683">
        <ele>83.2</ele>
        <time>2012-03-13T15:25:33Z</time>
      </trkpt>
      <trkpt lat="46.37681" lon="-0.35688">
        <ele>82.6</ele>
        <time>2012-03-13T15:25:40Z</time>
      </trkpt>
      <trkpt lat="46.37681" lon="-0.35691">
        <ele>82.2</ele>
        <time>2012-03-13T15:25:42Z</time>
      </trkpt>
      <trkpt lat="46.37683" lon="-0.35703">
        <ele>84.9</ele>
        <time>2012-03-13T15:25:50Z</time>
      </trkpt>
      <trkpt lat="46.37682" lon="-0.35709">
        <ele>88.1</ele>
        <time>2012-03-13T15:25:52Z</time>
      </trkpt>
      <trkpt lat="46.37687" lon="-0.35725">
        <ele>90.3</ele>
        <time>2012-03-13T15:26:02Z</time>
      </trkpt>
      <trkpt lat="46.37692" lon="-0.35736">
        <ele>89</ele>
        <time>2012-03-13T15:26:11Z</time>
      </trkpt>
      <trkpt lat="46.37692" lon="-0.35737">
        <ele>88.6</ele>
        <time>2012-03-13T15:26:12Z</time>
      </trkpt>
      <trkpt lat="46.37694" lon="-0.3576">
        <ele>87.7</ele>
        <time>2012-03-13T15:26:23Z</time>
      </trkpt>
      <trkpt lat="46.37694" lon="-0.35762">
        <ele>87.6</ele>
        <time>2012-03-13T15:26:23Z</time>
      </trkpt>
      <trkpt lat="46.37686" lon="-0.3576">
        <ele>85.2</ele>
        <time>2012-03-13T15:26:31Z</time>
      </trkpt>
      <trkpt lat="46.37679" lon="-0.35764">
        <ele>82.1</ele>
        <time>2012-03-13T15:26:43Z</time>
      </trkpt>
      <trkpt lat="46.37675" lon="-0.35766">
        <ele>82</ele>
        <time>2012-03-13T15:26:46Z</time>
      </trkpt>
      <trkpt lat="46.37672" lon="-0.3577">
        <ele>81</ele>
        <time>2012-03-13T15:26:51Z</time>
      </trkpt>
      <trkpt lat="46.37665" lon="-0.35774">
        <ele>83.4</ele>
        <time>2012-03-13T15:26:56Z</time>
      </trkpt>
      <trkpt lat="46.3766" lon="-0.35777">
        <ele>85.1</ele>
        <time>2012-03-13T15:27:01Z</time>
      </trkpt>
      <trkpt lat="46.37654" lon="-0.35777">
        <ele>85.6</ele>
        <time>2012-03-13T15:27:06Z</time>
      </trkpt>
      <trkpt lat="46.37649" lon="-0.35779">
        <ele>84.2</ele>
        <time>2012-03-13T15:27:11Z</time>
      </trkpt>
      <trkpt lat="46.37644" lon="-0.35782">
        <ele>81.2</ele>
        <time>2012-03-13T15:27:17Z</time>
      </trkpt>
      <trkpt lat="46.37642" lon="-0.35784">
        <ele>80.9</ele>
        <time>2012-03-13T15:27:25Z</time>
      </trkpt>
      <trkpt lat="46.37641" lon="-0.35786">
        <ele>81.1</ele>
        <time>2012-03-13T15:27:27Z</time>
      </trkpt>
      <trkpt lat="46.37639" lon="-0.35789">
        <ele>81.8</ele>
        <time>2012-03-13T15:27:33Z</time>
      </trkpt>
      <trkpt lat="46.37639" lon="-0.3579">
        <ele>81.9</ele>
        <time>2012-03-13T15:27:39Z</time>
      </trkpt>
      <trkpt lat="46.37643" lon="-0.358">
        <ele>82.6</ele>
        <time>2012-03-13T15:27:43Z</time>
      </trkpt>
      <trkpt lat="46.37649" lon="-0.35812">
        <ele>83.3</ele>
        <time>2012-03-13T15:27:50Z</time>
      </trkpt>
      <trkpt lat="46.37649" lon="-0.35813">
        <ele>82.9</ele>
        <time>2012-03-13T15:27:51Z</time>
      </trkpt>
      <trkpt lat="46.37651" lon="-0.35828">
        <ele>82</ele>
        <time>2012-03-13T15:28:01Z</time>
      </trkpt>
      <trkpt lat="46.37652" lon="-0.35831">
        <ele>81.8</ele>
        <time>2012-03-13T15:28:01Z</time>
      </trkpt>
      <trkpt lat="46.37651" lon="-0.3584">
        <ele>86.5</ele>
        <time>2012-03-13T15:28:06Z</time>
      </trkpt>
      <trkpt lat="46.37656" lon="-0.3586">
        <ele>86</ele>
        <time>2012-03-13T15:28:17Z</time>
      </trkpt>
      <trkpt lat="46.37655" lon="-0.35861">
        <ele>85.7</ele>
        <time>2012-03-13T15:28:18Z</time>
      </trkpt>
      <trkpt lat="46.37656" lon="-0.35866">
        <ele>86.1</ele>
        <time>2012-03-13T15:28:21Z</time>
      </trkpt>
      <trkpt lat="46.37665" lon="-0.35866">
        <ele>83.3</ele>
        <time>2012-03-13T15:28:29Z</time>
      </trkpt>
      <trkpt lat="46.37668" lon="-0.35867">
        <ele>82.8</ele>
        <time>2012-03-13T15:28:34Z</time>
      </trkpt>
      <trkpt lat="46.37674" lon="-0.35868">
        <ele>79.9</ele>
        <time>2012-03-13T15:28:38Z</time>
      </trkpt>
      <trkpt lat="46.37679" lon="-0.35877">
        <ele>79.4</ele>
        <time>2012-03-13T15:28:46Z</time>
      </trkpt>
      <trkpt lat="46.37679" lon="-0.3588">
        <ele>80</ele>
        <time>2012-03-13T15:28:46Z</time>
      </trkpt>
      <trkpt lat="46.37679" lon="-0.35897">
        <ele>81.3</ele>
        <time>2012-03-13T15:29:00Z</time>
      </trkpt>
      <trkpt lat="46.37669" lon="-0.35916">
        <ele>79.1</ele>
        <time>2012-03-13T15:29:15Z</time>
      </trkpt>
      <trkpt lat="46.37669" lon="-0.3592">
        <ele>78.4</ele>
        <time>2012-03-13T15:29:15Z</time>
      </trkpt>
      <trkpt lat="46.37668" lon="-0.35922">
        <ele>78.1</ele>
        <time>2012-03-13T15:29:17Z</time>
      </trkpt>
      <trkpt lat="46.37664" lon="-0.35941">
        <ele>82.3</ele>
        <time>2012-03-13T15:29:27Z</time>
      </trkpt>
      <trkpt lat="46.37663" lon="-0.35943">
        <ele>82.3</ele>
        <time>2012-03-13T15:29:27Z</time>
      </trkpt>
      <trkpt lat="46.3766" lon="-0.35952">
        <ele>85.8</ele>
        <time>2012-03-13T15:29:35Z</time>
      </trkpt>
      <trkpt lat="46.37659" lon="-0.35954">
        <ele>86.7</ele>
        <time>2012-03-13T15:29:37Z</time>
      </trkpt>
      <trkpt lat="46.37655" lon="-0.35976">
        <ele>89.7</ele>
        <time>2012-03-13T15:29:47Z</time>
      </trkpt>
      <trkpt lat="46.37655" lon="-0.35978">
        <ele>90.8</ele>
        <time>2012-03-13T15:29:47Z</time>
      </trkpt>
      <trkpt lat="46.37652" lon="-0.35995">
        <ele>94.7</ele>
        <time>2012-03-13T15:29:57Z</time>
      </trkpt>
      <trkpt lat="46.37652" lon="-0.35996">
        <ele>94.5</ele>
        <time>2012-03-13T15:29:58Z</time>
      </trkpt>
      <trkpt lat="46.37654" lon="-0.36006">
        <ele>91.6</ele>
        <time>2012-03-13T15:30:07Z</time>
      </trkpt>
      <trkpt lat="46.37654" lon="-0.36007">
        <ele>90.9</ele>
        <time>2012-03-13T15:30:08Z</time>
      </trkpt>
      <trkpt lat="46.37651" lon="-0.36015">
        <ele>88.2</ele>
        <time>2012-03-13T15:30:15Z</time>
      </trkpt>
      <trkpt lat="46.37649" lon="-0.36017">
        <ele>87.1</ele>
        <time>2012-03-13T15:30:17Z</time>
      </trkpt>
      <trkpt lat="46.37641" lon="-0.36011">
        <ele>84.5</ele>
        <time>2012-03-13T15:30:27Z</time>
      </trkpt>
      <trkpt lat="46.37642" lon="-0.3601">
        <ele>84</ele>
        <time>2012-03-13T15:30:28Z</time>
      </trkpt>
      <trkpt lat="46.37641" lon="-0.36009">
        <ele>83.6</ele>
        <time>2012-03-13T15:30:34Z</time>
      </trkpt>
      <trkpt lat="46.3764" lon="-0.36009">
        <ele>82.7</ele>
        <time>2012-03-13T15:30:38Z</time>
      </trkpt>
      <trkpt lat="46.37639" lon="-0.36009">
        <ele>82.5</ele>
        <time>2012-03-13T15:30:46Z</time>
      </trkpt>
      <trkpt lat="46.37639" lon="-0.36009">
        <ele>82.5</ele>
        <time>2012-03-13T15:30:46Z</time>
      </trkpt>
      <trkpt lat="46.37639" lon="-0.36009">
        <ele>82.4</ele>
        <time>2012-03-13T15:30:58Z</time>
      </trkpt>
      <trkpt lat="46.37639" lon="-0.36009">
        <ele>82.4</ele>
        <time>2012-03-13T15:30:59Z</time>
      </trkpt>
      <trkpt lat="46.37639" lon="-0.36009">
        <ele>82.3</ele>
        <time>2012-03-13T15:31:05Z</time>
      </trkpt>
      <trkpt lat="46.3763" lon="-0.35999">
        <ele>81.4</ele>
        <time>2012-03-13T15:31:07Z</time>
      </trkpt>
      <trkpt lat="46.37599" lon="-0.35969">
        <ele>74.4</ele>
        <time>2012-03-13T15:31:17Z</time>
      </trkpt>
      <trkpt lat="46.37599" lon="-0.35967">
        <ele>74.5</ele>
        <time>2012-03-13T15:31:17Z</time>
      </trkpt>
      <trkpt lat="46.37592" lon="-0.35963">
        <ele>71</ele>
        <time>2012-03-13T15:31:28Z</time>
      </trkpt>
      <trkpt lat="46.37586" lon="-0.3596">
        <ele>70</ele>
        <time>2012-03-13T15:31:33Z</time>
      </trkpt>
      <trkpt lat="46.37578" lon="-0.35957">
        <ele>68.8</ele>
        <time>2012-03-13T15:31:42Z</time>
      </trkpt>
      <trkpt lat="46.37577" lon="-0.35959">
        <ele>67.8</ele>
        <time>2012-03-13T15:31:48Z</time>
      </trkpt>
      <trkpt lat="46.37576" lon="-0.35958">
        <ele>67.8</ele>
        <time>2012-03-13T15:31:51Z</time>
      </trkpt>
      <trkpt lat="46.37576" lon="-0.35958">
        <ele>67.8</ele>
        <time>2012-03-13T15:31:56Z</time>
      </trkpt>
      <trkpt lat="46.37575" lon="-0.35957">
        <ele>67.8</ele>
        <time>2012-03-13T15:32:01Z</time>
      </trkpt>
      <trkpt lat="46.37575" lon="-0.35957">
        <ele>67.9</ele>
        <time>2012-03-13T15:32:06Z</time>
      </trkpt>
      <trkpt lat="46.37569" lon="-0.35955">
        <ele>68</ele>
        <time>2012-03-13T15:32:11Z</time>
      </trkpt>
      <trkpt lat="46.37566" lon="-0.35957">
        <ele>68</ele>
        <time>2012-03-13T15:32:18Z</time>
      </trkpt>
      <trkpt lat="46.37549" lon="-0.35959">
        <ele>66.4</ele>
        <time>2012-03-13T15:32:23Z</time>
      </trkpt>
      <trkpt lat="46.37532" lon="-0.35941">
        <ele>64.4</ele>
        <time>2012-03-13T15:32:31Z</time>
      </trkpt>
      <trkpt lat="46.3753" lon="-0.35938">
        <ele>63.9</ele>
        <time>2012-03-13T15:32:31Z</time>
      </trkpt>
      <trkpt lat="46.37507" lon="-0.35908">
        <ele>61.2</ele>
        <time>2012-03-13T15:32:41Z</time>
      </trkpt>
      <trkpt lat="46.37503" lon="-0.35916">
        <ele>68.2</ele>
        <time>2012-03-13T15:32:52Z</time>
      </trkpt>
      <trkpt lat="46.37502" lon="-0.35917">
        <ele>69.4</ele>
        <time>2012-03-13T15:32:53Z</time>
      </trkpt>
      <trkpt lat="46.37498" lon="-0.35924">
        <ele>72.9</ele>
        <time>2012-03-13T15:33:01Z</time>
      </trkpt>
      <trkpt lat="46.37489" lon="-0.35938">
        <ele>73.8</ele>
        <time>2012-03-13T15:33:13Z</time>
      </trkpt>
      <trkpt lat="46.37488" lon="-0.3594">
        <ele>73.6</ele>
        <time>2012-03-13T15:33:13Z</time>
      </trkpt>
      <trkpt lat="46.37485" lon="-0.35946">
        <ele>74.5</ele>
        <time>2012-03-13T15:33:18Z</time>
      </trkpt>
      <trkpt lat="46.37479" lon="-0.35954">
        <ele>75</ele>
        <time>2012-03-13T15:33:25Z</time>
      </trkpt>
      <trkpt lat="46.37477" lon="-0.35955">
        <ele>75.9</ele>
        <time>2012-03-13T15:33:27Z</time>
      </trkpt>
      <trkpt lat="46.37471" lon="-0.35962">
        <ele>75.8</ele>
        <time>2012-03-13T15:33:33Z</time>
      </trkpt>
      <trkpt lat="46.37463" lon="-0.35967">
        <ele>75.5</ele>
        <time>2012-03-13T15:33:41Z</time>
      </trkpt>
      <trkpt lat="46.37459" lon="-0.35969">
        <ele>76.5</ele>
        <time>2012-03-13T15:33:42Z</time>
      </trkpt>
      <trkpt lat="46.37449" lon="-0.35967">
        <ele>79.6</ele>
        <time>2012-03-13T15:33:49Z</time>
      </trkpt>
      <trkpt lat="46.37444" lon="-0.35967">
        <ele>80.4</ele>
        <time>2012-03-13T15:33:53Z</time>
      </trkpt>
      <trkpt lat="46.37435" lon="-0.35958">
        <ele>81.9</ele>
        <time>2012-03-13T15:34:00Z</time>
      </trkpt>
      <trkpt lat="46.37434" lon="-0.35955">
        <ele>82.5</ele>
        <time>2012-03-13T15:34:01Z</time>
      </trkpt>
      <trkpt lat="46.37424" lon="-0.35942">
        <ele>82</ele>
        <time>2012-03-13T15:34:12Z</time>
      </trkpt>
      <trkpt lat="46.37423" lon="-0.35941">
        <ele>81.6</ele>
        <time>2012-03-13T15:34:13Z</time>
      </trkpt>
      <trkpt lat="46.37415" lon="-0.35935">
        <ele>81.8</ele>
        <time>2012-03-13T15:34:21Z</time>
      </trkpt>
      <trkpt lat="46.37415" lon="-0.35934">
        <ele>81.5</ele>
        <time>2012-03-13T15:34:22Z</time>
      </trkpt>
      <trkpt lat="46.37406" lon="-0.35923">
        <ele>80.8</ele>
        <time>2012-03-13T15:34:32Z</time>
      </trkpt>
      <trkpt lat="46.37398" lon="-0.35919">
        <ele>80.5</ele>
        <time>2012-03-13T15:34:41Z</time>
      </trkpt>
      <trkpt lat="46.37386" lon="-0.35906">
        <ele>80.7</ele>
        <time>2012-03-13T15:34:54Z</time>
      </trkpt>
      <trkpt lat="46.37383" lon="-0.35906">
        <ele>81</ele>
        <time>2012-03-13T15:34:55Z</time>
      </trkpt>
      <trkpt lat="46.37379" lon="-0.35906">
        <ele>81.3</ele>
        <time>2012-03-13T15:34:59Z</time>
      </trkpt>
      <trkpt lat="46.37374" lon="-0.35897">
        <ele>81.4</ele>
        <time>2012-03-13T15:35:03Z</time>
      </trkpt>
      <trkpt lat="46.3737" lon="-0.35895">
        <ele>78.9</ele>
        <time>2012-03-13T15:35:07Z</time>
      </trkpt>
      <trkpt lat="46.37362" lon="-0.35887">
        <ele>77.2</ele>
        <time>2012-03-13T15:35:17Z</time>
      </trkpt>
      <trkpt lat="46.37357" lon="-0.35885">
        <ele>77.2</ele>
        <time>2012-03-13T15:35:22Z</time>
      </trkpt>
      <trkpt lat="46.37352" lon="-0.35879">
        <ele>76.5</ele>
        <time>2012-03-13T15:35:31Z</time>
      </trkpt>
      <trkpt lat="46.37348" lon="-0.35879">
        <ele>76.1</ele>
        <time>2012-03-13T15:35:31Z</time>
      </trkpt>
      <trkpt lat="46.3734" lon="-0.35872">
        <ele>74</ele>
        <time>2012-03-13T15:35:41Z</time>
      </trkpt>
      <trkpt lat="46.37339" lon="-0.35872">
        <ele>74.1</ele>
        <time>2012-03-13T15:35:42Z</time>
      </trkpt>
      <trkpt lat="46.37329" lon="-0.3586">
        <ele>73.4</ele>
        <time>2012-03-13T15:35:51Z</time>
      </trkpt>
      <trkpt lat="46.37318" lon="-0.3585">
        <ele>73.9</ele>
        <time>2012-03-13T15:36:03Z</time>
      </trkpt>
      <trkpt lat="46.37316" lon="-0.3585">
        <ele>74.1</ele>
        <time>2012-03-13T15:36:03Z</time>
      </trkpt>
      <trkpt lat="46.37311" lon="-0.35843">
        <ele>75.7</ele>
        <time>2012-03-13T15:36:09Z</time>
      </trkpt>
      <trkpt lat="46.37308" lon="-0.35839">
        <ele>74.9</ele>
        <time>2012-03-13T15:36:15Z</time>
      </trkpt>
      <trkpt lat="46.37304" lon="-0.35839">
        <ele>75.6</ele>
        <time>2012-03-13T15:36:16Z</time>
      </trkpt>
      <trkpt lat="46.37292" lon="-0.35834">
        <ele>74</ele>
        <time>2012-03-13T15:36:29Z</time>
      </trkpt>
      <trkpt lat="46.37288" lon="-0.35833">
        <ele>73.7</ele>
        <time>2012-03-13T15:36:32Z</time>
      </trkpt>
      <trkpt lat="46.37279" lon="-0.35825">
        <ele>76.7</ele>
        <time>2012-03-13T15:36:41Z</time>
      </trkpt>
      <trkpt lat="46.37267" lon="-0.35812">
        <ele>81.1</ele>
        <time>2012-03-13T15:36:54Z</time>
      </trkpt>
      <trkpt lat="46.37266" lon="-0.35812">
        <ele>81</ele>
        <time>2012-03-13T15:36:54Z</time>
      </trkpt>
      <trkpt lat="46.37263" lon="-0.35812">
        <ele>81.6</ele>
        <time>2012-03-13T15:36:59Z</time>
      </trkpt>
      <trkpt lat="46.37258" lon="-0.35805">
        <ele>81.4</ele>
        <time>2012-03-13T15:37:04Z</time>
      </trkpt>
      <trkpt lat="46.3725" lon="-0.35799">
        <ele>80.5</ele>
        <time>2012-03-13T15:37:10Z</time>
      </trkpt>
      <trkpt lat="46.37249" lon="-0.35798">
        <ele>80.4</ele>
        <time>2012-03-13T15:37:11Z</time>
      </trkpt>
      <trkpt lat="46.37236" lon="-0.35784">
        <ele>80.8</ele>
        <time>2012-03-13T15:37:25Z</time>
      </trkpt>
      <trkpt lat="46.37233" lon="-0.35785">
        <ele>81.1</ele>
        <time>2012-03-13T15:37:25Z</time>
      </trkpt>
      <trkpt lat="46.37232" lon="-0.35784">
        <ele>80.5</ele>
        <time>2012-03-13T15:37:27Z</time>
      </trkpt>
      <trkpt lat="46.37229" lon="-0.35777">
        <ele>80</ele>
        <time>2012-03-13T15:37:33Z</time>
      </trkpt>
      <trkpt lat="46.37225" lon="-0.35777">
        <ele>81</ele>
        <time>2012-03-13T15:37:37Z</time>
      </trkpt>
      <trkpt lat="46.37216" lon="-0.35772">
        <ele>79.4</ele>
        <time>2012-03-13T15:37:45Z</time>
      </trkpt>
      <trkpt lat="46.37213" lon="-0.35771">
        <ele>79.3</ele>
        <time>2012-03-13T15:37:46Z</time>
      </trkpt>
      <trkpt lat="46.37204" lon="-0.35765">
        <ele>77.9</ele>
        <time>2012-03-13T15:37:56Z</time>
      </trkpt>
      <trkpt lat="46.37203" lon="-0.35764">
        <ele>77</ele>
        <time>2012-03-13T15:37:56Z</time>
      </trkpt>
      <trkpt lat="46.37193" lon="-0.35754">
        <ele>74.4</ele>
        <time>2012-03-13T15:38:08Z</time>
      </trkpt>
      <trkpt lat="46.37191" lon="-0.35753">
        <ele>74.1</ele>
        <time>2012-03-13T15:38:09Z</time>
      </trkpt>
      <trkpt lat="46.37188" lon="-0.3575">
        <ele>73.5</ele>
        <time>2012-03-13T15:38:14Z</time>
      </trkpt>
      <trkpt lat="46.37185" lon="-0.35746">
        <ele>73.4</ele>
        <time>2012-03-13T15:38:18Z</time>
      </trkpt>
      <trkpt lat="46.37176" lon="-0.35737">
        <ele>74.6</ele>
        <time>2012-03-13T15:38:25Z</time>
      </trkpt>
      <trkpt lat="46.37175" lon="-0.35735">
        <ele>75</ele>
        <time>2012-03-13T15:38:27Z</time>
      </trkpt>
      <trkpt lat="46.37168" lon="-0.3573">
        <ele>75</ele>
        <time>2012-03-13T15:38:34Z</time>
      </trkpt>
      <trkpt lat="46.37163" lon="-0.35732">
        <ele>77.7</ele>
        <time>2012-03-13T15:38:39Z</time>
      </trkpt>
      <trkpt lat="46.3716" lon="-0.35731">
        <ele>78.7</ele>
        <time>2012-03-13T15:38:42Z</time>
      </trkpt>
      <trkpt lat="46.37153" lon="-0.35738">
        <ele>80.3</ele>
        <time>2012-03-13T15:38:50Z</time>
      </trkpt>
      <trkpt lat="46.37148" lon="-0.35741">
        <ele>82.7</ele>
        <time>2012-03-13T15:38:51Z</time>
      </trkpt>
      <trkpt lat="46.37137" lon="-0.35751">
        <ele>83.5</ele>
        <time>2012-03-13T15:39:01Z</time>
      </trkpt>
      <trkpt lat="46.37136" lon="-0.35752">
        <ele>83.6</ele>
        <time>2012-03-13T15:39:02Z</time>
      </trkpt>
      <trkpt lat="46.3713" lon="-0.35754">
        <ele>77.9</ele>
        <time>2012-03-13T15:39:14Z</time>
      </trkpt>
      <trkpt lat="46.37127" lon="-0.35758">
        <ele>76</ele>
        <time>2012-03-13T15:39:18Z</time>
      </trkpt>
      <trkpt lat="46.37121" lon="-0.35761">
        <ele>76.8</ele>
        <time>2012-03-13T15:39:25Z</time>
      </trkpt>
      <trkpt lat="46.37116" lon="-0.35766">
        <ele>76.8</ele>
        <time>2012-03-13T15:39:28Z</time>
      </trkpt>
      <trkpt lat="46.37109" lon="-0.35772">
        <ele>75.8</ele>
        <time>2012-03-13T15:39:37Z</time>
      </trkpt>
      <trkpt lat="46.37108" lon="-0.35772">
        <ele>75.7</ele>
        <time>2012-03-13T15:39:38Z</time>
      </trkpt>
      <trkpt lat="46.37104" lon="-0.35776">
        <ele>73.2</ele>
        <time>2012-03-13T15:39:44Z</time>
      </trkpt>
      <trkpt lat="46.37099" lon="-0.35781">
        <ele>71.1</ele>
        <time>2012-03-13T15:39:48Z</time>
      </trkpt>
      <trkpt lat="46.37093" lon="-0.35787">
        <ele>72.5</ele>
        <time>2012-03-13T15:39:56Z</time>
      </trkpt>
      <trkpt lat="46.37092" lon="-0.35788">
        <ele>72.2</ele>
        <time>2012-03-13T15:39:56Z</time>
      </trkpt>
      <trkpt lat="46.37077" lon="-0.358">
        <ele>73.4</ele>
        <time>2012-03-13T15:40:08Z</time>
      </trkpt>
      <trkpt lat="46.37078" lon="-0.35801">
        <ele>72.4</ele>
        <time>2012-03-13T15:40:09Z</time>
      </trkpt>
      <trkpt lat="46.37068" lon="-0.35806">
        <ele>76.3</ele>
        <time>2012-03-13T15:40:16Z</time>
      </trkpt>
      <trkpt lat="46.37064" lon="-0.35808">
        <ele>78.8</ele>
        <time>2012-03-13T15:40:16Z</time>
      </trkpt>
      <trkpt lat="46.37052" lon="-0.35816">
        <ele>81.1</ele>
        <time>2012-03-13T15:40:28Z</time>
      </trkpt>
      <trkpt lat="46.37049" lon="-0.35818">
        <ele>80.9</ele>
        <time>2012-03-13T15:40:33Z</time>
      </trkpt>
      <trkpt lat="46.37043" lon="-0.35822">
        <ele>81.1</ele>
        <time>2012-03-13T15:40:41Z</time>
      </trkpt>
      <trkpt lat="46.37041" lon="-0.35823">
        <ele>81.6</ele>
        <time>2012-03-13T15:40:41Z</time>
      </trkpt>
      <trkpt lat="46.37028" lon="-0.35831">
        <ele>79.6</ele>
        <time>2012-03-13T15:40:53Z</time>
      </trkpt>
      <trkpt lat="46.37028" lon="-0.35832">
        <ele>78.9</ele>
        <time>2012-03-13T15:40:54Z</time>
      </trkpt>
      <trkpt lat="46.37025" lon="-0.35834">
        <ele>75.9</ele>
        <time>2012-03-13T15:40:59Z</time>
      </trkpt>
      <trkpt lat="46.37022" lon="-0.35836">
        <ele>74.3</ele>
        <time>2012-03-13T15:41:03Z</time>
      </trkpt>
      <trkpt lat="46.37015" lon="-0.35839">
        <ele>74</ele>
        <time>2012-03-13T15:41:07Z</time>
      </trkpt>
      <trkpt lat="46.37002" lon="-0.35848">
        <ele>77.1</ele>
        <time>2012-03-13T15:41:19Z</time>
      </trkpt>
      <trkpt lat="46.37" lon="-0.35849">
        <ele>77.4</ele>
        <time>2012-03-13T15:41:20Z</time>
      </trkpt>
      <trkpt lat="46.36998" lon="-0.3585">
        <ele>76.5</ele>
        <time>2012-03-13T15:41:23Z</time>
      </trkpt>
      <trkpt lat="46.36995" lon="-0.35852">
        <ele>76.3</ele>
        <time>2012-03-13T15:41:28Z</time>
      </trkpt>
      <trkpt lat="46.36989" lon="-0.35857">
        <ele>73.5</ele>
        <time>2012-03-13T15:41:32Z</time>
      </trkpt>
      <trkpt lat="46.3698" lon="-0.35861">
        <ele>73.4</ele>
        <time>2012-03-13T15:41:41Z</time>
      </trkpt>
      <trkpt lat="46.36978" lon="-0.35862">
        <ele>74.7</ele>
        <time>2012-03-13T15:41:42Z</time>
      </trkpt>
      <trkpt lat="46.36968" lon="-0.35867">
        <ele>73.4</ele>
        <time>2012-03-13T15:41:53Z</time>
      </trkpt>
      <trkpt lat="46.36959" lon="-0.3587">
        <ele>73.5</ele>
        <time>2012-03-13T15:42:00Z</time>
      </trkpt>
      <trkpt lat="46.36958" lon="-0.35871">
        <ele>73.4</ele>
        <time>2012-03-13T15:42:01Z</time>
      </trkpt>
      <trkpt lat="46.36951" lon="-0.35877">
        <ele>74.6</ele>
        <time>2012-03-13T15:42:10Z</time>
      </trkpt>
      <trkpt lat="46.36951" lon="-0.35878">
        <ele>74.7</ele>
        <time>2012-03-13T15:42:16Z</time>
      </trkpt>
      <trkpt lat="46.36951" lon="-0.35879">
        <ele>75</ele>
        <time>2012-03-13T15:42:21Z</time>
      </trkpt>
      <trkpt lat="46.36951" lon="-0.35879">
        <ele>75.1</ele>
        <time>2012-03-13T15:42:26Z</time>
      </trkpt>
      <trkpt lat="46.36951" lon="-0.35879">
        <ele>75.2</ele>
        <time>2012-03-13T15:42:31Z</time>
      </trkpt>
      <trkpt lat="46.36951" lon="-0.35879">
        <ele>75.3</ele>
        <time>2012-03-13T15:42:36Z</time>
      </trkpt>
      <trkpt lat="46.36951" lon="-0.35879">
        <ele>75.3</ele>
        <time>2012-03-13T15:42:41Z</time>
      </trkpt>
      <trkpt lat="46.36951" lon="-0.35879">
        <ele>75.3</ele>
        <time>2012-03-13T15:42:46Z</time>
      </trkpt>
      <trkpt lat="46.36951" lon="-0.35879">
        <ele>75.3</ele>
        <time>2012-03-13T15:42:51Z</time>
      </trkpt>
      <trkpt lat="46.36951" lon="-0.35879">
        <ele>75.4</ele>
        <time>2012-03-13T15:42:56Z</time>
      </trkpt>
      <trkpt lat="46.36951" lon="-0.35879">
        <ele>75.4</ele>
        <time>2012-03-13T15:43:01Z</time>
      </trkpt>
      <trkpt lat="46.36951" lon="-0.35879">
        <ele>75.4</ele>
        <time>2012-03-13T15:43:06Z</time>
      </trkpt>
      <trkpt lat="46.36951" lon="-0.35879">
        <ele>75.4</ele>
        <time>2012-03-13T15:43:11Z</time>
      </trkpt>
      <trkpt lat="46.36951" lon="-0.35879">
        <ele>75.4</ele>
        <time>2012-03-13T15:43:16Z</time>
      </trkpt>
      <trkpt lat="46.36951" lon="-0.35879">
        <ele>75.4</ele>
        <time>2012-03-13T15:43:21Z</time>
      </trkpt>
      <trkpt lat="46.36951" lon="-0.35879">
        <ele>75.4</ele>
        <time>2012-03-13T15:43:26Z</time>
      </trkpt>
      <trkpt lat="46.36953" lon="-0.3588">
        <ele>76.4</ele>
        <time>2012-03-13T15:43:31Z</time>
      </trkpt>
      <trkpt lat="46.36952" lon="-0.3588">
        <ele>76.8</ele>
        <time>2012-03-13T15:43:36Z</time>
      </trkpt>
      <trkpt lat="46.36952" lon="-0.3588">
        <ele>77.2</ele>
        <time>2012-03-13T15:43:41Z</time>
      </trkpt>
      <trkpt lat="46.36952" lon="-0.3588">
        <ele>76.5</ele>
        <time>2012-03-13T15:43:50Z</time>
      </trkpt>
      <trkpt lat="46.36951" lon="-0.3588">
        <ele>76.3</ele>
        <time>2012-03-13T15:43:51Z</time>
      </trkpt>
      <trkpt lat="46.36938" lon="-0.35885">
        <ele>78.8</ele>
        <time>2012-03-13T15:44:02Z</time>
      </trkpt>
      <trkpt lat="46.36937" lon="-0.35885">
        <ele>79.5</ele>
        <time>2012-03-13T15:44:03Z</time>
      </trkpt>
      <trkpt lat="46.36932" lon="-0.35888">
        <ele>80.2</ele>
        <time>2012-03-13T15:44:07Z</time>
      </trkpt>
      <trkpt lat="46.36924" lon="-0.35895">
        <ele>78.4</ele>
        <time>2012-03-13T15:44:17Z</time>
      </trkpt>
      <trkpt lat="46.36923" lon="-0.35895">
        <ele>78.7</ele>
        <time>2012-03-13T15:44:17Z</time>
      </trkpt>
      <trkpt lat="46.36917" lon="-0.35901">
        <ele>77.5</ele>
        <time>2012-03-13T15:44:26Z</time>
      </trkpt>
      <trkpt lat="46.36916" lon="-0.35902">
        <ele>77.3</ele>
        <time>2012-03-13T15:44:27Z</time>
      </trkpt>
      <trkpt lat="46.36911" lon="-0.35908">
        <ele>75.6</ele>
        <time>2012-03-13T15:44:34Z</time>
      </trkpt>
      <trkpt lat="46.36908" lon="-0.35909">
        <ele>75.2</ele>
        <time>2012-03-13T15:44:38Z</time>
      </trkpt>
      <trkpt lat="46.36904" lon="-0.35914">
        <ele>76.8</ele>
        <time>2012-03-13T15:44:42Z</time>
      </trkpt>
      <trkpt lat="46.36897" lon="-0.3592">
        <ele>76.6</ele>
        <time>2012-03-13T15:44:51Z</time>
      </trkpt>
      <trkpt lat="46.36896" lon="-0.35921">
        <ele>76.7</ele>
        <time>2012-03-13T15:44:52Z</time>
      </trkpt>
      <trkpt lat="46.36888" lon="-0.35927">
        <ele>76.6</ele>
        <time>2012-03-13T15:45:03Z</time>
      </trkpt>
      <trkpt lat="46.36886" lon="-0.35928">
        <ele>76.7</ele>
        <time>2012-03-13T15:45:03Z</time>
      </trkpt>
      <trkpt lat="46.36882" lon="-0.35932">
        <ele>75.9</ele>
        <time>2012-03-13T15:45:08Z</time>
      </trkpt>
      <trkpt lat="46.36876" lon="-0.35937">
        <ele>77.3</ele>
        <time>2012-03-13T15:45:14Z</time>
      </trkpt>
      <trkpt lat="46.36873" lon="-0.3594">
        <ele>78.3</ele>
        <time>2012-03-13T15:45:16Z</time>
      </trkpt>
      <trkpt lat="46.3686" lon="-0.35945">
        <ele>82.4</ele>
        <time>2012-03-13T15:45:28Z</time>
      </trkpt>
      <trkpt lat="46.3686" lon="-0.35945">
        <ele>82.7</ele>
        <time>2012-03-13T15:45:29Z</time>
      </trkpt>
      <trkpt lat="46.36856" lon="-0.35951">
        <ele>80.9</ele>
        <time>2012-03-13T15:45:35Z</time>
      </trkpt>
      <trkpt lat="46.36856" lon="-0.35951">
        <ele>81</ele>
        <time>2012-03-13T15:45:36Z</time>
      </trkpt>
      <trkpt lat="46.36851" lon="-0.35959">
        <ele>80.5</ele>
        <time>2012-03-13T15:45:46Z</time>
      </trkpt>
      <trkpt lat="46.36851" lon="-0.35961">
        <ele>80.2</ele>
        <time>2012-03-13T15:45:46Z</time>
      </trkpt>
      <trkpt lat="46.36842" lon="-0.35982">
        <ele>78.3</ele>
        <time>2012-03-13T15:46:00Z</time>
      </trkpt>
      <trkpt lat="46.36841" lon="-0.35984">
        <ele>78.2</ele>
        <time>2012-03-13T15:46:00Z</time>
      </trkpt>
      <trkpt lat="46.3684" lon="-0.35986">
        <ele>77.2</ele>
        <time>2012-03-13T15:46:02Z</time>
      </trkpt>
      <trkpt lat="46.36835" lon="-0.36">
        <ele>77.6</ele>
        <time>2012-03-13T15:46:09Z</time>
      </trkpt>
      <trkpt lat="46.3683" lon="-0.36005">
        <ele>78.2</ele>
        <time>2012-03-13T15:46:13Z</time>
      </trkpt>
      <trkpt lat="46.36824" lon="-0.36015">
        <ele>80.4</ele>
        <time>2012-03-13T15:46:20Z</time>
      </trkpt>
      <trkpt lat="46.36822" lon="-0.36017">
        <ele>80.6</ele>
        <time>2012-03-13T15:46:21Z</time>
      </trkpt>
      <trkpt lat="46.36815" lon="-0.36032">
        <ele>84.3</ele>
        <time>2012-03-13T15:46:34Z</time>
      </trkpt>
      <trkpt lat="46.36814" lon="-0.36034">
        <ele>83.2</ele>
        <time>2012-03-13T15:46:35Z</time>
      </trkpt>
      <trkpt lat="46.36811" lon="-0.36039">
        <ele>82.8</ele>
        <time>2012-03-13T15:46:39Z</time>
      </trkpt>
      <trkpt lat="46.36808" lon="-0.36045">
        <ele>83.8</ele>
        <time>2012-03-13T15:46:43Z</time>
      </trkpt>
      <trkpt lat="46.36803" lon="-0.36055">
        <ele>85</ele>
        <time>2012-03-13T15:46:51Z</time>
      </trkpt>
      <trkpt lat="46.36802" lon="-0.36056">
        <ele>85</ele>
        <time>2012-03-13T15:46:51Z</time>
      </trkpt>
      <trkpt lat="46.36796" lon="-0.36072">
        <ele>85.3</ele>
        <time>2012-03-13T15:47:03Z</time>
      </trkpt>
      <trkpt lat="46.36795" lon="-0.36074">
        <ele>84.9</ele>
        <time>2012-03-13T15:47:04Z</time>
      </trkpt>
      <trkpt lat="46.36793" lon="-0.36077">
        <ele>84.6</ele>
        <time>2012-03-13T15:47:07Z</time>
      </trkpt>
      <trkpt lat="46.36789" lon="-0.36086">
        <ele>83.7</ele>
        <time>2012-03-13T15:47:14Z</time>
      </trkpt>
      <trkpt lat="46.36784" lon="-0.36094">
        <ele>85.4</ele>
        <time>2012-03-13T15:47:19Z</time>
      </trkpt>
      <trkpt lat="46.36784" lon="-0.36096">
        <ele>85.3</ele>
        <time>2012-03-13T15:47:21Z</time>
      </trkpt>
      <trkpt lat="46.36776" lon="-0.36113">
        <ele>84</ele>
        <time>2012-03-13T15:47:33Z</time>
      </trkpt>
      <trkpt lat="46.36776" lon="-0.36114">
        <ele>83.2</ele>
        <time>2012-03-13T15:47:33Z</time>
      </trkpt>
      <trkpt lat="46.3677" lon="-0.36127">
        <ele>83.3</ele>
        <time>2012-03-13T15:47:41Z</time>
      </trkpt>
      <trkpt lat="46.36765" lon="-0.3614">
        <ele>80.8</ele>
        <time>2012-03-13T15:47:51Z</time>
      </trkpt>
      <trkpt lat="46.36764" lon="-0.36142">
        <ele>80.5</ele>
        <time>2012-03-13T15:47:52Z</time>
      </trkpt>
      <trkpt lat="46.36759" lon="-0.36159">
        <ele>78.6</ele>
        <time>2012-03-13T15:48:03Z</time>
      </trkpt>
      <trkpt lat="46.36759" lon="-0.3616">
        <ele>78.7</ele>
        <time>2012-03-13T15:48:04Z</time>
      </trkpt>
      <trkpt lat="46.36758" lon="-0.36164">
        <ele>78.4</ele>
        <time>2012-03-13T15:48:07Z</time>
      </trkpt>
      <trkpt lat="46.36755" lon="-0.36171">
        <ele>77.9</ele>
        <time>2012-03-13T15:48:14Z</time>
      </trkpt>
      <trkpt lat="46.36752" lon="-0.36179">
        <ele>77.3</ele>
        <time>2012-03-13T15:48:19Z</time>
      </trkpt>
      <trkpt lat="46.3675" lon="-0.36187">
        <ele>77.6</ele>
        <time>2012-03-13T15:48:24Z</time>
      </trkpt>
      <trkpt lat="46.36747" lon="-0.36196">
        <ele>77.9</ele>
        <time>2012-03-13T15:48:28Z</time>
      </trkpt>
      <trkpt lat="46.36744" lon="-0.36201">
        <ele>78.4</ele>
        <time>2012-03-13T15:48:33Z</time>
      </trkpt>
      <trkpt lat="46.36738" lon="-0.3621">
        <ele>81.2</ele>
        <time>2012-03-13T15:48:39Z</time>
      </trkpt>
      <trkpt lat="46.36735" lon="-0.3622">
        <ele>81</ele>
        <time>2012-03-13T15:48:44Z</time>
      </trkpt>
      <trkpt lat="46.36734" lon="-0.36225">
        <ele>80.5</ele>
        <time>2012-03-13T15:48:48Z</time>
      </trkpt>
      <trkpt lat="46.36731" lon="-0.36231">
        <ele>78.2</ele>
        <time>2012-03-13T15:48:53Z</time>
      </trkpt>
      <trkpt lat="46.36728" lon="-0.3624">
        <ele>76.9</ele>
        <time>2012-03-13T15:49:00Z</time>
      </trkpt>
      <trkpt lat="46.36727" lon="-0.36242">
        <ele>77</ele>
        <time>2012-03-13T15:49:01Z</time>
      </trkpt>
      <trkpt lat="46.36724" lon="-0.36254">
        <ele>76</ele>
        <time>2012-03-13T15:49:10Z</time>
      </trkpt>
      <trkpt lat="46.36723" lon="-0.36255">
        <ele>76.3</ele>
        <time>2012-03-13T15:49:11Z</time>
      </trkpt>
      <trkpt lat="46.3672" lon="-0.36263">
        <ele>76.2</ele>
        <time>2012-03-13T15:49:16Z</time>
      </trkpt>
      <trkpt lat="46.36718" lon="-0.3627">
        <ele>77.3</ele>
        <time>2012-03-13T15:49:21Z</time>
      </trkpt>
      <trkpt lat="46.36715" lon="-0.3628">
        <ele>79.2</ele>
        <time>2012-03-13T15:49:29Z</time>
      </trkpt>
      <trkpt lat="46.3671" lon="-0.36291">
        <ele>81.5</ele>
        <time>2012-03-13T15:49:33Z</time>
      </trkpt>
      <trkpt lat="46.36706" lon="-0.36302">
        <ele>79.6</ele>
        <time>2012-03-13T15:49:40Z</time>
      </trkpt>
      <trkpt lat="46.36706" lon="-0.36304">
        <ele>79.8</ele>
        <time>2012-03-13T15:49:41Z</time>
      </trkpt>
      <trkpt lat="46.36699" lon="-0.36318">
        <ele>76.5</ele>
        <time>2012-03-13T15:49:51Z</time>
      </trkpt>
      <trkpt lat="46.36699" lon="-0.36319">
        <ele>75.9</ele>
        <time>2012-03-13T15:49:51Z</time>
      </trkpt>
      <trkpt lat="46.36693" lon="-0.36334">
        <ele>75.5</ele>
        <time>2012-03-13T15:50:03Z</time>
      </trkpt>
      <trkpt lat="46.36693" lon="-0.36336">
        <ele>75.6</ele>
        <time>2012-03-13T15:50:03Z</time>
      </trkpt>
      <trkpt lat="46.3669" lon="-0.36342">
        <ele>75.7</ele>
        <time>2012-03-13T15:50:07Z</time>
      </trkpt>
      <trkpt lat="46.36684" lon="-0.36353">
        <ele>77.7</ele>
        <time>2012-03-13T15:50:15Z</time>
      </trkpt>
      <trkpt lat="46.36682" lon="-0.36357">
        <ele>77.9</ele>
        <time>2012-03-13T15:50:17Z</time>
      </trkpt>
      <trkpt lat="46.36676" lon="-0.36373">
        <ele>78</ele>
        <time>2012-03-13T15:50:26Z</time>
      </trkpt>
      <trkpt lat="46.36675" lon="-0.36374">
        <ele>77.9</ele>
        <time>2012-03-13T15:50:27Z</time>
      </trkpt>
      <trkpt lat="46.36669" lon="-0.3639">
        <ele>78.8</ele>
        <time>2012-03-13T15:50:39Z</time>
      </trkpt>
      <trkpt lat="46.36666" lon="-0.36392">
        <ele>78.2</ele>
        <time>2012-03-13T15:50:39Z</time>
      </trkpt>
      <trkpt lat="46.36663" lon="-0.36398">
        <ele>77</ele>
        <time>2012-03-13T15:50:44Z</time>
      </trkpt>
      <trkpt lat="46.36661" lon="-0.36402">
        <ele>77.1</ele>
        <time>2012-03-13T15:50:47Z</time>
      </trkpt>
      <trkpt lat="46.36657" lon="-0.36415">
        <ele>76.6</ele>
        <time>2012-03-13T15:50:56Z</time>
      </trkpt>
      <trkpt lat="46.36657" lon="-0.36417">
        <ele>76.7</ele>
        <time>2012-03-13T15:50:57Z</time>
      </trkpt>
      <trkpt lat="46.36653" lon="-0.36425">
        <ele>76.8</ele>
        <time>2012-03-13T15:51:03Z</time>
      </trkpt>
      <trkpt lat="46.36652" lon="-0.36429">
        <ele>78.4</ele>
        <time>2012-03-13T15:51:07Z</time>
      </trkpt>
      <trkpt lat="46.36647" lon="-0.36445">
        <ele>80.2</ele>
        <time>2012-03-13T15:51:17Z</time>
      </trkpt>
      <trkpt lat="46.36647" lon="-0.36446">
        <ele>80.1</ele>
        <time>2012-03-13T15:51:18Z</time>
      </trkpt>
      <trkpt lat="46.36643" lon="-0.36462">
        <ele>79.5</ele>
        <time>2012-03-13T15:51:26Z</time>
      </trkpt>
      <trkpt lat="46.36644" lon="-0.36464">
        <ele>79.9</ele>
        <time>2012-03-13T15:51:26Z</time>
      </trkpt>
      <trkpt lat="46.36647" lon="-0.36484">
        <ele>80.8</ele>
        <time>2012-03-13T15:51:39Z</time>
      </trkpt>
      <trkpt lat="46.36648" lon="-0.36485">
        <ele>80.4</ele>
        <time>2012-03-13T15:51:39Z</time>
      </trkpt>
      <trkpt lat="46.36645" lon="-0.36493">
        <ele>81.3</ele>
        <time>2012-03-13T15:51:43Z</time>
      </trkpt>
      <trkpt lat="46.36643" lon="-0.36506">
        <ele>82.1</ele>
        <time>2012-03-13T15:51:50Z</time>
      </trkpt>
      <trkpt lat="46.36642" lon="-0.36508">
        <ele>82.7</ele>
        <time>2012-03-13T15:51:52Z</time>
      </trkpt>
      <trkpt lat="46.36641" lon="-0.36526">
        <ele>83</ele>
        <time>2012-03-13T15:52:02Z</time>
      </trkpt>
      <trkpt lat="46.36642" lon="-0.36528">
        <ele>82.9</ele>
        <time>2012-03-13T15:52:02Z</time>
      </trkpt>
      <trkpt lat="46.36642" lon="-0.36539">
        <ele>83.4</ele>
        <time>2012-03-13T15:52:08Z</time>
      </trkpt>
      <trkpt lat="46.36644" lon="-0.36552">
        <ele>82.4</ele>
        <time>2012-03-13T15:52:15Z</time>
      </trkpt>
      <trkpt lat="46.36644" lon="-0.36559">
        <ele>82.1</ele>
        <time>2012-03-13T15:52:17Z</time>
      </trkpt>
      <trkpt lat="46.36645" lon="-0.36575">
        <ele>83.7</ele>
        <time>2012-03-13T15:52:28Z</time>
      </trkpt>
      <trkpt lat="46.36638" lon="-0.36588">
        <ele>85.6</ele>
        <time>2012-03-13T15:52:36Z</time>
      </trkpt>
      <trkpt lat="46.36637" lon="-0.36589">
        <ele>85.6</ele>
        <time>2012-03-13T15:52:36Z</time>
      </trkpt>
      <trkpt lat="46.36634" lon="-0.3661">
        <ele>85.4</ele>
        <time>2012-03-13T15:52:49Z</time>
      </trkpt>
      <trkpt lat="46.36633" lon="-0.36615">
        <ele>85.7</ele>
        <time>2012-03-13T15:52:54Z</time>
      </trkpt>
      <trkpt lat="46.3663" lon="-0.36621">
        <ele>85.1</ele>
        <time>2012-03-13T15:52:59Z</time>
      </trkpt>
      <trkpt lat="46.36627" lon="-0.36627">
        <ele>84.7</ele>
        <time>2012-03-13T15:53:03Z</time>
      </trkpt>
      <trkpt lat="46.36623" lon="-0.36628">
        <ele>82.4</ele>
        <time>2012-03-13T15:53:08Z</time>
      </trkpt>
      <trkpt lat="46.36616" lon="-0.36629">
        <ele>80.8</ele>
        <time>2012-03-13T15:53:15Z</time>
      </trkpt>
      <trkpt lat="46.36613" lon="-0.36631">
        <ele>80.9</ele>
        <time>2012-03-13T15:53:16Z</time>
      </trkpt>
      <trkpt lat="46.36604" lon="-0.36641">
        <ele>81.2</ele>
        <time>2012-03-13T15:53:28Z</time>
      </trkpt>
      <trkpt lat="46.36603" lon="-0.36642">
        <ele>81.1</ele>
        <time>2012-03-13T15:53:28Z</time>
      </trkpt>
      <trkpt lat="46.36601" lon="-0.3665">
        <ele>81.3</ele>
        <time>2012-03-13T15:53:35Z</time>
      </trkpt>
      <trkpt lat="46.36601" lon="-0.36657">
        <ele>81</ele>
        <time>2012-03-13T15:53:37Z</time>
      </trkpt>
      <trkpt lat="46.36603" lon="-0.36668">
        <ele>81.2</ele>
        <time>2012-03-13T15:53:44Z</time>
      </trkpt>
      <trkpt lat="46.36602" lon="-0.36678">
        <ele>80.2</ele>
        <time>2012-03-13T15:53:49Z</time>
      </trkpt>
      <trkpt lat="46.366" lon="-0.36689">
        <ele>80.1</ele>
        <time>2012-03-13T15:53:53Z</time>
      </trkpt>
      <trkpt lat="46.366" lon="-0.36691">
        <ele>80.4</ele>
        <time>2012-03-13T15:53:58Z</time>
      </trkpt>
      <trkpt lat="46.366" lon="-0.36702">
        <ele>80.8</ele>
        <time>2012-03-13T15:54:05Z</time>
      </trkpt>
      <trkpt lat="46.366" lon="-0.36703">
        <ele>80.5</ele>
        <time>2012-03-13T15:54:06Z</time>
      </trkpt>
      <trkpt lat="46.36597" lon="-0.36723">
        <ele>81.6</ele>
        <time>2012-03-13T15:54:17Z</time>
      </trkpt>
      <trkpt lat="46.36596" lon="-0.3674">
        <ele>81.8</ele>
        <time>2012-03-13T15:54:28Z</time>
      </trkpt>
      <trkpt lat="46.36596" lon="-0.36741">
        <ele>81.7</ele>
        <time>2012-03-13T15:54:28Z</time>
      </trkpt>
      <trkpt lat="46.36607" lon="-0.36743">
        <ele>85.3</ele>
        <time>2012-03-13T15:54:33Z</time>
      </trkpt>
      <trkpt lat="46.36608" lon="-0.36743">
        <ele>84.1</ele>
        <time>2012-03-13T15:54:36Z</time>
      </trkpt>
      <trkpt lat="46.36607" lon="-0.36743">
        <ele>82.8</ele>
        <time>2012-03-13T15:54:41Z</time>
      </trkpt>
      <trkpt lat="46.36609" lon="-0.36737">
        <ele>80</ele>
        <time>2012-03-13T15:54:46Z</time>
      </trkpt>
      <trkpt lat="46.3661" lon="-0.36735">
        <ele>78.6</ele>
        <time>2012-03-13T15:54:51Z</time>
      </trkpt>
      <trkpt lat="46.3661" lon="-0.36735">
        <ele>78.5</ele>
        <time>2012-03-13T15:54:56Z</time>
      </trkpt>
      <trkpt lat="46.36609" lon="-0.36736">
        <ele>77.8</ele>
        <time>2012-03-13T15:55:01Z</time>
      </trkpt>
      <trkpt lat="46.36605" lon="-0.36739">
        <ele>77.6</ele>
        <time>2012-03-13T15:55:06Z</time>
      </trkpt>
      <trkpt lat="46.36602" lon="-0.36744">
        <ele>76.8</ele>
        <time>2012-03-13T15:55:11Z</time>
      </trkpt>
      <trkpt lat="46.36598" lon="-0.36751">
        <ele>79.6</ele>
        <time>2012-03-13T15:55:16Z</time>
      </trkpt>
      <trkpt lat="46.36599" lon="-0.36756">
        <ele>78.9</ele>
        <time>2012-03-13T15:55:21Z</time>
      </trkpt>
      <trkpt lat="46.36598" lon="-0.36755">
        <ele>78.5</ele>
        <time>2012-03-13T15:55:26Z</time>
      </trkpt>
      <trkpt lat="46.36598" lon="-0.36758">
        <ele>78.6</ele>
        <time>2012-03-13T15:55:31Z</time>
      </trkpt>
      <trkpt lat="46.36598" lon="-0.36758">
        <ele>78.8</ele>
        <time>2012-03-13T15:55:36Z</time>
      </trkpt>
      <trkpt lat="46.36599" lon="-0.36763">
        <ele>78.8</ele>
        <time>2012-03-13T15:55:41Z</time>
      </trkpt>
      <trkpt lat="46.36599" lon="-0.36764">
        <ele>78.5</ele>
        <time>2012-03-13T15:55:46Z</time>
      </trkpt>
      <trkpt lat="46.36598" lon="-0.36765">
        <ele>78.9</ele>
        <time>2012-03-13T15:55:51Z</time>
      </trkpt>
      <trkpt lat="46.36598" lon="-0.36766">
        <ele>78.7</ele>
        <time>2012-03-13T15:55:56Z</time>
      </trkpt>
      <trkpt lat="46.36601" lon="-0.36766">
        <ele>77.9</ele>
        <time>2012-03-13T15:56:01Z</time>
      </trkpt>
      <trkpt lat="46.36605" lon="-0.36768">
        <ele>77.4</ele>
        <time>2012-03-13T15:56:06Z</time>
      </trkpt>
      <trkpt lat="46.36608" lon="-0.36772">
        <ele>77.5</ele>
        <time>2012-03-13T15:56:11Z</time>
      </trkpt>
      <trkpt lat="46.36612" lon="-0.3678">
        <ele>78.5</ele>
        <time>2012-03-13T15:56:16Z</time>
      </trkpt>
      <trkpt lat="46.36611" lon="-0.36789">
        <ele>80.2</ele>
        <time>2012-03-13T15:56:21Z</time>
      </trkpt>
      <trkpt lat="46.36611" lon="-0.36794">
        <ele>79.5</ele>
        <time>2012-03-13T15:56:26Z</time>
      </trkpt>
      <trkpt lat="46.3661" lon="-0.36795">
        <ele>79.4</ele>
        <time>2012-03-13T15:56:31Z</time>
      </trkpt>
      <trkpt lat="46.36612" lon="-0.36799">
        <ele>78.7</ele>
        <time>2012-03-13T15:56:36Z</time>
      </trkpt>
      <trkpt lat="46.36613" lon="-0.36804">
        <ele>78.5</ele>
        <time>2012-03-13T15:56:41Z</time>
      </trkpt>
      <trkpt lat="46.36616" lon="-0.36807">
        <ele>77.7</ele>
        <time>2012-03-13T15:56:46Z</time>
      </trkpt>
      <trkpt lat="46.36618" lon="-0.36813">
        <ele>77.2</ele>
        <time>2012-03-13T15:56:51Z</time>
      </trkpt>
      <trkpt lat="46.36618" lon="-0.36816">
        <ele>76.7</ele>
        <time>2012-03-13T15:56:56Z</time>
      </trkpt>
      <trkpt lat="46.3662" lon="-0.36822">
        <ele>75.5</ele>
        <time>2012-03-13T15:57:01Z</time>
      </trkpt>
      <trkpt lat="46.36622" lon="-0.36828">
        <ele>75.5</ele>
        <time>2012-03-13T15:57:06Z</time>
      </trkpt>
      <trkpt lat="46.36623" lon="-0.36833">
        <ele>75.2</ele>
        <time>2012-03-13T15:57:11Z</time>
      </trkpt>
      <trkpt lat="46.36623" lon="-0.3684">
        <ele>75.5</ele>
        <time>2012-03-13T15:57:16Z</time>
      </trkpt>
      <trkpt lat="46.36626" lon="-0.36848">
        <ele>73.8</ele>
        <time>2012-03-13T15:57:21Z</time>
      </trkpt>
      <trkpt lat="46.36628" lon="-0.36856">
        <ele>73</ele>
        <time>2012-03-13T15:57:26Z</time>
      </trkpt>
      <trkpt lat="46.36631" lon="-0.36863">
        <ele>73.8</ele>
        <time>2012-03-13T15:57:31Z</time>
      </trkpt>
      <trkpt lat="46.36633" lon="-0.36872">
        <ele>74.8</ele>
        <time>2012-03-13T15:57:36Z</time>
      </trkpt>
      <trkpt lat="46.36634" lon="-0.3688">
        <ele>73.5</ele>
        <time>2012-03-13T15:57:41Z</time>
      </trkpt>
      <trkpt lat="46.36634" lon="-0.36886">
        <ele>72.4</ele>
        <time>2012-03-13T15:57:46Z</time>
      </trkpt>
      <trkpt lat="46.36636" lon="-0.36887">
        <ele>75.5</ele>
        <time>2012-03-13T15:57:51Z</time>
      </trkpt>
      <trkpt lat="46.36637" lon="-0.36889">
        <ele>76</ele>
        <time>2012-03-13T15:57:56Z</time>
      </trkpt>
      <trkpt lat="46.36637" lon="-0.3689">
        <ele>76.9</ele>
        <time>2012-03-13T15:58:01Z</time>
      </trkpt>
      <trkpt lat="46.3664" lon="-0.36888">
        <ele>78.8</ele>
        <time>2012-03-13T15:58:06Z</time>
      </trkpt>
      <trkpt lat="46.36637" lon="-0.3689">
        <ele>80.4</ele>
        <time>2012-03-13T15:58:13Z</time>
      </trkpt>
      <trkpt lat="46.36637" lon="-0.36891">
        <ele>80.2</ele>
        <time>2012-03-13T15:58:16Z</time>
      </trkpt>
      <trkpt lat="46.36641" lon="-0.36892">
        <ele>81.6</ele>
        <time>2012-03-13T15:58:21Z</time>
      </trkpt>
      <trkpt lat="46.36642" lon="-0.36897">
        <ele>79.4</ele>
        <time>2012-03-13T15:58:26Z</time>
      </trkpt>
      <trkpt lat="46.36644" lon="-0.36904">
        <ele>79</ele>
        <time>2012-03-13T15:58:31Z</time>
      </trkpt>
      <trkpt lat="46.36645" lon="-0.36912">
        <ele>77.7</ele>
        <time>2012-03-13T15:58:36Z</time>
      </trkpt>
      <trkpt lat="46.36643" lon="-0.36908">
        <ele>78.8</ele>
        <time>2012-03-13T15:58:41Z</time>
      </trkpt>
      <trkpt lat="46.36642" lon="-0.36903">
        <ele>77.8</ele>
        <time>2012-03-13T15:58:46Z</time>
      </trkpt>
      <trkpt lat="46.3664" lon="-0.369">
        <ele>76.6</ele>
        <time>2012-03-13T15:58:51Z</time>
      </trkpt>
      <trkpt lat="46.36641" lon="-0.369">
        <ele>77.2</ele>
        <time>2012-03-13T15:58:56Z</time>
      </trkpt>
      <trkpt lat="46.3664" lon="-0.36898">
        <ele>75.2</ele>
        <time>2012-03-13T15:59:01Z</time>
      </trkpt>
      <trkpt lat="46.36641" lon="-0.36898">
        <ele>75.2</ele>
        <time>2012-03-13T15:59:06Z</time>
      </trkpt>
      <trkpt lat="46.36641" lon="-0.36898">
        <ele>75.3</ele>
        <time>2012-03-13T15:59:11Z</time>
      </trkpt>
      <trkpt lat="46.3664" lon="-0.36897">
        <ele>75.5</ele>
        <time>2012-03-13T15:59:16Z</time>
      </trkpt>
      <trkpt lat="46.36635" lon="-0.36893">
        <ele>76.4</ele>
        <time>2012-03-13T15:59:21Z</time>
      </trkpt>
      <trkpt lat="46.36634" lon="-0.36887">
        <ele>76.1</ele>
        <time>2012-03-13T15:59:26Z</time>
      </trkpt>
      <trkpt lat="46.36633" lon="-0.3688">
        <ele>75.9</ele>
        <time>2012-03-13T15:59:31Z</time>
      </trkpt>
      <trkpt lat="46.36632" lon="-0.36872">
        <ele>74.7</ele>
        <time>2012-03-13T15:59:37Z</time>
      </trkpt>
      <trkpt lat="46.36631" lon="-0.36852">
        <ele>72.3</ele>
        <time>2012-03-13T15:59:46Z</time>
      </trkpt>
      <trkpt lat="46.3663" lon="-0.36848">
        <ele>72.8</ele>
        <time>2012-03-13T15:59:48Z</time>
      </trkpt>
      <trkpt lat="46.36628" lon="-0.36835">
        <ele>73.4</ele>
        <time>2012-03-13T15:59:57Z</time>
      </trkpt>
      <trkpt lat="46.36627" lon="-0.36833">
        <ele>73.7</ele>
        <time>2012-03-13T15:59:58Z</time>
      </trkpt>
      <trkpt lat="46.36625" lon="-0.36831">
        <ele>70.7</ele>
        <time>2012-03-13T16:00:05Z</time>
      </trkpt>
      <trkpt lat="46.36625" lon="-0.36826">
        <ele>71.1</ele>
        <time>2012-03-13T16:00:07Z</time>
      </trkpt>
      <trkpt lat="46.36619" lon="-0.36805">
        <ele>72.1</ele>
        <time>2012-03-13T16:00:18Z</time>
      </trkpt>
      <trkpt lat="46.36618" lon="-0.36803">
        <ele>72.4</ele>
        <time>2012-03-13T16:00:19Z</time>
      </trkpt>
      <trkpt lat="46.36616" lon="-0.36788">
        <ele>74.2</ele>
        <time>2012-03-13T16:00:25Z</time>
      </trkpt>
      <trkpt lat="46.36615" lon="-0.36787">
        <ele>74.9</ele>
        <time>2012-03-13T16:00:26Z</time>
      </trkpt>
      <trkpt lat="46.36615" lon="-0.36779">
        <ele>72.5</ele>
        <time>2012-03-13T16:00:39Z</time>
      </trkpt>
      <trkpt lat="46.36616" lon="-0.3678">
        <ele>72.7</ele>
        <time>2012-03-13T16:00:39Z</time>
      </trkpt>
      <trkpt lat="46.36616" lon="-0.36772">
        <ele>73.6</ele>
        <time>2012-03-13T16:00:43Z</time>
      </trkpt>
      <trkpt lat="46.36615" lon="-0.36765">
        <ele>73.8</ele>
        <time>2012-03-13T16:00:50Z</time>
      </trkpt>
      <trkpt lat="46.36612" lon="-0.36762">
        <ele>74.4</ele>
        <time>2012-03-13T16:00:52Z</time>
      </trkpt>
      <trkpt lat="46.36602" lon="-0.36763">
        <ele>75.1</ele>
        <time>2012-03-13T16:01:02Z</time>
      </trkpt>
      <trkpt lat="46.36592" lon="-0.36761">
        <ele>74.6</ele>
        <time>2012-03-13T16:01:11Z</time>
      </trkpt>
      <trkpt lat="46.36592" lon="-0.36761">
        <ele>74.4</ele>
        <time>2012-03-13T16:01:12Z</time>
      </trkpt>
      <trkpt lat="46.36592" lon="-0.36765">
        <ele>74</ele>
        <time>2012-03-13T16:01:23Z</time>
      </trkpt>
      <trkpt lat="46.36592" lon="-0.36765">
        <ele>73.5</ele>
        <time>2012-03-13T16:01:23Z</time>
      </trkpt>
      <trkpt lat="46.36592" lon="-0.36767">
        <ele>71.6</ele>
        <time>2012-03-13T16:01:27Z</time>
      </trkpt>
      <trkpt lat="46.36592" lon="-0.36767">
        <ele>71.5</ele>
        <time>2012-03-13T16:01:37Z</time>
      </trkpt>
      <trkpt lat="46.36592" lon="-0.36767">
        <ele>71.5</ele>
        <time>2012-03-13T16:01:38Z</time>
      </trkpt>
      <trkpt lat="46.36592" lon="-0.36767">
        <ele>71.5</ele>
        <time>2012-03-13T16:01:45Z</time>
      </trkpt>
      <trkpt lat="46.36592" lon="-0.36767">
        <ele>71.5</ele>
        <time>2012-03-13T16:01:48Z</time>
      </trkpt>
      <trkpt lat="46.36595" lon="-0.36762">
        <ele>71</ele>
        <time>2012-03-13T16:01:55Z</time>
      </trkpt>
      <trkpt lat="46.36597" lon="-0.3676">
        <ele>71</ele>
        <time>2012-03-13T16:01:56Z</time>
      </trkpt>
      <trkpt lat="46.36598" lon="-0.36742">
        <ele>70.8</ele>
        <time>2012-03-13T16:02:10Z</time>
      </trkpt>
      <trkpt lat="46.36598" lon="-0.3674">
        <ele>71</ele>
        <time>2012-03-13T16:02:11Z</time>
      </trkpt>
      <trkpt lat="46.366" lon="-0.36721">
        <ele>70.5</ele>
        <time>2012-03-13T16:02:25Z</time>
      </trkpt>
      <trkpt lat="46.366" lon="-0.36717">
        <ele>70.7</ele>
        <time>2012-03-13T16:02:26Z</time>
      </trkpt>
      <trkpt lat="46.366" lon="-0.36715">
        <ele>70.9</ele>
        <time>2012-03-13T16:02:28Z</time>
      </trkpt>
      <trkpt lat="46.36602" lon="-0.36701">
        <ele>72.7</ele>
        <time>2012-03-13T16:02:36Z</time>
      </trkpt>
      <trkpt lat="46.36602" lon="-0.36702">
        <ele>72.2</ele>
        <time>2012-03-13T16:02:36Z</time>
      </trkpt>
      <trkpt lat="46.36606" lon="-0.36682">
        <ele>75.1</ele>
        <time>2012-03-13T16:02:50Z</time>
      </trkpt>
      <trkpt lat="46.36607" lon="-0.3668">
        <ele>75</ele>
        <time>2012-03-13T16:02:50Z</time>
      </trkpt>
      <trkpt lat="46.36607" lon="-0.36674">
        <ele>75.2</ele>
        <time>2012-03-13T16:02:53Z</time>
      </trkpt>
      <trkpt lat="46.36606" lon="-0.36667">
        <ele>74.4</ele>
        <time>2012-03-13T16:03:01Z</time>
      </trkpt>
      <trkpt lat="46.36607" lon="-0.36664">
        <ele>74.7</ele>
        <time>2012-03-13T16:03:01Z</time>
      </trkpt>
      <trkpt lat="46.36606" lon="-0.36648">
        <ele>72.4</ele>
        <time>2012-03-13T16:03:13Z</time>
      </trkpt>
      <trkpt lat="46.36606" lon="-0.36646">
        <ele>72.4</ele>
        <time>2012-03-13T16:03:14Z</time>
      </trkpt>
      <trkpt lat="46.36608" lon="-0.36642">
        <ele>73.7</ele>
        <time>2012-03-13T16:03:19Z</time>
      </trkpt>
      <trkpt lat="46.36608" lon="-0.3664">
        <ele>73.7</ele>
        <time>2012-03-13T16:03:21Z</time>
      </trkpt>
      <trkpt lat="46.36612" lon="-0.36636">
        <ele>73.5</ele>
        <time>2012-03-13T16:03:26Z</time>
      </trkpt>
      <trkpt lat="46.36615" lon="-0.36634">
        <ele>73.1</ele>
        <time>2012-03-13T16:03:31Z</time>
      </trkpt>
      <trkpt lat="46.36615" lon="-0.36633">
        <ele>72.6</ele>
        <time>2012-03-13T16:03:36Z</time>
      </trkpt>
      <trkpt lat="46.36615" lon="-0.36633">
        <ele>72.5</ele>
        <time>2012-03-13T16:03:41Z</time>
      </trkpt>
      <trkpt lat="46.36615" lon="-0.36633">
        <ele>73</ele>
        <time>2012-03-13T16:03:46Z</time>
      </trkpt>
      <trkpt lat="46.36614" lon="-0.3663">
        <ele>74</ele>
        <time>2012-03-13T16:03:51Z</time>
      </trkpt>
      <trkpt lat="46.36612" lon="-0.36622">
        <ele>73.5</ele>
        <time>2012-03-13T16:03:56Z</time>
      </trkpt>
      <trkpt lat="46.36609" lon="-0.36614">
        <ele>75.3</ele>
        <time>2012-03-13T16:04:01Z</time>
      </trkpt>
      <trkpt lat="46.36607" lon="-0.3661">
        <ele>74.3</ele>
        <time>2012-03-13T16:04:06Z</time>
      </trkpt>
      <trkpt lat="46.36606" lon="-0.36609">
        <ele>73.9</ele>
        <time>2012-03-13T16:04:11Z</time>
      </trkpt>
      <trkpt lat="46.36604" lon="-0.36607">
        <ele>73.8</ele>
        <time>2012-03-13T16:04:16Z</time>
      </trkpt>
      <trkpt lat="46.36604" lon="-0.36607">
        <ele>73.5</ele>
        <time>2012-03-13T16:04:21Z</time>
      </trkpt>
      <trkpt lat="46.36603" lon="-0.36607">
        <ele>73.4</ele>
        <time>2012-03-13T16:04:26Z</time>
      </trkpt>
      <trkpt lat="46.36603" lon="-0.36607">
        <ele>73.4</ele>
        <time>2012-03-13T16:04:31Z</time>
      </trkpt>
      <trkpt lat="46.36603" lon="-0.36607">
        <ele>73.4</ele>
        <time>2012-03-13T16:04:36Z</time>
      </trkpt>
      <trkpt lat="46.36603" lon="-0.36607">
        <ele>73.5</ele>
        <time>2012-03-13T16:04:41Z</time>
      </trkpt>
      <trkpt lat="46.36603" lon="-0.36607">
        <ele>73.5</ele>
        <time>2012-03-13T16:04:46Z</time>
      </trkpt>
    </trkseg>
  </trk>
</gpx>